<?xml version="1.0" encoding="UTF-8" standalone="no" ?>
<gpx xmlns="http://www.topografix.com/GPX/1/1" xmlns:xsi="http://www.w3.org/2001/XMLSchema-instance" xsi:schemaLocation="http://www.topografix.com/GPX/1/1 http://www.topografix.com/GPX/1/1/gpx.xsd" version="1.1" creator="VisuGPX - https://www.visugpx.com">
  <metadata>
    <name>Sortie vélo le matin</name>
  </metadata>
  <trk>
    <name><![CDATA[Sortie vélo le matin_1]]></name>
    <trkseg>
      <trkpt lat="48.29559" lon="6.98514">
        <ele>438.2</ele>
        <time>2023-08-19T08:26:21Z</time>
      </trkpt>
      <trkpt lat="48.29563" lon="6.9851">
        <ele>438.6</ele>
        <time>2023-08-19T08:26:23Z</time>
      </trkpt>
      <trkpt lat="48.29612" lon="6.98474">
        <ele>447.1</ele>
        <time>2023-08-19T08:26:44Z</time>
      </trkpt>
      <trkpt lat="48.29645" lon="6.98456">
        <ele>452.6</ele>
        <time>2023-08-19T08:26:51Z</time>
      </trkpt>
      <trkpt lat="48.2966" lon="6.98422">
        <ele>452.4</ele>
        <time>2023-08-19T08:26:57Z</time>
      </trkpt>
      <trkpt lat="48.29671" lon="6.98359">
        <ele>453.4</ele>
        <time>2023-08-19T08:27:07Z</time>
      </trkpt>
      <trkpt lat="48.29678" lon="6.98347">
        <ele>453.6</ele>
        <time>2023-08-19T08:27:09Z</time>
      </trkpt>
      <trkpt lat="48.29689" lon="6.98331">
        <ele>454.4</ele>
        <time>2023-08-19T08:27:12Z</time>
      </trkpt>
      <trkpt lat="48.29732" lon="6.98279">
        <ele>458.9</ele>
        <time>2023-08-19T08:27:25Z</time>
      </trkpt>
      <trkpt lat="48.29767" lon="6.98212">
        <ele>463</ele>
        <time>2023-08-19T08:27:46Z</time>
      </trkpt>
      <trkpt lat="48.29769" lon="6.98128">
        <ele>465.7</ele>
        <time>2023-08-19T08:28:00Z</time>
      </trkpt>
      <trkpt lat="48.29777" lon="6.98046">
        <ele>468.2</ele>
        <time>2023-08-19T08:28:15Z</time>
      </trkpt>
      <trkpt lat="48.29807" lon="6.97978">
        <ele>470.6</ele>
        <time>2023-08-19T08:28:29Z</time>
      </trkpt>
      <trkpt lat="48.29841" lon="6.9791">
        <ele>472.2</ele>
        <time>2023-08-19T08:28:44Z</time>
      </trkpt>
      <trkpt lat="48.29889" lon="6.97868">
        <ele>473.6</ele>
        <time>2023-08-19T08:28:57Z</time>
      </trkpt>
      <trkpt lat="48.29939" lon="6.97848">
        <ele>474.2</ele>
        <time>2023-08-19T08:29:10Z</time>
      </trkpt>
      <trkpt lat="48.29949" lon="6.97838">
        <ele>474.7</ele>
        <time>2023-08-19T08:29:12Z</time>
      </trkpt>
      <trkpt lat="48.2995" lon="6.97757">
        <ele>479</ele>
        <time>2023-08-19T08:29:25Z</time>
      </trkpt>
      <trkpt lat="48.29906" lon="6.97709">
        <ele>484</ele>
        <time>2023-08-19T08:29:39Z</time>
      </trkpt>
      <trkpt lat="48.2993" lon="6.97636">
        <ele>491.5</ele>
        <time>2023-08-19T08:29:58Z</time>
      </trkpt>
      <trkpt lat="48.29969" lon="6.97577">
        <ele>496.7</ele>
        <time>2023-08-19T08:30:17Z</time>
      </trkpt>
      <trkpt lat="48.30023" lon="6.97549">
        <ele>497.8</ele>
        <time>2023-08-19T08:30:35Z</time>
      </trkpt>
      <trkpt lat="48.30042" lon="6.97557">
        <ele>497.9</ele>
        <time>2023-08-19T08:30:38Z</time>
      </trkpt>
      <trkpt lat="48.30067" lon="6.97549">
        <ele>497.9</ele>
        <time>2023-08-19T08:30:44Z</time>
      </trkpt>
      <trkpt lat="48.3008" lon="6.97542">
        <ele>498</ele>
        <time>2023-08-19T08:30:48Z</time>
      </trkpt>
      <trkpt lat="48.30082" lon="6.97528">
        <ele>498.2</ele>
        <time>2023-08-19T08:31:01Z</time>
      </trkpt>
      <trkpt lat="48.30081" lon="6.97447">
        <ele>499.6</ele>
        <time>2023-08-19T08:31:17Z</time>
      </trkpt>
      <trkpt lat="48.30082" lon="6.97361">
        <ele>503.1</ele>
        <time>2023-08-19T08:31:31Z</time>
      </trkpt>
      <trkpt lat="48.30099" lon="6.97279">
        <ele>507.5</ele>
        <time>2023-08-19T08:31:43Z</time>
      </trkpt>
      <trkpt lat="48.30111" lon="6.97218">
        <ele>510</ele>
        <time>2023-08-19T08:31:51Z</time>
      </trkpt>
      <trkpt lat="48.30108" lon="6.97197">
        <ele>511</ele>
        <time>2023-08-19T08:31:53Z</time>
      </trkpt>
      <trkpt lat="48.30103" lon="6.97178">
        <ele>511.9</ele>
        <time>2023-08-19T08:31:55Z</time>
      </trkpt>
      <trkpt lat="48.30071" lon="6.97128">
        <ele>514.2</ele>
        <time>2023-08-19T08:32:01Z</time>
      </trkpt>
      <trkpt lat="48.30065" lon="6.97106">
        <ele>515.2</ele>
        <time>2023-08-19T08:32:04Z</time>
      </trkpt>
      <trkpt lat="48.30064" lon="6.9709">
        <ele>516</ele>
        <time>2023-08-19T08:32:06Z</time>
      </trkpt>
      <trkpt lat="48.30066" lon="6.97065">
        <ele>516.6</ele>
        <time>2023-08-19T08:32:09Z</time>
      </trkpt>
      <trkpt lat="48.30068" lon="6.97049">
        <ele>516.5</ele>
        <time>2023-08-19T08:32:11Z</time>
      </trkpt>
      <trkpt lat="48.30085" lon="6.96968">
        <ele>515.6</ele>
        <time>2023-08-19T08:32:22Z</time>
      </trkpt>
      <trkpt lat="48.30111" lon="6.96897">
        <ele>514.3</ele>
        <time>2023-08-19T08:32:32Z</time>
      </trkpt>
      <trkpt lat="48.30126" lon="6.96817">
        <ele>510.9</ele>
        <time>2023-08-19T08:32:41Z</time>
      </trkpt>
      <trkpt lat="48.30129" lon="6.96801">
        <ele>510.4</ele>
        <time>2023-08-19T08:32:43Z</time>
      </trkpt>
      <trkpt lat="48.30135" lon="6.96785">
        <ele>509.9</ele>
        <time>2023-08-19T08:32:45Z</time>
      </trkpt>
      <trkpt lat="48.30143" lon="6.96772">
        <ele>508.6</ele>
        <time>2023-08-19T08:32:47Z</time>
      </trkpt>
      <trkpt lat="48.30153" lon="6.96765">
        <ele>508.2</ele>
        <time>2023-08-19T08:32:49Z</time>
      </trkpt>
      <trkpt lat="48.30162" lon="6.96768">
        <ele>507.8</ele>
        <time>2023-08-19T08:32:51Z</time>
      </trkpt>
      <trkpt lat="48.30174" lon="6.96788">
        <ele>507.1</ele>
        <time>2023-08-19T08:32:54Z</time>
      </trkpt>
      <trkpt lat="48.30183" lon="6.96807">
        <ele>506.5</ele>
        <time>2023-08-19T08:32:56Z</time>
      </trkpt>
      <trkpt lat="48.30182" lon="6.9683">
        <ele>505.8</ele>
        <time>2023-08-19T08:32:58Z</time>
      </trkpt>
      <trkpt lat="48.30178" lon="6.96852">
        <ele>505.1</ele>
        <time>2023-08-19T08:33:00Z</time>
      </trkpt>
      <trkpt lat="48.30169" lon="6.96887">
        <ele>504.1</ele>
        <time>2023-08-19T08:33:03Z</time>
      </trkpt>
      <trkpt lat="48.30168" lon="6.96911">
        <ele>503.5</ele>
        <time>2023-08-19T08:33:05Z</time>
      </trkpt>
      <trkpt lat="48.30176" lon="6.9699">
        <ele>501.6</ele>
        <time>2023-08-19T08:33:11Z</time>
      </trkpt>
      <trkpt lat="48.30203" lon="6.97059">
        <ele>499.9</ele>
        <time>2023-08-19T08:33:17Z</time>
      </trkpt>
      <trkpt lat="48.30227" lon="6.97084">
        <ele>499.1</ele>
        <time>2023-08-19T08:33:20Z</time>
      </trkpt>
      <trkpt lat="48.30283" lon="6.97116">
        <ele>497.1</ele>
        <time>2023-08-19T08:33:26Z</time>
      </trkpt>
      <trkpt lat="48.30335" lon="6.97147">
        <ele>495.4</ele>
        <time>2023-08-19T08:33:32Z</time>
      </trkpt>
      <trkpt lat="48.3039" lon="6.97177">
        <ele>493.3</ele>
        <time>2023-08-19T08:33:38Z</time>
      </trkpt>
      <trkpt lat="48.30419" lon="6.97215">
        <ele>491.8</ele>
        <time>2023-08-19T08:33:42Z</time>
      </trkpt>
      <trkpt lat="48.30436" lon="6.97262">
        <ele>490.7</ele>
        <time>2023-08-19T08:33:45Z</time>
      </trkpt>
      <trkpt lat="48.30452" lon="6.97346">
        <ele>489.1</ele>
        <time>2023-08-19T08:33:51Z</time>
      </trkpt>
      <trkpt lat="48.30461" lon="6.97363">
        <ele>488.9</ele>
        <time>2023-08-19T08:33:53Z</time>
      </trkpt>
      <trkpt lat="48.3048" lon="6.97371">
        <ele>488.6</ele>
        <time>2023-08-19T08:33:55Z</time>
      </trkpt>
      <trkpt lat="48.30499" lon="6.97368">
        <ele>488.2</ele>
        <time>2023-08-19T08:33:57Z</time>
      </trkpt>
      <trkpt lat="48.30556" lon="6.9734">
        <ele>486.7</ele>
        <time>2023-08-19T08:34:03Z</time>
      </trkpt>
      <trkpt lat="48.30559" lon="6.97323">
        <ele>486.4</ele>
        <time>2023-08-19T08:34:04Z</time>
      </trkpt>
      <trkpt lat="48.30607" lon="6.97262">
        <ele>484.9</ele>
        <time>2023-08-19T08:34:11Z</time>
      </trkpt>
      <trkpt lat="48.30615" lon="6.97257">
        <ele>484.7</ele>
        <time>2023-08-19T08:34:12Z</time>
      </trkpt>
      <trkpt lat="48.30634" lon="6.97256">
        <ele>484.3</ele>
        <time>2023-08-19T08:34:14Z</time>
      </trkpt>
      <trkpt lat="48.30651" lon="6.97265">
        <ele>483.7</ele>
        <time>2023-08-19T08:34:16Z</time>
      </trkpt>
      <trkpt lat="48.30696" lon="6.97329">
        <ele>481.5</ele>
        <time>2023-08-19T08:34:23Z</time>
      </trkpt>
      <trkpt lat="48.30739" lon="6.97378">
        <ele>478.4</ele>
        <time>2023-08-19T08:34:29Z</time>
      </trkpt>
      <trkpt lat="48.30752" lon="6.97385">
        <ele>477.6</ele>
        <time>2023-08-19T08:34:31Z</time>
      </trkpt>
      <trkpt lat="48.30766" lon="6.9738">
        <ele>476.4</ele>
        <time>2023-08-19T08:34:33Z</time>
      </trkpt>
      <trkpt lat="48.30778" lon="6.97365">
        <ele>474.7</ele>
        <time>2023-08-19T08:34:35Z</time>
      </trkpt>
      <trkpt lat="48.30791" lon="6.97333">
        <ele>472</ele>
        <time>2023-08-19T08:34:38Z</time>
      </trkpt>
      <trkpt lat="48.30795" lon="6.97308">
        <ele>470.6</ele>
        <time>2023-08-19T08:34:40Z</time>
      </trkpt>
      <trkpt lat="48.30802" lon="6.97262">
        <ele>468.2</ele>
        <time>2023-08-19T08:34:46Z</time>
      </trkpt>
      <trkpt lat="48.30815" lon="6.97335">
        <ele>471.1</ele>
        <time>2023-08-19T08:35:08Z</time>
      </trkpt>
      <trkpt lat="48.30782" lon="6.97402">
        <ele>473</ele>
        <time>2023-08-19T08:35:26Z</time>
      </trkpt>
      <trkpt lat="48.30744" lon="6.97464">
        <ele>474.5</ele>
        <time>2023-08-19T08:35:42Z</time>
      </trkpt>
      <trkpt lat="48.30705" lon="6.97527">
        <ele>476.3</ele>
        <time>2023-08-19T08:35:54Z</time>
      </trkpt>
      <trkpt lat="48.30699" lon="6.97541">
        <ele>476.6</ele>
        <time>2023-08-19T08:35:56Z</time>
      </trkpt>
      <trkpt lat="48.30696" lon="6.97557">
        <ele>476.9</ele>
        <time>2023-08-19T08:35:58Z</time>
      </trkpt>
      <trkpt lat="48.30709" lon="6.97636">
        <ele>478.3</ele>
        <time>2023-08-19T08:36:09Z</time>
      </trkpt>
      <trkpt lat="48.30713" lon="6.97648">
        <ele>478.5</ele>
        <time>2023-08-19T08:36:11Z</time>
      </trkpt>
      <trkpt lat="48.30721" lon="6.97657">
        <ele>478.7</ele>
        <time>2023-08-19T08:36:13Z</time>
      </trkpt>
      <trkpt lat="48.3073" lon="6.97663">
        <ele>478.9</ele>
        <time>2023-08-19T08:36:15Z</time>
      </trkpt>
      <trkpt lat="48.30741" lon="6.97667">
        <ele>479.3</ele>
        <time>2023-08-19T08:36:17Z</time>
      </trkpt>
      <trkpt lat="48.3076" lon="6.97665">
        <ele>480.1</ele>
        <time>2023-08-19T08:36:21Z</time>
      </trkpt>
      <trkpt lat="48.30807" lon="6.97624">
        <ele>482.1</ele>
        <time>2023-08-19T08:36:33Z</time>
      </trkpt>
      <trkpt lat="48.30832" lon="6.97611">
        <ele>482.9</ele>
        <time>2023-08-19T08:36:39Z</time>
      </trkpt>
      <trkpt lat="48.30857" lon="6.97606">
        <ele>483.7</ele>
        <time>2023-08-19T08:36:45Z</time>
      </trkpt>
      <trkpt lat="48.30914" lon="6.97601">
        <ele>485.5</ele>
        <time>2023-08-19T08:36:58Z</time>
      </trkpt>
      <trkpt lat="48.30922" lon="6.97597">
        <ele>485.8</ele>
        <time>2023-08-19T08:37:00Z</time>
      </trkpt>
      <trkpt lat="48.3093" lon="6.9759">
        <ele>486.1</ele>
        <time>2023-08-19T08:37:02Z</time>
      </trkpt>
      <trkpt lat="48.30976" lon="6.97539">
        <ele>488.2</ele>
        <time>2023-08-19T08:37:13Z</time>
      </trkpt>
      <trkpt lat="48.30991" lon="6.97533">
        <ele>488.7</ele>
        <time>2023-08-19T08:37:16Z</time>
      </trkpt>
      <trkpt lat="48.31012" lon="6.97534">
        <ele>489.5</ele>
        <time>2023-08-19T08:37:21Z</time>
      </trkpt>
      <trkpt lat="48.3102" lon="6.97539">
        <ele>489.8</ele>
        <time>2023-08-19T08:37:23Z</time>
      </trkpt>
      <trkpt lat="48.31062" lon="6.97591">
        <ele>491.7</ele>
        <time>2023-08-19T08:37:34Z</time>
      </trkpt>
      <trkpt lat="48.31098" lon="6.97653">
        <ele>493.5</ele>
        <time>2023-08-19T08:37:45Z</time>
      </trkpt>
      <trkpt lat="48.31105" lon="6.97672">
        <ele>493.9</ele>
        <time>2023-08-19T08:37:48Z</time>
      </trkpt>
      <trkpt lat="48.31109" lon="6.97685">
        <ele>494.2</ele>
        <time>2023-08-19T08:37:50Z</time>
      </trkpt>
      <trkpt lat="48.31121" lon="6.9776">
        <ele>495.4</ele>
        <time>2023-08-19T08:38:01Z</time>
      </trkpt>
      <trkpt lat="48.31156" lon="6.97831">
        <ele>498.3</ele>
        <time>2023-08-19T08:38:15Z</time>
      </trkpt>
      <trkpt lat="48.31191" lon="6.979">
        <ele>502.2</ele>
        <time>2023-08-19T08:38:28Z</time>
      </trkpt>
      <trkpt lat="48.31225" lon="6.97957">
        <ele>504.8</ele>
        <time>2023-08-19T08:38:40Z</time>
      </trkpt>
      <trkpt lat="48.31272" lon="6.9801">
        <ele>506.5</ele>
        <time>2023-08-19T08:38:52Z</time>
      </trkpt>
      <trkpt lat="48.31314" lon="6.98063">
        <ele>507.5</ele>
        <time>2023-08-19T08:39:03Z</time>
      </trkpt>
      <trkpt lat="48.31352" lon="6.98131">
        <ele>507.6</ele>
        <time>2023-08-19T08:39:13Z</time>
      </trkpt>
      <trkpt lat="48.31387" lon="6.98201">
        <ele>507.8</ele>
        <time>2023-08-19T08:39:22Z</time>
      </trkpt>
      <trkpt lat="48.31423" lon="6.98273">
        <ele>508.3</ele>
        <time>2023-08-19T08:39:31Z</time>
      </trkpt>
      <trkpt lat="48.3143" lon="6.98289">
        <ele>508.4</ele>
        <time>2023-08-19T08:39:33Z</time>
      </trkpt>
      <trkpt lat="48.31435" lon="6.98308">
        <ele>508.7</ele>
        <time>2023-08-19T08:39:35Z</time>
      </trkpt>
      <trkpt lat="48.31441" lon="6.98395">
        <ele>509.6</ele>
        <time>2023-08-19T08:39:44Z</time>
      </trkpt>
      <trkpt lat="48.31446" lon="6.98478">
        <ele>510.6</ele>
        <time>2023-08-19T08:39:53Z</time>
      </trkpt>
      <trkpt lat="48.31448" lon="6.98496">
        <ele>510.8</ele>
        <time>2023-08-19T08:39:55Z</time>
      </trkpt>
      <trkpt lat="48.31447" lon="6.98524">
        <ele>510.7</ele>
        <time>2023-08-19T08:39:58Z</time>
      </trkpt>
      <trkpt lat="48.31433" lon="6.98596">
        <ele>509.8</ele>
        <time>2023-08-19T08:40:05Z</time>
      </trkpt>
      <trkpt lat="48.31434" lon="6.98616">
        <ele>509.6</ele>
        <time>2023-08-19T08:40:07Z</time>
      </trkpt>
      <trkpt lat="48.31443" lon="6.98632">
        <ele>509.5</ele>
        <time>2023-08-19T08:40:09Z</time>
      </trkpt>
      <trkpt lat="48.31456" lon="6.98637">
        <ele>509.2</ele>
        <time>2023-08-19T08:40:11Z</time>
      </trkpt>
      <trkpt lat="48.3147" lon="6.98632">
        <ele>508.7</ele>
        <time>2023-08-19T08:40:13Z</time>
      </trkpt>
      <trkpt lat="48.31501" lon="6.98616">
        <ele>507.3</ele>
        <time>2023-08-19T08:40:17Z</time>
      </trkpt>
      <trkpt lat="48.31516" lon="6.98621">
        <ele>506.7</ele>
        <time>2023-08-19T08:40:19Z</time>
      </trkpt>
      <trkpt lat="48.31534" lon="6.98639">
        <ele>506.1</ele>
        <time>2023-08-19T08:40:22Z</time>
      </trkpt>
      <trkpt lat="48.31542" lon="6.98656">
        <ele>505.7</ele>
        <time>2023-08-19T08:40:24Z</time>
      </trkpt>
      <trkpt lat="48.31548" lon="6.98677">
        <ele>505.3</ele>
        <time>2023-08-19T08:40:26Z</time>
      </trkpt>
      <trkpt lat="48.31558" lon="6.98766">
        <ele>503.9</ele>
        <time>2023-08-19T08:40:33Z</time>
      </trkpt>
      <trkpt lat="48.31545" lon="6.98848">
        <ele>503.8</ele>
        <time>2023-08-19T08:40:40Z</time>
      </trkpt>
      <trkpt lat="48.31524" lon="6.98917">
        <ele>505.1</ele>
        <time>2023-08-19T08:40:48Z</time>
      </trkpt>
      <trkpt lat="48.31524" lon="6.98932">
        <ele>505.7</ele>
        <time>2023-08-19T08:40:50Z</time>
      </trkpt>
      <trkpt lat="48.3153" lon="6.98942">
        <ele>505.8</ele>
        <time>2023-08-19T08:40:52Z</time>
      </trkpt>
      <trkpt lat="48.31583" lon="6.98933">
        <ele>508.7</ele>
        <time>2023-08-19T08:41:08Z</time>
      </trkpt>
      <trkpt lat="48.31604" lon="6.98908">
        <ele>511.4</ele>
        <time>2023-08-19T08:41:17Z</time>
      </trkpt>
      <trkpt lat="48.31647" lon="6.98854">
        <ele>517</ele>
        <time>2023-08-19T08:41:36Z</time>
      </trkpt>
      <trkpt lat="48.31681" lon="6.98788">
        <ele>522.2</ele>
        <time>2023-08-19T08:41:55Z</time>
      </trkpt>
      <trkpt lat="48.31701" lon="6.98708">
        <ele>527.2</ele>
        <time>2023-08-19T08:42:12Z</time>
      </trkpt>
      <trkpt lat="48.31728" lon="6.98636">
        <ele>533</ele>
        <time>2023-08-19T08:42:31Z</time>
      </trkpt>
      <trkpt lat="48.31782" lon="6.98613">
        <ele>538.5</ele>
        <time>2023-08-19T08:42:51Z</time>
      </trkpt>
      <trkpt lat="48.31837" lon="6.98606">
        <ele>540.1</ele>
        <time>2023-08-19T08:43:09Z</time>
      </trkpt>
      <trkpt lat="48.31855" lon="6.98587">
        <ele>539.2</ele>
        <time>2023-08-19T08:43:13Z</time>
      </trkpt>
      <trkpt lat="48.3186" lon="6.98571">
        <ele>539</ele>
        <time>2023-08-19T08:43:15Z</time>
      </trkpt>
      <trkpt lat="48.31863" lon="6.98553">
        <ele>539</ele>
        <time>2023-08-19T08:43:17Z</time>
      </trkpt>
      <trkpt lat="48.31866" lon="6.98465">
        <ele>538.6</ele>
        <time>2023-08-19T08:43:27Z</time>
      </trkpt>
      <trkpt lat="48.31865" lon="6.98384">
        <ele>536.3</ele>
        <time>2023-08-19T08:43:35Z</time>
      </trkpt>
      <trkpt lat="48.31872" lon="6.98296">
        <ele>533.5</ele>
        <time>2023-08-19T08:43:43Z</time>
      </trkpt>
      <trkpt lat="48.31891" lon="6.98211">
        <ele>531.3</ele>
        <time>2023-08-19T08:43:50Z</time>
      </trkpt>
      <trkpt lat="48.31924" lon="6.98133">
        <ele>529.4</ele>
        <time>2023-08-19T08:43:57Z</time>
      </trkpt>
      <trkpt lat="48.31949" lon="6.98092">
        <ele>528.6</ele>
        <time>2023-08-19T08:44:01Z</time>
      </trkpt>
      <trkpt lat="48.32005" lon="6.98051">
        <ele>525</ele>
        <time>2023-08-19T08:44:08Z</time>
      </trkpt>
      <trkpt lat="48.32058" lon="6.98046">
        <ele>522.5</ele>
        <time>2023-08-19T08:44:14Z</time>
      </trkpt>
      <trkpt lat="48.32073" lon="6.98037">
        <ele>522.2</ele>
        <time>2023-08-19T08:44:16Z</time>
      </trkpt>
      <trkpt lat="48.32086" lon="6.98021">
        <ele>522.3</ele>
        <time>2023-08-19T08:44:18Z</time>
      </trkpt>
      <trkpt lat="48.32093" lon="6.98002">
        <ele>522.5</ele>
        <time>2023-08-19T08:44:20Z</time>
      </trkpt>
      <trkpt lat="48.32097" lon="6.9798">
        <ele>522.5</ele>
        <time>2023-08-19T08:44:22Z</time>
      </trkpt>
      <trkpt lat="48.32101" lon="6.97896">
        <ele>523.9</ele>
        <time>2023-08-19T08:44:31Z</time>
      </trkpt>
      <trkpt lat="48.32108" lon="6.97849">
        <ele>524.9</ele>
        <time>2023-08-19T08:44:39Z</time>
      </trkpt>
      <trkpt lat="48.32118" lon="6.97931">
        <ele>526</ele>
        <time>2023-08-19T08:44:52Z</time>
      </trkpt>
      <trkpt lat="48.32134" lon="6.98016">
        <ele>525.7</ele>
        <time>2023-08-19T08:45:02Z</time>
      </trkpt>
      <trkpt lat="48.32159" lon="6.9808">
        <ele>524.6</ele>
        <time>2023-08-19T08:45:09Z</time>
      </trkpt>
      <trkpt lat="48.32209" lon="6.98122">
        <ele>520.9</ele>
        <time>2023-08-19T08:45:16Z</time>
      </trkpt>
      <trkpt lat="48.32227" lon="6.98127">
        <ele>519.7</ele>
        <time>2023-08-19T08:45:18Z</time>
      </trkpt>
      <trkpt lat="48.32258" lon="6.98125">
        <ele>517.8</ele>
        <time>2023-08-19T08:45:21Z</time>
      </trkpt>
      <trkpt lat="48.32278" lon="6.98116">
        <ele>516.3</ele>
        <time>2023-08-19T08:45:23Z</time>
      </trkpt>
      <trkpt lat="48.32298" lon="6.98102">
        <ele>514.9</ele>
        <time>2023-08-19T08:45:25Z</time>
      </trkpt>
      <trkpt lat="48.32314" lon="6.9808">
        <ele>513.4</ele>
        <time>2023-08-19T08:45:27Z</time>
      </trkpt>
      <trkpt lat="48.32346" lon="6.98012">
        <ele>509.7</ele>
        <time>2023-08-19T08:45:32Z</time>
      </trkpt>
      <trkpt lat="48.32378" lon="6.97943">
        <ele>506</ele>
        <time>2023-08-19T08:45:37Z</time>
      </trkpt>
      <trkpt lat="48.32401" lon="6.97866">
        <ele>502.6</ele>
        <time>2023-08-19T08:45:42Z</time>
      </trkpt>
      <trkpt lat="48.32412" lon="6.97782">
        <ele>500</ele>
        <time>2023-08-19T08:45:47Z</time>
      </trkpt>
      <trkpt lat="48.32415" lon="6.97767">
        <ele>499.5</ele>
        <time>2023-08-19T08:45:48Z</time>
      </trkpt>
      <trkpt lat="48.32426" lon="6.97741">
        <ele>498.5</ele>
        <time>2023-08-19T08:45:50Z</time>
      </trkpt>
      <trkpt lat="48.32442" lon="6.97733">
        <ele>497.8</ele>
        <time>2023-08-19T08:45:52Z</time>
      </trkpt>
      <trkpt lat="48.32461" lon="6.97795">
        <ele>495.5</ele>
        <time>2023-08-19T08:45:56Z</time>
      </trkpt>
      <trkpt lat="48.32479" lon="6.97879">
        <ele>491.9</ele>
        <time>2023-08-19T08:46:01Z</time>
      </trkpt>
      <trkpt lat="48.32502" lon="6.97962">
        <ele>487.7</ele>
        <time>2023-08-19T08:46:06Z</time>
      </trkpt>
      <trkpt lat="48.32528" lon="6.9805">
        <ele>483.6</ele>
        <time>2023-08-19T08:46:11Z</time>
      </trkpt>
      <trkpt lat="48.3253" lon="6.98089">
        <ele>481.8</ele>
        <time>2023-08-19T08:46:13Z</time>
      </trkpt>
      <trkpt lat="48.3252" lon="6.98127">
        <ele>479.9</ele>
        <time>2023-08-19T08:46:15Z</time>
      </trkpt>
      <trkpt lat="48.32507" lon="6.98161">
        <ele>478.2</ele>
        <time>2023-08-19T08:46:17Z</time>
      </trkpt>
      <trkpt lat="48.32507" lon="6.98198">
        <ele>476.8</ele>
        <time>2023-08-19T08:46:19Z</time>
      </trkpt>
      <trkpt lat="48.32519" lon="6.98231">
        <ele>475</ele>
        <time>2023-08-19T08:46:21Z</time>
      </trkpt>
      <trkpt lat="48.32569" lon="6.98294">
        <ele>470.3</ele>
        <time>2023-08-19T08:46:26Z</time>
      </trkpt>
      <trkpt lat="48.3262" lon="6.9833">
        <ele>466.4</ele>
        <time>2023-08-19T08:46:30Z</time>
      </trkpt>
      <trkpt lat="48.32672" lon="6.98372">
        <ele>463</ele>
        <time>2023-08-19T08:46:34Z</time>
      </trkpt>
      <trkpt lat="48.32727" lon="6.984">
        <ele>458.9</ele>
        <time>2023-08-19T08:46:38Z</time>
      </trkpt>
      <trkpt lat="48.32789" lon="6.98405">
        <ele>454.2</ele>
        <time>2023-08-19T08:46:42Z</time>
      </trkpt>
      <trkpt lat="48.32847" lon="6.98398">
        <ele>450.1</ele>
        <time>2023-08-19T08:46:46Z</time>
      </trkpt>
      <trkpt lat="48.32901" lon="6.98376">
        <ele>446</ele>
        <time>2023-08-19T08:46:50Z</time>
      </trkpt>
      <trkpt lat="48.32955" lon="6.98365">
        <ele>442.4</ele>
        <time>2023-08-19T08:46:54Z</time>
      </trkpt>
      <trkpt lat="48.33008" lon="6.98349">
        <ele>438.6</ele>
        <time>2023-08-19T08:46:58Z</time>
      </trkpt>
      <trkpt lat="48.33065" lon="6.98355">
        <ele>434.5</ele>
        <time>2023-08-19T08:47:03Z</time>
      </trkpt>
      <trkpt lat="48.33073" lon="6.98362">
        <ele>433.8</ele>
        <time>2023-08-19T08:47:04Z</time>
      </trkpt>
      <trkpt lat="48.33089" lon="6.98382">
        <ele>432.1</ele>
        <time>2023-08-19T08:47:06Z</time>
      </trkpt>
      <trkpt lat="48.3314" lon="6.98456">
        <ele>427.1</ele>
        <time>2023-08-19T08:47:10Z</time>
      </trkpt>
      <trkpt lat="48.33175" lon="6.98527">
        <ele>423.2</ele>
        <time>2023-08-19T08:47:13Z</time>
      </trkpt>
      <trkpt lat="48.33192" lon="6.98567">
        <ele>421.1</ele>
        <time>2023-08-19T08:47:15Z</time>
      </trkpt>
      <trkpt lat="48.33203" lon="6.98609">
        <ele>419.1</ele>
        <time>2023-08-19T08:47:17Z</time>
      </trkpt>
      <trkpt lat="48.33217" lon="6.98688">
        <ele>415.4</ele>
        <time>2023-08-19T08:47:21Z</time>
      </trkpt>
      <trkpt lat="48.33222" lon="6.98706">
        <ele>414.6</ele>
        <time>2023-08-19T08:47:22Z</time>
      </trkpt>
      <trkpt lat="48.33238" lon="6.98735">
        <ele>413.1</ele>
        <time>2023-08-19T08:47:24Z</time>
      </trkpt>
      <trkpt lat="48.33258" lon="6.98756">
        <ele>412.2</ele>
        <time>2023-08-19T08:47:26Z</time>
      </trkpt>
      <trkpt lat="48.33278" lon="6.98775">
        <ele>411.8</ele>
        <time>2023-08-19T08:47:28Z</time>
      </trkpt>
      <trkpt lat="48.3329" lon="6.98801">
        <ele>411.6</ele>
        <time>2023-08-19T08:47:30Z</time>
      </trkpt>
      <trkpt lat="48.3329" lon="6.98831">
        <ele>410.8</ele>
        <time>2023-08-19T08:47:32Z</time>
      </trkpt>
      <trkpt lat="48.33268" lon="6.98912">
        <ele>408.7</ele>
        <time>2023-08-19T08:47:38Z</time>
      </trkpt>
      <trkpt lat="48.33251" lon="6.98979">
        <ele>407.4</ele>
        <time>2023-08-19T08:47:43Z</time>
      </trkpt>
      <trkpt lat="48.33251" lon="6.99006">
        <ele>407.3</ele>
        <time>2023-08-19T08:47:45Z</time>
      </trkpt>
      <trkpt lat="48.33254" lon="6.99033">
        <ele>407.3</ele>
        <time>2023-08-19T08:47:47Z</time>
      </trkpt>
      <trkpt lat="48.33281" lon="6.99113">
        <ele>407.1</ele>
        <time>2023-08-19T08:47:54Z</time>
      </trkpt>
      <trkpt lat="48.33311" lon="6.99188">
        <ele>407.8</ele>
        <time>2023-08-19T08:48:02Z</time>
      </trkpt>
      <trkpt lat="48.33346" lon="6.99255">
        <ele>410.2</ele>
        <time>2023-08-19T08:48:13Z</time>
      </trkpt>
      <trkpt lat="48.33379" lon="6.99322">
        <ele>413.7</ele>
        <time>2023-08-19T08:48:26Z</time>
      </trkpt>
      <trkpt lat="48.33413" lon="6.9939">
        <ele>417.5</ele>
        <time>2023-08-19T08:48:41Z</time>
      </trkpt>
      <trkpt lat="48.33446" lon="6.99455">
        <ele>420.9</ele>
        <time>2023-08-19T08:48:55Z</time>
      </trkpt>
      <trkpt lat="48.33485" lon="6.99517">
        <ele>424.3</ele>
        <time>2023-08-19T08:49:09Z</time>
      </trkpt>
      <trkpt lat="48.33516" lon="6.99557">
        <ele>426.5</ele>
        <time>2023-08-19T08:49:19Z</time>
      </trkpt>
      <trkpt lat="48.33524" lon="6.99561">
        <ele>426.9</ele>
        <time>2023-08-19T08:49:21Z</time>
      </trkpt>
      <trkpt lat="48.33538" lon="6.99562">
        <ele>427.4</ele>
        <time>2023-08-19T08:49:24Z</time>
      </trkpt>
      <trkpt lat="48.33546" lon="6.99561">
        <ele>427.5</ele>
        <time>2023-08-19T08:49:26Z</time>
      </trkpt>
      <trkpt lat="48.33564" lon="6.99549">
        <ele>427.9</ele>
        <time>2023-08-19T08:49:30Z</time>
      </trkpt>
      <trkpt lat="48.33572" lon="6.99539">
        <ele>428.2</ele>
        <time>2023-08-19T08:49:32Z</time>
      </trkpt>
      <trkpt lat="48.33578" lon="6.99526">
        <ele>428.6</ele>
        <time>2023-08-19T08:49:34Z</time>
      </trkpt>
      <trkpt lat="48.3359" lon="6.99491">
        <ele>429.9</ele>
        <time>2023-08-19T08:49:40Z</time>
      </trkpt>
      <trkpt lat="48.33601" lon="6.99471">
        <ele>430.8</ele>
        <time>2023-08-19T08:49:44Z</time>
      </trkpt>
      <trkpt lat="48.33608" lon="6.99448">
        <ele>431.8</ele>
        <time>2023-08-19T08:49:48Z</time>
      </trkpt>
      <trkpt lat="48.3361" lon="6.99423">
        <ele>432.8</ele>
        <time>2023-08-19T08:49:52Z</time>
      </trkpt>
      <trkpt lat="48.33613" lon="6.99366">
        <ele>434.9</ele>
        <time>2023-08-19T08:50:01Z</time>
      </trkpt>
      <trkpt lat="48.33647" lon="6.99298">
        <ele>438.2</ele>
        <time>2023-08-19T08:50:15Z</time>
      </trkpt>
      <trkpt lat="48.33684" lon="6.99239">
        <ele>441.3</ele>
        <time>2023-08-19T08:50:29Z</time>
      </trkpt>
      <trkpt lat="48.33709" lon="6.99198">
        <ele>443.5</ele>
        <time>2023-08-19T08:50:38Z</time>
      </trkpt>
      <trkpt lat="48.33716" lon="6.99194">
        <ele>444</ele>
        <time>2023-08-19T08:50:40Z</time>
      </trkpt>
      <trkpt lat="48.33726" lon="6.99203">
        <ele>444.7</ele>
        <time>2023-08-19T08:50:43Z</time>
      </trkpt>
      <trkpt lat="48.33706" lon="6.99281">
        <ele>449</ele>
        <time>2023-08-19T08:50:59Z</time>
      </trkpt>
      <trkpt lat="48.33694" lon="6.99363">
        <ele>452.8</ele>
        <time>2023-08-19T08:51:14Z</time>
      </trkpt>
      <trkpt lat="48.33683" lon="6.99443">
        <ele>455.7</ele>
        <time>2023-08-19T08:51:28Z</time>
      </trkpt>
      <trkpt lat="48.33665" lon="6.9952">
        <ele>458.5</ele>
        <time>2023-08-19T08:51:41Z</time>
      </trkpt>
      <trkpt lat="48.3366" lon="6.99603">
        <ele>461.5</ele>
        <time>2023-08-19T08:51:55Z</time>
      </trkpt>
      <trkpt lat="48.33662" lon="6.99685">
        <ele>464.7</ele>
        <time>2023-08-19T08:52:09Z</time>
      </trkpt>
      <trkpt lat="48.33674" lon="6.99764">
        <ele>468</ele>
        <time>2023-08-19T08:52:23Z</time>
      </trkpt>
      <trkpt lat="48.33703" lon="6.99836">
        <ele>471.4</ele>
        <time>2023-08-19T08:52:38Z</time>
      </trkpt>
      <trkpt lat="48.33752" lon="6.99874">
        <ele>474.7</ele>
        <time>2023-08-19T08:52:52Z</time>
      </trkpt>
      <trkpt lat="48.33748" lon="6.9995">
        <ele>478.6</ele>
        <time>2023-08-19T08:53:09Z</time>
      </trkpt>
      <trkpt lat="48.33739" lon="7.00032">
        <ele>482</ele>
        <time>2023-08-19T08:53:21Z</time>
      </trkpt>
      <trkpt lat="48.33737" lon="7.00056">
        <ele>483</ele>
        <time>2023-08-19T08:53:25Z</time>
      </trkpt>
      <trkpt lat="48.33748" lon="7.00138">
        <ele>486.2</ele>
        <time>2023-08-19T08:53:41Z</time>
      </trkpt>
      <trkpt lat="48.33763" lon="7.00219">
        <ele>489</ele>
        <time>2023-08-19T08:53:52Z</time>
      </trkpt>
      <trkpt lat="48.33774" lon="7.00298">
        <ele>491.9</ele>
        <time>2023-08-19T08:54:04Z</time>
      </trkpt>
      <trkpt lat="48.33779" lon="7.00385">
        <ele>495.3</ele>
        <time>2023-08-19T08:54:17Z</time>
      </trkpt>
      <trkpt lat="48.33771" lon="7.00469">
        <ele>498.6</ele>
        <time>2023-08-19T08:54:29Z</time>
      </trkpt>
      <trkpt lat="48.33763" lon="7.00551">
        <ele>501.9</ele>
        <time>2023-08-19T08:54:42Z</time>
      </trkpt>
      <trkpt lat="48.33754" lon="7.00636">
        <ele>505</ele>
        <time>2023-08-19T08:54:55Z</time>
      </trkpt>
      <trkpt lat="48.33765" lon="7.00711">
        <ele>508.1</ele>
        <time>2023-08-19T08:55:09Z</time>
      </trkpt>
      <trkpt lat="48.33807" lon="7.00769">
        <ele>511.2</ele>
        <time>2023-08-19T08:55:21Z</time>
      </trkpt>
      <trkpt lat="48.33846" lon="7.00825">
        <ele>514.4</ele>
        <time>2023-08-19T08:55:33Z</time>
      </trkpt>
      <trkpt lat="48.33883" lon="7.00892">
        <ele>518.2</ele>
        <time>2023-08-19T08:55:47Z</time>
      </trkpt>
      <trkpt lat="48.33928" lon="7.00946">
        <ele>521.5</ele>
        <time>2023-08-19T08:56:00Z</time>
      </trkpt>
      <trkpt lat="48.33983" lon="7.00957">
        <ele>524</ele>
        <time>2023-08-19T08:56:13Z</time>
      </trkpt>
      <trkpt lat="48.3404" lon="7.00962">
        <ele>526.7</ele>
        <time>2023-08-19T08:56:26Z</time>
      </trkpt>
      <trkpt lat="48.34084" lon="7.00959">
        <ele>528.9</ele>
        <time>2023-08-19T08:56:36Z</time>
      </trkpt>
      <trkpt lat="48.34103" lon="7.00968">
        <ele>529.8</ele>
        <time>2023-08-19T08:56:40Z</time>
      </trkpt>
      <trkpt lat="48.34115" lon="7.0098">
        <ele>530.5</ele>
        <time>2023-08-19T08:56:43Z</time>
      </trkpt>
      <trkpt lat="48.34127" lon="7.01001">
        <ele>531.4</ele>
        <time>2023-08-19T08:56:47Z</time>
      </trkpt>
      <trkpt lat="48.34154" lon="7.01075">
        <ele>534.5</ele>
        <time>2023-08-19T08:57:00Z</time>
      </trkpt>
      <trkpt lat="48.3418" lon="7.01142">
        <ele>537.1</ele>
        <time>2023-08-19T08:57:12Z</time>
      </trkpt>
      <trkpt lat="48.34185" lon="7.01152">
        <ele>537.6</ele>
        <time>2023-08-19T08:57:14Z</time>
      </trkpt>
      <trkpt lat="48.34211" lon="7.01224">
        <ele>540.8</ele>
        <time>2023-08-19T08:57:27Z</time>
      </trkpt>
      <trkpt lat="48.34239" lon="7.013">
        <ele>543.8</ele>
        <time>2023-08-19T08:57:40Z</time>
      </trkpt>
      <trkpt lat="48.34274" lon="7.01368">
        <ele>546.2</ele>
        <time>2023-08-19T08:57:53Z</time>
      </trkpt>
      <trkpt lat="48.34316" lon="7.01421">
        <ele>548.4</ele>
        <time>2023-08-19T08:58:05Z</time>
      </trkpt>
      <trkpt lat="48.34333" lon="7.01434">
        <ele>549.1</ele>
        <time>2023-08-19T08:58:09Z</time>
      </trkpt>
      <trkpt lat="48.34344" lon="7.01422">
        <ele>550</ele>
        <time>2023-08-19T08:58:13Z</time>
      </trkpt>
      <trkpt lat="48.34341" lon="7.0141">
        <ele>550.4</ele>
        <time>2023-08-19T08:58:15Z</time>
      </trkpt>
      <trkpt lat="48.34328" lon="7.01331">
        <ele>552.8</ele>
        <time>2023-08-19T08:58:29Z</time>
      </trkpt>
      <trkpt lat="48.34341" lon="7.01251">
        <ele>555.9</ele>
        <time>2023-08-19T08:58:44Z</time>
      </trkpt>
      <trkpt lat="48.3433" lon="7.01172">
        <ele>559.3</ele>
        <time>2023-08-19T08:58:58Z</time>
      </trkpt>
      <trkpt lat="48.34342" lon="7.01093">
        <ele>562.8</ele>
        <time>2023-08-19T08:59:12Z</time>
      </trkpt>
      <trkpt lat="48.3437" lon="7.01022">
        <ele>565.5</ele>
        <time>2023-08-19T08:59:26Z</time>
      </trkpt>
      <trkpt lat="48.34377" lon="7.01008">
        <ele>566.1</ele>
        <time>2023-08-19T08:59:29Z</time>
      </trkpt>
      <trkpt lat="48.34403" lon="7.00954">
        <ele>568.3</ele>
        <time>2023-08-19T08:59:40Z</time>
      </trkpt>
      <trkpt lat="48.34439" lon="7.00885">
        <ele>571.2</ele>
        <time>2023-08-19T08:59:54Z</time>
      </trkpt>
      <trkpt lat="48.34488" lon="7.00843">
        <ele>573.8</ele>
        <time>2023-08-19T09:00:07Z</time>
      </trkpt>
      <trkpt lat="48.34541" lon="7.00806">
        <ele>577.1</ele>
        <time>2023-08-19T09:00:20Z</time>
      </trkpt>
      <trkpt lat="48.34557" lon="7.00795">
        <ele>578.1</ele>
        <time>2023-08-19T09:00:24Z</time>
      </trkpt>
      <trkpt lat="48.34566" lon="7.00791">
        <ele>578.7</ele>
        <time>2023-08-19T09:00:26Z</time>
      </trkpt>
      <trkpt lat="48.34594" lon="7.00774">
        <ele>580.1</ele>
        <time>2023-08-19T09:00:33Z</time>
      </trkpt>
      <trkpt lat="48.34638" lon="7.0075">
        <ele>583.2</ele>
        <time>2023-08-19T09:00:44Z</time>
      </trkpt>
      <trkpt lat="48.34686" lon="7.00702">
        <ele>585</ele>
        <time>2023-08-19T09:00:58Z</time>
      </trkpt>
      <trkpt lat="48.34695" lon="7.00695">
        <ele>584.5</ele>
        <time>2023-08-19T09:01:00Z</time>
      </trkpt>
      <trkpt lat="48.34705" lon="7.00691">
        <ele>584</ele>
        <time>2023-08-19T09:01:02Z</time>
      </trkpt>
      <trkpt lat="48.34728" lon="7.00689">
        <ele>583.1</ele>
        <time>2023-08-19T09:01:06Z</time>
      </trkpt>
      <trkpt lat="48.34787" lon="7.00704">
        <ele>581.1</ele>
        <time>2023-08-19T09:01:15Z</time>
      </trkpt>
      <trkpt lat="48.34809" lon="7.00717">
        <ele>579.7</ele>
        <time>2023-08-19T09:01:18Z</time>
      </trkpt>
      <trkpt lat="48.3486" lon="7.00761">
        <ele>573.1</ele>
        <time>2023-08-19T09:01:24Z</time>
      </trkpt>
      <trkpt lat="48.34919" lon="7.00806">
        <ele>565.4</ele>
        <time>2023-08-19T09:01:29Z</time>
      </trkpt>
      <trkpt lat="48.34971" lon="7.00846">
        <ele>558.4</ele>
        <time>2023-08-19T09:01:33Z</time>
      </trkpt>
      <trkpt lat="48.35022" lon="7.00885">
        <ele>550.9</ele>
        <time>2023-08-19T09:01:37Z</time>
      </trkpt>
      <trkpt lat="48.35067" lon="7.00907">
        <ele>547.1</ele>
        <time>2023-08-19T09:01:41Z</time>
      </trkpt>
      <trkpt lat="48.35087" lon="7.00898">
        <ele>546.4</ele>
        <time>2023-08-19T09:01:43Z</time>
      </trkpt>
      <trkpt lat="48.35104" lon="7.00876">
        <ele>546.2</ele>
        <time>2023-08-19T09:01:45Z</time>
      </trkpt>
      <trkpt lat="48.35154" lon="7.00835">
        <ele>545.6</ele>
        <time>2023-08-19T09:01:50Z</time>
      </trkpt>
      <trkpt lat="48.35211" lon="7.00814">
        <ele>544.8</ele>
        <time>2023-08-19T09:01:56Z</time>
      </trkpt>
      <trkpt lat="48.35269" lon="7.00804">
        <ele>545.4</ele>
        <time>2023-08-19T09:02:03Z</time>
      </trkpt>
      <trkpt lat="48.35324" lon="7.00814">
        <ele>545.3</ele>
        <time>2023-08-19T09:02:11Z</time>
      </trkpt>
      <trkpt lat="48.35373" lon="7.00834">
        <ele>543</ele>
        <time>2023-08-19T09:02:18Z</time>
      </trkpt>
      <trkpt lat="48.35422" lon="7.00882">
        <ele>543.3</ele>
        <time>2023-08-19T09:02:25Z</time>
      </trkpt>
      <trkpt lat="48.35452" lon="7.00907">
        <ele>544.1</ele>
        <time>2023-08-19T09:02:30Z</time>
      </trkpt>
      <trkpt lat="48.35464" lon="7.00909">
        <ele>544</ele>
        <time>2023-08-19T09:02:32Z</time>
      </trkpt>
      <trkpt lat="48.35497" lon="7.00902">
        <ele>543.3</ele>
        <time>2023-08-19T09:02:37Z</time>
      </trkpt>
      <trkpt lat="48.35508" lon="7.00908">
        <ele>543.6</ele>
        <time>2023-08-19T09:02:39Z</time>
      </trkpt>
      <trkpt lat="48.35517" lon="7.00919">
        <ele>543.6</ele>
        <time>2023-08-19T09:02:41Z</time>
      </trkpt>
      <trkpt lat="48.35549" lon="7.00957">
        <ele>542</ele>
        <time>2023-08-19T09:02:48Z</time>
      </trkpt>
      <trkpt lat="48.3556" lon="7.00963">
        <ele>541.2</ele>
        <time>2023-08-19T09:02:50Z</time>
      </trkpt>
      <trkpt lat="48.3562" lon="7.00975">
        <ele>536.2</ele>
        <time>2023-08-19T09:02:58Z</time>
      </trkpt>
      <trkpt lat="48.35636" lon="7.00976">
        <ele>534.8</ele>
        <time>2023-08-19T09:03:00Z</time>
      </trkpt>
      <trkpt lat="48.35653" lon="7.00968">
        <ele>533.5</ele>
        <time>2023-08-19T09:03:02Z</time>
      </trkpt>
      <trkpt lat="48.35681" lon="7.00946">
        <ele>532.9</ele>
        <time>2023-08-19T09:03:07Z</time>
      </trkpt>
      <trkpt lat="48.35736" lon="7.00916">
        <ele>533.8</ele>
        <time>2023-08-19T09:03:16Z</time>
      </trkpt>
      <trkpt lat="48.35788" lon="7.00889">
        <ele>535</ele>
        <time>2023-08-19T09:03:25Z</time>
      </trkpt>
      <trkpt lat="48.3584" lon="7.00862">
        <ele>533.9</ele>
        <time>2023-08-19T09:03:34Z</time>
      </trkpt>
      <trkpt lat="48.35896" lon="7.00836">
        <ele>530.9</ele>
        <time>2023-08-19T09:03:42Z</time>
      </trkpt>
      <trkpt lat="48.35917" lon="7.00824">
        <ele>529.6</ele>
        <time>2023-08-19T09:03:45Z</time>
      </trkpt>
      <trkpt lat="48.35932" lon="7.0081">
        <ele>528.7</ele>
        <time>2023-08-19T09:03:47Z</time>
      </trkpt>
      <trkpt lat="48.35964" lon="7.00741">
        <ele>526.5</ele>
        <time>2023-08-19T09:03:53Z</time>
      </trkpt>
      <trkpt lat="48.36001" lon="7.00679">
        <ele>523.8</ele>
        <time>2023-08-19T09:03:59Z</time>
      </trkpt>
      <trkpt lat="48.36045" lon="7.00619">
        <ele>520.5</ele>
        <time>2023-08-19T09:04:05Z</time>
      </trkpt>
      <trkpt lat="48.36065" lon="7.00585">
        <ele>518.8</ele>
        <time>2023-08-19T09:04:08Z</time>
      </trkpt>
      <trkpt lat="48.36095" lon="7.005">
        <ele>515.4</ele>
        <time>2023-08-19T09:04:14Z</time>
      </trkpt>
      <trkpt lat="48.36108" lon="7.00473">
        <ele>514.2</ele>
        <time>2023-08-19T09:04:16Z</time>
      </trkpt>
      <trkpt lat="48.36126" lon="7.00456">
        <ele>513.1</ele>
        <time>2023-08-19T09:04:18Z</time>
      </trkpt>
      <trkpt lat="48.36177" lon="7.00429">
        <ele>510.5</ele>
        <time>2023-08-19T09:04:23Z</time>
      </trkpt>
      <trkpt lat="48.36229" lon="7.00398">
        <ele>507.5</ele>
        <time>2023-08-19T09:04:28Z</time>
      </trkpt>
      <trkpt lat="48.36286" lon="7.00371">
        <ele>503.9</ele>
        <time>2023-08-19T09:04:33Z</time>
      </trkpt>
      <trkpt lat="48.3631" lon="7.00371">
        <ele>502.6</ele>
        <time>2023-08-19T09:04:35Z</time>
      </trkpt>
      <trkpt lat="48.36365" lon="7.00392">
        <ele>499.8</ele>
        <time>2023-08-19T09:04:40Z</time>
      </trkpt>
      <trkpt lat="48.36373" lon="7.00402">
        <ele>499.3</ele>
        <time>2023-08-19T09:04:41Z</time>
      </trkpt>
      <trkpt lat="48.36403" lon="7.00453">
        <ele>496.6</ele>
        <time>2023-08-19T09:04:45Z</time>
      </trkpt>
      <trkpt lat="48.36431" lon="7.00542">
        <ele>492.5</ele>
        <time>2023-08-19T09:04:50Z</time>
      </trkpt>
      <trkpt lat="48.36445" lon="7.00634">
        <ele>489</ele>
        <time>2023-08-19T09:04:55Z</time>
      </trkpt>
      <trkpt lat="48.36441" lon="7.00671">
        <ele>487.7</ele>
        <time>2023-08-19T09:04:57Z</time>
      </trkpt>
      <trkpt lat="48.36427" lon="7.00738">
        <ele>484.8</ele>
        <time>2023-08-19T09:05:00Z</time>
      </trkpt>
      <trkpt lat="48.3642" lon="7.00773">
        <ele>483.4</ele>
        <time>2023-08-19T09:05:02Z</time>
      </trkpt>
      <trkpt lat="48.3642" lon="7.00798">
        <ele>482.5</ele>
        <time>2023-08-19T09:05:04Z</time>
      </trkpt>
      <trkpt lat="48.36426" lon="7.00818">
        <ele>481.7</ele>
        <time>2023-08-19T09:05:06Z</time>
      </trkpt>
      <trkpt lat="48.36446" lon="7.00832">
        <ele>480.4</ele>
        <time>2023-08-19T09:05:08Z</time>
      </trkpt>
      <trkpt lat="48.36483" lon="7.00838">
        <ele>477.7</ele>
        <time>2023-08-19T09:05:11Z</time>
      </trkpt>
      <trkpt lat="48.365" lon="7.00857">
        <ele>476.3</ele>
        <time>2023-08-19T09:05:13Z</time>
      </trkpt>
      <trkpt lat="48.36512" lon="7.00881">
        <ele>475.4</ele>
        <time>2023-08-19T09:05:15Z</time>
      </trkpt>
      <trkpt lat="48.3652" lon="7.00923">
        <ele>474.4</ele>
        <time>2023-08-19T09:05:18Z</time>
      </trkpt>
      <trkpt lat="48.36517" lon="7.00949">
        <ele>474</ele>
        <time>2023-08-19T09:05:20Z</time>
      </trkpt>
      <trkpt lat="48.36512" lon="7.00974">
        <ele>473.6</ele>
        <time>2023-08-19T09:05:22Z</time>
      </trkpt>
      <trkpt lat="48.36501" lon="7.01043">
        <ele>470.6</ele>
        <time>2023-08-19T09:05:27Z</time>
      </trkpt>
      <trkpt lat="48.36511" lon="7.01136">
        <ele>465.7</ele>
        <time>2023-08-19T09:05:33Z</time>
      </trkpt>
      <trkpt lat="48.36542" lon="7.01203">
        <ele>465.5</ele>
        <time>2023-08-19T09:05:38Z</time>
      </trkpt>
      <trkpt lat="48.36553" lon="7.01209">
        <ele>465.8</ele>
        <time>2023-08-19T09:05:39Z</time>
      </trkpt>
      <trkpt lat="48.36563" lon="7.01214">
        <ele>466.1</ele>
        <time>2023-08-19T09:05:40Z</time>
      </trkpt>
      <trkpt lat="48.36585" lon="7.01216">
        <ele>467</ele>
        <time>2023-08-19T09:05:42Z</time>
      </trkpt>
      <trkpt lat="48.36643" lon="7.01205">
        <ele>473.3</ele>
        <time>2023-08-19T09:05:48Z</time>
      </trkpt>
      <trkpt lat="48.36656" lon="7.01198">
        <ele>475.5</ele>
        <time>2023-08-19T09:05:50Z</time>
      </trkpt>
      <trkpt lat="48.36666" lon="7.01188">
        <ele>476.9</ele>
        <time>2023-08-19T09:05:52Z</time>
      </trkpt>
      <trkpt lat="48.36669" lon="7.01172">
        <ele>478</ele>
        <time>2023-08-19T09:05:54Z</time>
      </trkpt>
      <trkpt lat="48.3667" lon="7.01158">
        <ele>478.8</ele>
        <time>2023-08-19T09:05:56Z</time>
      </trkpt>
      <trkpt lat="48.3667" lon="7.01137">
        <ele>479.7</ele>
        <time>2023-08-19T09:05:59Z</time>
      </trkpt>
      <trkpt lat="48.36672" lon="7.01123">
        <ele>480.2</ele>
        <time>2023-08-19T09:06:01Z</time>
      </trkpt>
      <trkpt lat="48.36677" lon="7.01113">
        <ele>480.6</ele>
        <time>2023-08-19T09:06:03Z</time>
      </trkpt>
      <trkpt lat="48.36713" lon="7.01051">
        <ele>484</ele>
        <time>2023-08-19T09:06:19Z</time>
      </trkpt>
      <trkpt lat="48.36748" lon="7.00987">
        <ele>491.1</ele>
        <time>2023-08-19T09:06:40Z</time>
      </trkpt>
      <trkpt lat="48.36784" lon="7.00926">
        <ele>496.7</ele>
        <time>2023-08-19T09:06:56Z</time>
      </trkpt>
      <trkpt lat="48.368" lon="7.00891">
        <ele>498.4</ele>
        <time>2023-08-19T09:07:03Z</time>
      </trkpt>
      <trkpt lat="48.36832" lon="7.00822">
        <ele>501.2</ele>
        <time>2023-08-19T09:07:14Z</time>
      </trkpt>
      <trkpt lat="48.36876" lon="7.00775">
        <ele>504.6</ele>
        <time>2023-08-19T09:07:26Z</time>
      </trkpt>
      <trkpt lat="48.3693" lon="7.00751">
        <ele>505.6</ele>
        <time>2023-08-19T09:07:38Z</time>
      </trkpt>
      <trkpt lat="48.36978" lon="7.00714">
        <ele>506.9</ele>
        <time>2023-08-19T09:07:48Z</time>
      </trkpt>
      <trkpt lat="48.37031" lon="7.00681">
        <ele>507.8</ele>
        <time>2023-08-19T09:07:59Z</time>
      </trkpt>
      <trkpt lat="48.37086" lon="7.00649">
        <ele>507</ele>
        <time>2023-08-19T09:08:10Z</time>
      </trkpt>
      <trkpt lat="48.37119" lon="7.00619">
        <ele>506.7</ele>
        <time>2023-08-19T09:08:17Z</time>
      </trkpt>
      <trkpt lat="48.37122" lon="7.00595">
        <ele>506.8</ele>
        <time>2023-08-19T09:08:19Z</time>
      </trkpt>
      <trkpt lat="48.37122" lon="7.00574">
        <ele>507</ele>
        <time>2023-08-19T09:08:21Z</time>
      </trkpt>
      <trkpt lat="48.37115" lon="7.00559">
        <ele>507.1</ele>
        <time>2023-08-19T09:08:23Z</time>
      </trkpt>
      <trkpt lat="48.37097" lon="7.00538">
        <ele>507.7</ele>
        <time>2023-08-19T09:08:27Z</time>
      </trkpt>
      <trkpt lat="48.37071" lon="7.00529">
        <ele>508.7</ele>
        <time>2023-08-19T09:08:31Z</time>
      </trkpt>
      <trkpt lat="48.37059" lon="7.00527">
        <ele>509.4</ele>
        <time>2023-08-19T09:08:33Z</time>
      </trkpt>
      <trkpt lat="48.37026" lon="7.00529">
        <ele>510.6</ele>
        <time>2023-08-19T09:08:38Z</time>
      </trkpt>
      <trkpt lat="48.37013" lon="7.00528">
        <ele>511</ele>
        <time>2023-08-19T09:08:40Z</time>
      </trkpt>
      <trkpt lat="48.37001" lon="7.00519">
        <ele>511.3</ele>
        <time>2023-08-19T09:08:42Z</time>
      </trkpt>
      <trkpt lat="48.36993" lon="7.00502">
        <ele>511.4</ele>
        <time>2023-08-19T09:08:44Z</time>
      </trkpt>
      <trkpt lat="48.3699" lon="7.00482">
        <ele>511.3</ele>
        <time>2023-08-19T09:08:46Z</time>
      </trkpt>
      <trkpt lat="48.36993" lon="7.00462">
        <ele>511.3</ele>
        <time>2023-08-19T09:08:48Z</time>
      </trkpt>
      <trkpt lat="48.36999" lon="7.00442">
        <ele>511.1</ele>
        <time>2023-08-19T09:08:50Z</time>
      </trkpt>
      <trkpt lat="48.37025" lon="7.0037">
        <ele>510.4</ele>
        <time>2023-08-19T09:08:57Z</time>
      </trkpt>
      <trkpt lat="48.37053" lon="7.00296">
        <ele>509.8</ele>
        <time>2023-08-19T09:09:04Z</time>
      </trkpt>
      <trkpt lat="48.37058" lon="7.00286">
        <ele>509.6</ele>
        <time>2023-08-19T09:09:05Z</time>
      </trkpt>
      <trkpt lat="48.3707" lon="7.0027">
        <ele>509.1</ele>
        <time>2023-08-19T09:09:07Z</time>
      </trkpt>
      <trkpt lat="48.37086" lon="7.0026">
        <ele>508.5</ele>
        <time>2023-08-19T09:09:09Z</time>
      </trkpt>
      <trkpt lat="48.37145" lon="7.00241">
        <ele>506.2</ele>
        <time>2023-08-19T09:09:16Z</time>
      </trkpt>
      <trkpt lat="48.37171" lon="7.00228">
        <ele>505.3</ele>
        <time>2023-08-19T09:09:19Z</time>
      </trkpt>
      <trkpt lat="48.37187" lon="7.00213">
        <ele>504.8</ele>
        <time>2023-08-19T09:09:21Z</time>
      </trkpt>
      <trkpt lat="48.3723" lon="7.00154">
        <ele>503.1</ele>
        <time>2023-08-19T09:09:27Z</time>
      </trkpt>
      <trkpt lat="48.37271" lon="7.0009">
        <ele>501.3</ele>
        <time>2023-08-19T09:09:33Z</time>
      </trkpt>
      <trkpt lat="48.37287" lon="7.00071">
        <ele>500.6</ele>
        <time>2023-08-19T09:09:35Z</time>
      </trkpt>
      <trkpt lat="48.37306" lon="7.00059">
        <ele>500.1</ele>
        <time>2023-08-19T09:09:37Z</time>
      </trkpt>
      <trkpt lat="48.37326" lon="7.00059">
        <ele>499.5</ele>
        <time>2023-08-19T09:09:39Z</time>
      </trkpt>
      <trkpt lat="48.37381" lon="7.00097">
        <ele>497.8</ele>
        <time>2023-08-19T09:09:45Z</time>
      </trkpt>
      <trkpt lat="48.37434" lon="7.00136">
        <ele>496.3</ele>
        <time>2023-08-19T09:09:51Z</time>
      </trkpt>
      <trkpt lat="48.3746" lon="7.00154">
        <ele>495.7</ele>
        <time>2023-08-19T09:09:54Z</time>
      </trkpt>
      <trkpt lat="48.37479" lon="7.00158">
        <ele>495.2</ele>
        <time>2023-08-19T09:09:56Z</time>
      </trkpt>
      <trkpt lat="48.37497" lon="7.00151">
        <ele>494.9</ele>
        <time>2023-08-19T09:09:58Z</time>
      </trkpt>
      <trkpt lat="48.37513" lon="7.00133">
        <ele>494.5</ele>
        <time>2023-08-19T09:10:00Z</time>
      </trkpt>
      <trkpt lat="48.37521" lon="7.00107">
        <ele>494.2</ele>
        <time>2023-08-19T09:10:02Z</time>
      </trkpt>
      <trkpt lat="48.37526" lon="7.00019">
        <ele>492.7</ele>
        <time>2023-08-19T09:10:08Z</time>
      </trkpt>
      <trkpt lat="48.37529" lon="6.9993">
        <ele>491.5</ele>
        <time>2023-08-19T09:10:14Z</time>
      </trkpt>
      <trkpt lat="48.37532" lon="6.99844">
        <ele>490.4</ele>
        <time>2023-08-19T09:10:20Z</time>
      </trkpt>
      <trkpt lat="48.37537" lon="6.99776">
        <ele>489.3</ele>
        <time>2023-08-19T09:10:25Z</time>
      </trkpt>
      <trkpt lat="48.37547" lon="6.99753">
        <ele>488.8</ele>
        <time>2023-08-19T09:10:27Z</time>
      </trkpt>
      <trkpt lat="48.3756" lon="6.99735">
        <ele>488.4</ele>
        <time>2023-08-19T09:10:29Z</time>
      </trkpt>
      <trkpt lat="48.37577" lon="6.99724">
        <ele>487.9</ele>
        <time>2023-08-19T09:10:31Z</time>
      </trkpt>
      <trkpt lat="48.37595" lon="6.99722">
        <ele>487.5</ele>
        <time>2023-08-19T09:10:33Z</time>
      </trkpt>
      <trkpt lat="48.37613" lon="6.99727">
        <ele>487.1</ele>
        <time>2023-08-19T09:10:35Z</time>
      </trkpt>
      <trkpt lat="48.37663" lon="6.99759">
        <ele>486.9</ele>
        <time>2023-08-19T09:10:41Z</time>
      </trkpt>
      <trkpt lat="48.3768" lon="6.99758">
        <ele>487</ele>
        <time>2023-08-19T09:10:43Z</time>
      </trkpt>
      <trkpt lat="48.37693" lon="6.99745">
        <ele>487.2</ele>
        <time>2023-08-19T09:10:45Z</time>
      </trkpt>
      <trkpt lat="48.377" lon="6.99725">
        <ele>487.4</ele>
        <time>2023-08-19T09:10:47Z</time>
      </trkpt>
      <trkpt lat="48.37704" lon="6.99691">
        <ele>487.9</ele>
        <time>2023-08-19T09:10:50Z</time>
      </trkpt>
      <trkpt lat="48.37702" lon="6.99621">
        <ele>489.6</ele>
        <time>2023-08-19T09:10:57Z</time>
      </trkpt>
      <trkpt lat="48.37708" lon="6.99591">
        <ele>490.8</ele>
        <time>2023-08-19T09:11:05Z</time>
      </trkpt>
      <trkpt lat="48.37722" lon="6.99662">
        <ele>494.7</ele>
        <time>2023-08-19T09:11:23Z</time>
      </trkpt>
      <trkpt lat="48.37757" lon="6.99727">
        <ele>499.8</ele>
        <time>2023-08-19T09:11:43Z</time>
      </trkpt>
      <trkpt lat="48.37779" lon="6.99804">
        <ele>505.9</ele>
        <time>2023-08-19T09:12:01Z</time>
      </trkpt>
      <trkpt lat="48.378" lon="6.99882">
        <ele>513.5</ele>
        <time>2023-08-19T09:12:23Z</time>
      </trkpt>
      <trkpt lat="48.3782" lon="6.99959">
        <ele>519.8</ele>
        <time>2023-08-19T09:12:42Z</time>
      </trkpt>
      <trkpt lat="48.37853" lon="7.00024">
        <ele>524.4</ele>
        <time>2023-08-19T09:12:58Z</time>
      </trkpt>
      <trkpt lat="48.37896" lon="7.00077">
        <ele>524.9</ele>
        <time>2023-08-19T09:13:10Z</time>
      </trkpt>
      <trkpt lat="48.37936" lon="7.00138">
        <ele>526.8</ele>
        <time>2023-08-19T09:13:21Z</time>
      </trkpt>
      <trkpt lat="48.37946" lon="7.00154">
        <ele>527.6</ele>
        <time>2023-08-19T09:13:24Z</time>
      </trkpt>
      <trkpt lat="48.37955" lon="7.00181">
        <ele>528.8</ele>
        <time>2023-08-19T09:13:28Z</time>
      </trkpt>
      <trkpt lat="48.3797" lon="7.0026">
        <ele>532.8</ele>
        <time>2023-08-19T09:13:40Z</time>
      </trkpt>
      <trkpt lat="48.37994" lon="7.00339">
        <ele>535</ele>
        <time>2023-08-19T09:13:53Z</time>
      </trkpt>
      <trkpt lat="48.38019" lon="7.00418">
        <ele>536.8</ele>
        <time>2023-08-19T09:14:06Z</time>
      </trkpt>
      <trkpt lat="48.38048" lon="7.00497">
        <ele>535.6</ele>
        <time>2023-08-19T09:14:16Z</time>
      </trkpt>
      <trkpt lat="48.38078" lon="7.00575">
        <ele>534.7</ele>
        <time>2023-08-19T09:14:24Z</time>
      </trkpt>
      <trkpt lat="48.38105" lon="7.00658">
        <ele>533.1</ele>
        <time>2023-08-19T09:14:32Z</time>
      </trkpt>
      <trkpt lat="48.38132" lon="7.00737">
        <ele>529.7</ele>
        <time>2023-08-19T09:14:39Z</time>
      </trkpt>
      <trkpt lat="48.38154" lon="7.00816">
        <ele>524.5</ele>
        <time>2023-08-19T09:14:45Z</time>
      </trkpt>
      <trkpt lat="48.38171" lon="7.00904">
        <ele>522.6</ele>
        <time>2023-08-19T09:14:51Z</time>
      </trkpt>
      <trkpt lat="48.38171" lon="7.00995">
        <ele>524.4</ele>
        <time>2023-08-19T09:14:58Z</time>
      </trkpt>
      <trkpt lat="48.3816" lon="7.01073">
        <ele>525.9</ele>
        <time>2023-08-19T09:15:05Z</time>
      </trkpt>
      <trkpt lat="48.38141" lon="7.01136">
        <ele>526.8</ele>
        <time>2023-08-19T09:15:12Z</time>
      </trkpt>
      <trkpt lat="48.3814" lon="7.01156">
        <ele>527</ele>
        <time>2023-08-19T09:15:14Z</time>
      </trkpt>
      <trkpt lat="48.38139" lon="7.01186">
        <ele>527.2</ele>
        <time>2023-08-19T09:15:18Z</time>
      </trkpt>
      <trkpt lat="48.38155" lon="7.012">
        <ele>527.6</ele>
        <time>2023-08-19T09:15:20Z</time>
      </trkpt>
      <trkpt lat="48.38197" lon="7.01245">
        <ele>529.8</ele>
        <time>2023-08-19T09:15:28Z</time>
      </trkpt>
      <trkpt lat="48.38208" lon="7.01272">
        <ele>530.9</ele>
        <time>2023-08-19T09:15:32Z</time>
      </trkpt>
      <trkpt lat="48.38211" lon="7.01292">
        <ele>531.6</ele>
        <time>2023-08-19T09:15:35Z</time>
      </trkpt>
      <trkpt lat="48.3821" lon="7.01306">
        <ele>532.1</ele>
        <time>2023-08-19T09:15:37Z</time>
      </trkpt>
      <trkpt lat="48.38206" lon="7.01358">
        <ele>534.5</ele>
        <time>2023-08-19T09:15:44Z</time>
      </trkpt>
      <trkpt lat="48.38203" lon="7.0137">
        <ele>535.1</ele>
        <time>2023-08-19T09:15:46Z</time>
      </trkpt>
      <trkpt lat="48.38169" lon="7.01441">
        <ele>538.5</ele>
        <time>2023-08-19T09:16:02Z</time>
      </trkpt>
      <trkpt lat="48.38161" lon="7.01452">
        <ele>538.4</ele>
        <time>2023-08-19T09:16:04Z</time>
      </trkpt>
      <trkpt lat="48.38107" lon="7.01486">
        <ele>536.1</ele>
        <time>2023-08-19T09:16:13Z</time>
      </trkpt>
      <trkpt lat="48.38094" lon="7.01494">
        <ele>535.5</ele>
        <time>2023-08-19T09:16:15Z</time>
      </trkpt>
      <trkpt lat="48.38084" lon="7.01508">
        <ele>534.4</ele>
        <time>2023-08-19T09:16:17Z</time>
      </trkpt>
      <trkpt lat="48.38073" lon="7.01531">
        <ele>531.8</ele>
        <time>2023-08-19T09:16:19Z</time>
      </trkpt>
      <trkpt lat="48.38062" lon="7.01578">
        <ele>527.3</ele>
        <time>2023-08-19T09:16:22Z</time>
      </trkpt>
      <trkpt lat="48.38055" lon="7.01634">
        <ele>525.2</ele>
        <time>2023-08-19T09:16:25Z</time>
      </trkpt>
      <trkpt lat="48.38057" lon="7.01727">
        <ele>523.1</ele>
        <time>2023-08-19T09:16:30Z</time>
      </trkpt>
      <trkpt lat="48.3806" lon="7.01813">
        <ele>521</ele>
        <time>2023-08-19T09:16:35Z</time>
      </trkpt>
      <trkpt lat="48.3806" lon="7.01896">
        <ele>518.9</ele>
        <time>2023-08-19T09:16:40Z</time>
      </trkpt>
      <trkpt lat="48.38057" lon="7.01912">
        <ele>518.3</ele>
        <time>2023-08-19T09:16:41Z</time>
      </trkpt>
      <trkpt lat="48.38048" lon="7.0194">
        <ele>516.7</ele>
        <time>2023-08-19T09:16:43Z</time>
      </trkpt>
      <trkpt lat="48.38016" lon="7.02007">
        <ele>513.1</ele>
        <time>2023-08-19T09:16:48Z</time>
      </trkpt>
      <trkpt lat="48.37979" lon="7.02071">
        <ele>512.4</ele>
        <time>2023-08-19T09:16:53Z</time>
      </trkpt>
      <trkpt lat="48.37954" lon="7.02114">
        <ele>511</ele>
        <time>2023-08-19T09:16:57Z</time>
      </trkpt>
      <trkpt lat="48.37908" lon="7.02175">
        <ele>511.6</ele>
        <time>2023-08-19T09:17:04Z</time>
      </trkpt>
      <trkpt lat="48.37901" lon="7.02182">
        <ele>512.1</ele>
        <time>2023-08-19T09:17:05Z</time>
      </trkpt>
      <trkpt lat="48.37888" lon="7.0219">
        <ele>513.3</ele>
        <time>2023-08-19T09:17:07Z</time>
      </trkpt>
      <trkpt lat="48.37874" lon="7.02199">
        <ele>515.4</ele>
        <time>2023-08-19T09:17:10Z</time>
      </trkpt>
      <trkpt lat="48.37831" lon="7.02247">
        <ele>522.6</ele>
        <time>2023-08-19T09:17:27Z</time>
      </trkpt>
      <trkpt lat="48.37818" lon="7.02319">
        <ele>527.5</ele>
        <time>2023-08-19T09:17:44Z</time>
      </trkpt>
      <trkpt lat="48.37829" lon="7.02398">
        <ele>531</ele>
        <time>2023-08-19T09:18:00Z</time>
      </trkpt>
      <trkpt lat="48.37824" lon="7.02483">
        <ele>535</ele>
        <time>2023-08-19T09:18:16Z</time>
      </trkpt>
      <trkpt lat="48.37815" lon="7.02569">
        <ele>538.7</ele>
        <time>2023-08-19T09:18:31Z</time>
      </trkpt>
      <trkpt lat="48.3781" lon="7.02604">
        <ele>540</ele>
        <time>2023-08-19T09:18:38Z</time>
      </trkpt>
      <trkpt lat="48.37787" lon="7.02649">
        <ele>542.6</ele>
        <time>2023-08-19T09:18:50Z</time>
      </trkpt>
      <trkpt lat="48.37732" lon="7.02644">
        <ele>545.2</ele>
        <time>2023-08-19T09:19:09Z</time>
      </trkpt>
      <trkpt lat="48.37681" lon="7.02677">
        <ele>550.5</ele>
        <time>2023-08-19T09:19:27Z</time>
      </trkpt>
      <trkpt lat="48.37635" lon="7.02718">
        <ele>556.4</ele>
        <time>2023-08-19T09:19:46Z</time>
      </trkpt>
      <trkpt lat="48.37583" lon="7.02742">
        <ele>562.3</ele>
        <time>2023-08-19T09:20:05Z</time>
      </trkpt>
      <trkpt lat="48.37526" lon="7.02745">
        <ele>570.3</ele>
        <time>2023-08-19T09:20:26Z</time>
      </trkpt>
      <trkpt lat="48.3747" lon="7.02743">
        <ele>573</ele>
        <time>2023-08-19T09:20:43Z</time>
      </trkpt>
      <trkpt lat="48.37414" lon="7.02728">
        <ele>572.9</ele>
        <time>2023-08-19T09:20:56Z</time>
      </trkpt>
      <trkpt lat="48.37408" lon="7.02728">
        <ele>572.9</ele>
        <time>2023-08-19T09:20:57Z</time>
      </trkpt>
      <trkpt lat="48.37386" lon="7.02735">
        <ele>573.2</ele>
        <time>2023-08-19T09:21:01Z</time>
      </trkpt>
      <trkpt lat="48.37372" lon="7.02744">
        <ele>573.8</ele>
        <time>2023-08-19T09:21:04Z</time>
      </trkpt>
      <trkpt lat="48.37331" lon="7.02804">
        <ele>577.3</ele>
        <time>2023-08-19T09:21:16Z</time>
      </trkpt>
      <trkpt lat="48.3731" lon="7.02834">
        <ele>579.6</ele>
        <time>2023-08-19T09:21:23Z</time>
      </trkpt>
      <trkpt lat="48.37298" lon="7.0284">
        <ele>580.2</ele>
        <time>2023-08-19T09:21:26Z</time>
      </trkpt>
      <trkpt lat="48.37285" lon="7.02844">
        <ele>580.3</ele>
        <time>2023-08-19T09:21:29Z</time>
      </trkpt>
      <trkpt lat="48.37228" lon="7.02856">
        <ele>580.7</ele>
        <time>2023-08-19T09:21:40Z</time>
      </trkpt>
      <trkpt lat="48.3718" lon="7.02873">
        <ele>583.1</ele>
        <time>2023-08-19T09:21:51Z</time>
      </trkpt>
      <trkpt lat="48.37161" lon="7.02891">
        <ele>583.4</ele>
        <time>2023-08-19T09:21:56Z</time>
      </trkpt>
      <trkpt lat="48.37155" lon="7.02903">
        <ele>583.5</ele>
        <time>2023-08-19T09:21:58Z</time>
      </trkpt>
      <trkpt lat="48.37131" lon="7.0298">
        <ele>583.5</ele>
        <time>2023-08-19T09:22:09Z</time>
      </trkpt>
      <trkpt lat="48.37104" lon="7.03052">
        <ele>583.7</ele>
        <time>2023-08-19T09:22:20Z</time>
      </trkpt>
      <trkpt lat="48.37093" lon="7.03073">
        <ele>584.6</ele>
        <time>2023-08-19T09:22:24Z</time>
      </trkpt>
      <trkpt lat="48.37091" lon="7.03085">
        <ele>583.9</ele>
        <time>2023-08-19T09:22:26Z</time>
      </trkpt>
      <trkpt lat="48.37095" lon="7.03099">
        <ele>584.1</ele>
        <time>2023-08-19T09:22:28Z</time>
      </trkpt>
      <trkpt lat="48.37113" lon="7.0318">
        <ele>585.2</ele>
        <time>2023-08-19T09:22:39Z</time>
      </trkpt>
      <trkpt lat="48.37122" lon="7.03268">
        <ele>586.8</ele>
        <time>2023-08-19T09:22:50Z</time>
      </trkpt>
      <trkpt lat="48.37132" lon="7.03351">
        <ele>587.9</ele>
        <time>2023-08-19T09:23:00Z</time>
      </trkpt>
      <trkpt lat="48.37146" lon="7.03422">
        <ele>588.2</ele>
        <time>2023-08-19T09:23:08Z</time>
      </trkpt>
      <trkpt lat="48.37155" lon="7.03445">
        <ele>588.5</ele>
        <time>2023-08-19T09:23:11Z</time>
      </trkpt>
      <trkpt lat="48.37172" lon="7.03472">
        <ele>588.6</ele>
        <time>2023-08-19T09:23:15Z</time>
      </trkpt>
      <trkpt lat="48.37212" lon="7.03535">
        <ele>588.7</ele>
        <time>2023-08-19T09:23:24Z</time>
      </trkpt>
      <trkpt lat="48.37244" lon="7.03607">
        <ele>588.5</ele>
        <time>2023-08-19T09:23:33Z</time>
      </trkpt>
      <trkpt lat="48.37255" lon="7.03691">
        <ele>587.9</ele>
        <time>2023-08-19T09:23:42Z</time>
      </trkpt>
      <trkpt lat="48.3725" lon="7.0372">
        <ele>587.7</ele>
        <time>2023-08-19T09:23:45Z</time>
      </trkpt>
      <trkpt lat="48.37245" lon="7.03737">
        <ele>587.6</ele>
        <time>2023-08-19T09:23:47Z</time>
      </trkpt>
      <trkpt lat="48.37212" lon="7.03809">
        <ele>587.8</ele>
        <time>2023-08-19T09:23:56Z</time>
      </trkpt>
      <trkpt lat="48.37179" lon="7.03883">
        <ele>589.3</ele>
        <time>2023-08-19T09:24:05Z</time>
      </trkpt>
      <trkpt lat="48.37164" lon="7.03921">
        <ele>589.7</ele>
        <time>2023-08-19T09:24:10Z</time>
      </trkpt>
      <trkpt lat="48.37149" lon="7.04">
        <ele>588.7</ele>
        <time>2023-08-19T09:24:18Z</time>
      </trkpt>
      <trkpt lat="48.3715" lon="7.04032">
        <ele>588</ele>
        <time>2023-08-19T09:24:21Z</time>
      </trkpt>
      <trkpt lat="48.3716" lon="7.04048">
        <ele>587.6</ele>
        <time>2023-08-19T09:24:23Z</time>
      </trkpt>
      <trkpt lat="48.37177" lon="7.04053">
        <ele>586.9</ele>
        <time>2023-08-19T09:24:25Z</time>
      </trkpt>
      <trkpt lat="48.37198" lon="7.04049">
        <ele>585.9</ele>
        <time>2023-08-19T09:24:27Z</time>
      </trkpt>
      <trkpt lat="48.37249" lon="7.04022">
        <ele>583.4</ele>
        <time>2023-08-19T09:24:33Z</time>
      </trkpt>
      <trkpt lat="48.37302" lon="7.03986">
        <ele>580.3</ele>
        <time>2023-08-19T09:24:39Z</time>
      </trkpt>
      <trkpt lat="48.37322" lon="7.0398">
        <ele>579.2</ele>
        <time>2023-08-19T09:24:41Z</time>
      </trkpt>
      <trkpt lat="48.37351" lon="7.03986">
        <ele>577.9</ele>
        <time>2023-08-19T09:24:44Z</time>
      </trkpt>
      <trkpt lat="48.37401" lon="7.04026">
        <ele>575.5</ele>
        <time>2023-08-19T09:24:49Z</time>
      </trkpt>
      <trkpt lat="48.37449" lon="7.04069">
        <ele>572.8</ele>
        <time>2023-08-19T09:24:54Z</time>
      </trkpt>
      <trkpt lat="48.37468" lon="7.04078">
        <ele>571.8</ele>
        <time>2023-08-19T09:24:56Z</time>
      </trkpt>
      <trkpt lat="48.3749" lon="7.04077">
        <ele>570.7</ele>
        <time>2023-08-19T09:24:58Z</time>
      </trkpt>
      <trkpt lat="48.37523" lon="7.04072">
        <ele>569</ele>
        <time>2023-08-19T09:25:01Z</time>
      </trkpt>
      <trkpt lat="48.37545" lon="7.04082">
        <ele>567.7</ele>
        <time>2023-08-19T09:25:03Z</time>
      </trkpt>
      <trkpt lat="48.3756" lon="7.04111">
        <ele>566.3</ele>
        <time>2023-08-19T09:25:05Z</time>
      </trkpt>
      <trkpt lat="48.37569" lon="7.04143">
        <ele>564.8</ele>
        <time>2023-08-19T09:25:07Z</time>
      </trkpt>
      <trkpt lat="48.37586" lon="7.04222">
        <ele>561.6</ele>
        <time>2023-08-19T09:25:12Z</time>
      </trkpt>
      <trkpt lat="48.37591" lon="7.04235">
        <ele>561</ele>
        <time>2023-08-19T09:25:13Z</time>
      </trkpt>
      <trkpt lat="48.37604" lon="7.04256">
        <ele>559.9</ele>
        <time>2023-08-19T09:25:15Z</time>
      </trkpt>
      <trkpt lat="48.37624" lon="7.04264">
        <ele>558.6</ele>
        <time>2023-08-19T09:25:17Z</time>
      </trkpt>
      <trkpt lat="48.37684" lon="7.04253">
        <ele>555</ele>
        <time>2023-08-19T09:25:22Z</time>
      </trkpt>
      <trkpt lat="48.37738" lon="7.04219">
        <ele>551.7</ele>
        <time>2023-08-19T09:25:27Z</time>
      </trkpt>
      <trkpt lat="48.37762" lon="7.04218">
        <ele>550.5</ele>
        <time>2023-08-19T09:25:29Z</time>
      </trkpt>
      <trkpt lat="48.37786" lon="7.04228">
        <ele>549.5</ele>
        <time>2023-08-19T09:25:31Z</time>
      </trkpt>
      <trkpt lat="48.37804" lon="7.04254">
        <ele>548.8</ele>
        <time>2023-08-19T09:25:33Z</time>
      </trkpt>
      <trkpt lat="48.37815" lon="7.04285">
        <ele>548.2</ele>
        <time>2023-08-19T09:25:35Z</time>
      </trkpt>
      <trkpt lat="48.37822" lon="7.04334">
        <ele>547.2</ele>
        <time>2023-08-19T09:25:38Z</time>
      </trkpt>
      <trkpt lat="48.37821" lon="7.04427">
        <ele>544.9</ele>
        <time>2023-08-19T09:25:44Z</time>
      </trkpt>
      <trkpt lat="48.37827" lon="7.04456">
        <ele>543.9</ele>
        <time>2023-08-19T09:25:46Z</time>
      </trkpt>
      <trkpt lat="48.37854" lon="7.04523">
        <ele>541.2</ele>
        <time>2023-08-19T09:25:51Z</time>
      </trkpt>
      <trkpt lat="48.37857" lon="7.04555">
        <ele>540.1</ele>
        <time>2023-08-19T09:25:53Z</time>
      </trkpt>
      <trkpt lat="48.37851" lon="7.04581">
        <ele>539</ele>
        <time>2023-08-19T09:25:55Z</time>
      </trkpt>
      <trkpt lat="48.37834" lon="7.04597">
        <ele>538</ele>
        <time>2023-08-19T09:25:57Z</time>
      </trkpt>
      <trkpt lat="48.37815" lon="7.04615">
        <ele>537.1</ele>
        <time>2023-08-19T09:25:59Z</time>
      </trkpt>
      <trkpt lat="48.37803" lon="7.04641">
        <ele>536.3</ele>
        <time>2023-08-19T09:26:01Z</time>
      </trkpt>
      <trkpt lat="48.37794" lon="7.04686">
        <ele>534.8</ele>
        <time>2023-08-19T09:26:04Z</time>
      </trkpt>
      <trkpt lat="48.37782" lon="7.04712">
        <ele>533.9</ele>
        <time>2023-08-19T09:26:06Z</time>
      </trkpt>
      <trkpt lat="48.37743" lon="7.04767">
        <ele>531.8</ele>
        <time>2023-08-19T09:26:11Z</time>
      </trkpt>
      <trkpt lat="48.37711" lon="7.04785">
        <ele>530.4</ele>
        <time>2023-08-19T09:26:14Z</time>
      </trkpt>
      <trkpt lat="48.37656" lon="7.04793">
        <ele>527.6</ele>
        <time>2023-08-19T09:26:19Z</time>
      </trkpt>
      <trkpt lat="48.37637" lon="7.04804">
        <ele>526.7</ele>
        <time>2023-08-19T09:26:21Z</time>
      </trkpt>
      <trkpt lat="48.37623" lon="7.04825">
        <ele>525.8</ele>
        <time>2023-08-19T09:26:23Z</time>
      </trkpt>
      <trkpt lat="48.37622" lon="7.04859">
        <ele>524.8</ele>
        <time>2023-08-19T09:26:25Z</time>
      </trkpt>
      <trkpt lat="48.37626" lon="7.04925">
        <ele>522.7</ele>
        <time>2023-08-19T09:26:29Z</time>
      </trkpt>
      <trkpt lat="48.3762" lon="7.04955">
        <ele>521.9</ele>
        <time>2023-08-19T09:26:31Z</time>
      </trkpt>
      <trkpt lat="48.3761" lon="7.0498">
        <ele>521.3</ele>
        <time>2023-08-19T09:26:33Z</time>
      </trkpt>
      <trkpt lat="48.37566" lon="7.0505">
        <ele>518.5</ele>
        <time>2023-08-19T09:26:39Z</time>
      </trkpt>
      <trkpt lat="48.37533" lon="7.05086">
        <ele>516.8</ele>
        <time>2023-08-19T09:26:43Z</time>
      </trkpt>
      <trkpt lat="48.37513" lon="7.05094">
        <ele>515.7</ele>
        <time>2023-08-19T09:26:45Z</time>
      </trkpt>
      <trkpt lat="48.37496" lon="7.05103">
        <ele>514.7</ele>
        <time>2023-08-19T09:26:47Z</time>
      </trkpt>
      <trkpt lat="48.37484" lon="7.05125">
        <ele>513.6</ele>
        <time>2023-08-19T09:26:49Z</time>
      </trkpt>
      <trkpt lat="48.37457" lon="7.05206">
        <ele>512.2</ele>
        <time>2023-08-19T09:26:55Z</time>
      </trkpt>
      <trkpt lat="48.37438" lon="7.0527">
        <ele>511.8</ele>
        <time>2023-08-19T09:27:00Z</time>
      </trkpt>
      <trkpt lat="48.37429" lon="7.05349">
        <ele>512.7</ele>
        <time>2023-08-19T09:27:09Z</time>
      </trkpt>
      <trkpt lat="48.37425" lon="7.05378">
        <ele>512.9</ele>
        <time>2023-08-19T09:27:20Z</time>
      </trkpt>
      <trkpt lat="48.37417" lon="7.05458">
        <ele>514.4</ele>
        <time>2023-08-19T09:27:36Z</time>
      </trkpt>
      <trkpt lat="48.37403" lon="7.05537">
        <ele>518</ele>
        <time>2023-08-19T09:27:55Z</time>
      </trkpt>
      <trkpt lat="48.37451" lon="7.05569">
        <ele>521.6</ele>
        <time>2023-08-19T09:28:16Z</time>
      </trkpt>
      <trkpt lat="48.37492" lon="7.05524">
        <ele>525.4</ele>
        <time>2023-08-19T09:28:33Z</time>
      </trkpt>
      <trkpt lat="48.37507" lon="7.05442">
        <ele>527.9</ele>
        <time>2023-08-19T09:28:50Z</time>
      </trkpt>
      <trkpt lat="48.37534" lon="7.05372">
        <ele>531.2</ele>
        <time>2023-08-19T09:29:06Z</time>
      </trkpt>
      <trkpt lat="48.37577" lon="7.05313">
        <ele>535.4</ele>
        <time>2023-08-19T09:29:23Z</time>
      </trkpt>
      <trkpt lat="48.37627" lon="7.05275">
        <ele>539.1</ele>
        <time>2023-08-19T09:29:40Z</time>
      </trkpt>
      <trkpt lat="48.37679" lon="7.05239">
        <ele>542.7</ele>
        <time>2023-08-19T09:29:56Z</time>
      </trkpt>
      <trkpt lat="48.37732" lon="7.05214">
        <ele>547.2</ele>
        <time>2023-08-19T09:30:13Z</time>
      </trkpt>
      <trkpt lat="48.37788" lon="7.05212">
        <ele>551.4</ele>
        <time>2023-08-19T09:30:30Z</time>
      </trkpt>
      <trkpt lat="48.37837" lon="7.05247">
        <ele>555.7</ele>
        <time>2023-08-19T09:30:47Z</time>
      </trkpt>
      <trkpt lat="48.37876" lon="7.05304">
        <ele>559.5</ele>
        <time>2023-08-19T09:31:04Z</time>
      </trkpt>
      <trkpt lat="48.37877" lon="7.05383">
        <ele>561.4</ele>
        <time>2023-08-19T09:31:19Z</time>
      </trkpt>
      <trkpt lat="48.3786" lon="7.05464">
        <ele>562.5</ele>
        <time>2023-08-19T09:31:32Z</time>
      </trkpt>
      <trkpt lat="48.37846" lon="7.05543">
        <ele>564.1</ele>
        <time>2023-08-19T09:31:44Z</time>
      </trkpt>
      <trkpt lat="48.37846" lon="7.0555">
        <ele>564.3</ele>
        <time>2023-08-19T09:31:45Z</time>
      </trkpt>
      <trkpt lat="48.37847" lon="7.05564">
        <ele>564.5</ele>
        <time>2023-08-19T09:31:47Z</time>
      </trkpt>
      <trkpt lat="48.3785" lon="7.05578">
        <ele>564.7</ele>
        <time>2023-08-19T09:31:49Z</time>
      </trkpt>
      <trkpt lat="48.37854" lon="7.05589">
        <ele>565</ele>
        <time>2023-08-19T09:31:51Z</time>
      </trkpt>
      <trkpt lat="48.37861" lon="7.05598">
        <ele>565.2</ele>
        <time>2023-08-19T09:31:53Z</time>
      </trkpt>
      <trkpt lat="48.37869" lon="7.05604">
        <ele>565.4</ele>
        <time>2023-08-19T09:31:55Z</time>
      </trkpt>
      <trkpt lat="48.37878" lon="7.05607">
        <ele>565.6</ele>
        <time>2023-08-19T09:31:57Z</time>
      </trkpt>
      <trkpt lat="48.37933" lon="7.05605">
        <ele>567.8</ele>
        <time>2023-08-19T09:32:08Z</time>
      </trkpt>
      <trkpt lat="48.37942" lon="7.05602">
        <ele>568.3</ele>
        <time>2023-08-19T09:32:10Z</time>
      </trkpt>
      <trkpt lat="48.37995" lon="7.05573">
        <ele>570.3</ele>
        <time>2023-08-19T09:32:23Z</time>
      </trkpt>
      <trkpt lat="48.38047" lon="7.05549">
        <ele>571.6</ele>
        <time>2023-08-19T09:32:35Z</time>
      </trkpt>
      <trkpt lat="48.38088" lon="7.05549">
        <ele>572.1</ele>
        <time>2023-08-19T09:32:43Z</time>
      </trkpt>
      <trkpt lat="48.38146" lon="7.05546">
        <ele>573.2</ele>
        <time>2023-08-19T09:32:54Z</time>
      </trkpt>
      <trkpt lat="48.38151" lon="7.05543">
        <ele>573.4</ele>
        <time>2023-08-19T09:32:55Z</time>
      </trkpt>
      <trkpt lat="48.3816" lon="7.05536">
        <ele>573.7</ele>
        <time>2023-08-19T09:32:57Z</time>
      </trkpt>
      <trkpt lat="48.38195" lon="7.05465">
        <ele>575.1</ele>
        <time>2023-08-19T09:33:09Z</time>
      </trkpt>
      <trkpt lat="48.3821" lon="7.05437">
        <ele>575.8</ele>
        <time>2023-08-19T09:33:14Z</time>
      </trkpt>
      <trkpt lat="48.38244" lon="7.05406">
        <ele>576.8</ele>
        <time>2023-08-19T09:33:23Z</time>
      </trkpt>
      <trkpt lat="48.38253" lon="7.05401">
        <ele>576.9</ele>
        <time>2023-08-19T09:33:25Z</time>
      </trkpt>
      <trkpt lat="48.38264" lon="7.05401">
        <ele>577</ele>
        <time>2023-08-19T09:33:27Z</time>
      </trkpt>
      <trkpt lat="48.38279" lon="7.05407">
        <ele>577.1</ele>
        <time>2023-08-19T09:33:30Z</time>
      </trkpt>
      <trkpt lat="48.38331" lon="7.05443">
        <ele>577.8</ele>
        <time>2023-08-19T09:33:42Z</time>
      </trkpt>
      <trkpt lat="48.38383" lon="7.05471">
        <ele>579.1</ele>
        <time>2023-08-19T09:33:53Z</time>
      </trkpt>
      <trkpt lat="48.38432" lon="7.05508">
        <ele>580.9</ele>
        <time>2023-08-19T09:34:04Z</time>
      </trkpt>
      <trkpt lat="48.38455" lon="7.05534">
        <ele>581.7</ele>
        <time>2023-08-19T09:34:09Z</time>
      </trkpt>
      <trkpt lat="48.38465" lon="7.05563">
        <ele>582.2</ele>
        <time>2023-08-19T09:34:13Z</time>
      </trkpt>
      <trkpt lat="48.3848" lon="7.05642">
        <ele>583.7</ele>
        <time>2023-08-19T09:34:23Z</time>
      </trkpt>
      <trkpt lat="48.38496" lon="7.05707">
        <ele>585.2</ele>
        <time>2023-08-19T09:34:31Z</time>
      </trkpt>
      <trkpt lat="48.38526" lon="7.05774">
        <ele>586.7</ele>
        <time>2023-08-19T09:34:41Z</time>
      </trkpt>
      <trkpt lat="48.38558" lon="7.0585">
        <ele>587.6</ele>
        <time>2023-08-19T09:34:52Z</time>
      </trkpt>
      <trkpt lat="48.3859" lon="7.05918">
        <ele>588.1</ele>
        <time>2023-08-19T09:35:02Z</time>
      </trkpt>
      <trkpt lat="48.38594" lon="7.05924">
        <ele>588.1</ele>
        <time>2023-08-19T09:35:03Z</time>
      </trkpt>
      <trkpt lat="48.38602" lon="7.05933">
        <ele>587.9</ele>
        <time>2023-08-19T09:35:05Z</time>
      </trkpt>
      <trkpt lat="48.38612" lon="7.05938">
        <ele>587.7</ele>
        <time>2023-08-19T09:35:07Z</time>
      </trkpt>
      <trkpt lat="48.38623" lon="7.05936">
        <ele>587.6</ele>
        <time>2023-08-19T09:35:09Z</time>
      </trkpt>
      <trkpt lat="48.38634" lon="7.0593">
        <ele>587.2</ele>
        <time>2023-08-19T09:35:11Z</time>
      </trkpt>
      <trkpt lat="48.38652" lon="7.05913">
        <ele>586.4</ele>
        <time>2023-08-19T09:35:14Z</time>
      </trkpt>
      <trkpt lat="48.38658" lon="7.05893">
        <ele>585.9</ele>
        <time>2023-08-19T09:35:16Z</time>
      </trkpt>
      <trkpt lat="48.38674" lon="7.05813">
        <ele>583.3</ele>
        <time>2023-08-19T09:35:23Z</time>
      </trkpt>
      <trkpt lat="48.38676" lon="7.05792">
        <ele>582.1</ele>
        <time>2023-08-19T09:35:25Z</time>
      </trkpt>
      <trkpt lat="48.38686" lon="7.05708">
        <ele>577.7</ele>
        <time>2023-08-19T09:35:34Z</time>
      </trkpt>
      <trkpt lat="48.3869" lon="7.05665">
        <ele>575.7</ele>
        <time>2023-08-19T09:35:39Z</time>
      </trkpt>
      <trkpt lat="48.38696" lon="7.05632">
        <ele>574.1</ele>
        <time>2023-08-19T09:35:42Z</time>
      </trkpt>
      <trkpt lat="48.38701" lon="7.05538">
        <ele>572.1</ele>
        <time>2023-08-19T09:35:49Z</time>
      </trkpt>
      <trkpt lat="48.38708" lon="7.05472">
        <ele>571.7</ele>
        <time>2023-08-19T09:35:54Z</time>
      </trkpt>
      <trkpt lat="48.38718" lon="7.05451">
        <ele>571.8</ele>
        <time>2023-08-19T09:35:56Z</time>
      </trkpt>
      <trkpt lat="48.38753" lon="7.05379">
        <ele>572</ele>
        <time>2023-08-19T09:36:04Z</time>
      </trkpt>
      <trkpt lat="48.38756" lon="7.0537">
        <ele>571.9</ele>
        <time>2023-08-19T09:36:05Z</time>
      </trkpt>
      <trkpt lat="48.3877" lon="7.0528">
        <ele>571.6</ele>
        <time>2023-08-19T09:36:13Z</time>
      </trkpt>
      <trkpt lat="48.38782" lon="7.05227">
        <ele>572</ele>
        <time>2023-08-19T09:36:18Z</time>
      </trkpt>
      <trkpt lat="48.38793" lon="7.05211">
        <ele>572.2</ele>
        <time>2023-08-19T09:36:20Z</time>
      </trkpt>
      <trkpt lat="48.38808" lon="7.05207">
        <ele>572.5</ele>
        <time>2023-08-19T09:36:22Z</time>
      </trkpt>
      <trkpt lat="48.38823" lon="7.05213">
        <ele>572.9</ele>
        <time>2023-08-19T09:36:24Z</time>
      </trkpt>
      <trkpt lat="48.38835" lon="7.05223">
        <ele>573.2</ele>
        <time>2023-08-19T09:36:26Z</time>
      </trkpt>
      <trkpt lat="48.3888" lon="7.05282">
        <ele>574.2</ele>
        <time>2023-08-19T09:36:35Z</time>
      </trkpt>
      <trkpt lat="48.38899" lon="7.0531">
        <ele>574.5</ele>
        <time>2023-08-19T09:36:39Z</time>
      </trkpt>
      <trkpt lat="48.38911" lon="7.05317">
        <ele>574.8</ele>
        <time>2023-08-19T09:36:41Z</time>
      </trkpt>
      <trkpt lat="48.38924" lon="7.05315">
        <ele>575</ele>
        <time>2023-08-19T09:36:43Z</time>
      </trkpt>
      <trkpt lat="48.38935" lon="7.05305">
        <ele>575.1</ele>
        <time>2023-08-19T09:36:45Z</time>
      </trkpt>
      <trkpt lat="48.38942" lon="7.05289">
        <ele>575.3</ele>
        <time>2023-08-19T09:36:47Z</time>
      </trkpt>
      <trkpt lat="48.38949" lon="7.05266">
        <ele>575.8</ele>
        <time>2023-08-19T09:36:50Z</time>
      </trkpt>
      <trkpt lat="48.3895" lon="7.05251">
        <ele>576</ele>
        <time>2023-08-19T09:36:52Z</time>
      </trkpt>
      <trkpt lat="48.3895" lon="7.05236">
        <ele>576.1</ele>
        <time>2023-08-19T09:36:54Z</time>
      </trkpt>
      <trkpt lat="48.38936" lon="7.05154">
        <ele>576.6</ele>
        <time>2023-08-19T09:37:04Z</time>
      </trkpt>
      <trkpt lat="48.38928" lon="7.05073">
        <ele>576.4</ele>
        <time>2023-08-19T09:37:13Z</time>
      </trkpt>
      <trkpt lat="48.38939" lon="7.05008">
        <ele>576.5</ele>
        <time>2023-08-19T09:37:20Z</time>
      </trkpt>
      <trkpt lat="48.38957" lon="7.04929">
        <ele>577</ele>
        <time>2023-08-19T09:37:29Z</time>
      </trkpt>
      <trkpt lat="48.38976" lon="7.04849">
        <ele>577.3</ele>
        <time>2023-08-19T09:37:38Z</time>
      </trkpt>
      <trkpt lat="48.38998" lon="7.04769">
        <ele>576.8</ele>
        <time>2023-08-19T09:37:47Z</time>
      </trkpt>
      <trkpt lat="48.39024" lon="7.04688">
        <ele>575.4</ele>
        <time>2023-08-19T09:37:57Z</time>
      </trkpt>
      <trkpt lat="48.39055" lon="7.04633">
        <ele>575.7</ele>
        <time>2023-08-19T09:38:07Z</time>
      </trkpt>
      <trkpt lat="48.39088" lon="7.04701">
        <ele>577.7</ele>
        <time>2023-08-19T09:38:26Z</time>
      </trkpt>
      <trkpt lat="48.39119" lon="7.04769">
        <ele>581.8</ele>
        <time>2023-08-19T09:38:43Z</time>
      </trkpt>
      <trkpt lat="48.39143" lon="7.04843">
        <ele>587</ele>
        <time>2023-08-19T09:39:00Z</time>
      </trkpt>
      <trkpt lat="48.39118" lon="7.04917">
        <ele>593.7</ele>
        <time>2023-08-19T09:39:16Z</time>
      </trkpt>
      <trkpt lat="48.39163" lon="7.04946">
        <ele>597.6</ele>
        <time>2023-08-19T09:39:36Z</time>
      </trkpt>
      <trkpt lat="48.39206" lon="7.04982">
        <ele>603.3</ele>
        <time>2023-08-19T09:39:53Z</time>
      </trkpt>
      <trkpt lat="48.39208" lon="7.05064">
        <ele>606</ele>
        <time>2023-08-19T09:40:10Z</time>
      </trkpt>
      <trkpt lat="48.3922" lon="7.05148">
        <ele>607.8</ele>
        <time>2023-08-19T09:40:26Z</time>
      </trkpt>
      <trkpt lat="48.3924" lon="7.05226">
        <ele>607.8</ele>
        <time>2023-08-19T09:40:39Z</time>
      </trkpt>
      <trkpt lat="48.39268" lon="7.05303">
        <ele>608.3</ele>
        <time>2023-08-19T09:40:50Z</time>
      </trkpt>
      <trkpt lat="48.39286" lon="7.05386">
        <ele>609.6</ele>
        <time>2023-08-19T09:41:00Z</time>
      </trkpt>
      <trkpt lat="48.39299" lon="7.05427">
        <ele>610.7</ele>
        <time>2023-08-19T09:41:05Z</time>
      </trkpt>
      <trkpt lat="48.39336" lon="7.05494">
        <ele>612.9</ele>
        <time>2023-08-19T09:41:15Z</time>
      </trkpt>
      <trkpt lat="48.39378" lon="7.05545">
        <ele>616.9</ele>
        <time>2023-08-19T09:41:26Z</time>
      </trkpt>
      <trkpt lat="48.39422" lon="7.05565">
        <ele>621.1</ele>
        <time>2023-08-19T09:41:37Z</time>
      </trkpt>
      <trkpt lat="48.39452" lon="7.05583">
        <ele>621</ele>
        <time>2023-08-19T09:41:43Z</time>
      </trkpt>
      <trkpt lat="48.39462" lon="7.05597">
        <ele>620</ele>
        <time>2023-08-19T09:41:45Z</time>
      </trkpt>
      <trkpt lat="48.39469" lon="7.05616">
        <ele>619.2</ele>
        <time>2023-08-19T09:41:47Z</time>
      </trkpt>
      <trkpt lat="48.39479" lon="7.05704">
        <ele>617</ele>
        <time>2023-08-19T09:41:55Z</time>
      </trkpt>
      <trkpt lat="48.39484" lon="7.05796">
        <ele>615.1</ele>
        <time>2023-08-19T09:42:03Z</time>
      </trkpt>
      <trkpt lat="48.39486" lon="7.05881">
        <ele>614.7</ele>
        <time>2023-08-19T09:42:10Z</time>
      </trkpt>
      <trkpt lat="48.39489" lon="7.05973">
        <ele>613.4</ele>
        <time>2023-08-19T09:42:18Z</time>
      </trkpt>
      <trkpt lat="48.39474" lon="7.06064">
        <ele>610.9</ele>
        <time>2023-08-19T09:42:25Z</time>
      </trkpt>
      <trkpt lat="48.39453" lon="7.06151">
        <ele>608.8</ele>
        <time>2023-08-19T09:42:32Z</time>
      </trkpt>
      <trkpt lat="48.39438" lon="7.06199">
        <ele>607.7</ele>
        <time>2023-08-19T09:42:36Z</time>
      </trkpt>
      <trkpt lat="48.394" lon="7.06273">
        <ele>606</ele>
        <time>2023-08-19T09:42:43Z</time>
      </trkpt>
      <trkpt lat="48.39368" lon="7.0634">
        <ele>605.6</ele>
        <time>2023-08-19T09:42:50Z</time>
      </trkpt>
      <trkpt lat="48.39338" lon="7.0641">
        <ele>603.9</ele>
        <time>2023-08-19T09:42:57Z</time>
      </trkpt>
      <trkpt lat="48.39304" lon="7.06485">
        <ele>599.4</ele>
        <time>2023-08-19T09:43:04Z</time>
      </trkpt>
      <trkpt lat="48.39286" lon="7.06532">
        <ele>597.9</ele>
        <time>2023-08-19T09:43:08Z</time>
      </trkpt>
      <trkpt lat="48.39281" lon="7.0656">
        <ele>597.6</ele>
        <time>2023-08-19T09:43:10Z</time>
      </trkpt>
      <trkpt lat="48.39274" lon="7.06614">
        <ele>597.5</ele>
        <time>2023-08-19T09:43:14Z</time>
      </trkpt>
      <trkpt lat="48.39264" lon="7.06674">
        <ele>592</ele>
        <time>2023-08-19T09:43:18Z</time>
      </trkpt>
      <trkpt lat="48.39266" lon="7.06726">
        <ele>589.9</ele>
        <time>2023-08-19T09:43:21Z</time>
      </trkpt>
      <trkpt lat="48.3927" lon="7.06757">
        <ele>589.6</ele>
        <time>2023-08-19T09:43:23Z</time>
      </trkpt>
      <trkpt lat="48.3928" lon="7.06786">
        <ele>589.4</ele>
        <time>2023-08-19T09:43:25Z</time>
      </trkpt>
      <trkpt lat="48.39294" lon="7.06803">
        <ele>589.4</ele>
        <time>2023-08-19T09:43:27Z</time>
      </trkpt>
      <trkpt lat="48.39313" lon="7.06809">
        <ele>589.6</ele>
        <time>2023-08-19T09:43:29Z</time>
      </trkpt>
      <trkpt lat="48.3934" lon="7.06804">
        <ele>591</ele>
        <time>2023-08-19T09:43:31Z</time>
      </trkpt>
      <trkpt lat="48.39356" lon="7.06799">
        <ele>591.7</ele>
        <time>2023-08-19T09:43:33Z</time>
      </trkpt>
      <trkpt lat="48.3937" lon="7.06777">
        <ele>592.3</ele>
        <time>2023-08-19T09:43:35Z</time>
      </trkpt>
      <trkpt lat="48.39379" lon="7.06757">
        <ele>592.9</ele>
        <time>2023-08-19T09:43:37Z</time>
      </trkpt>
      <trkpt lat="48.39393" lon="7.06728">
        <ele>593.8</ele>
        <time>2023-08-19T09:43:40Z</time>
      </trkpt>
      <trkpt lat="48.39403" lon="7.06714">
        <ele>594.3</ele>
        <time>2023-08-19T09:43:42Z</time>
      </trkpt>
      <trkpt lat="48.39416" lon="7.06705">
        <ele>594.7</ele>
        <time>2023-08-19T09:43:44Z</time>
      </trkpt>
      <trkpt lat="48.39431" lon="7.06701">
        <ele>595.2</ele>
        <time>2023-08-19T09:43:46Z</time>
      </trkpt>
      <trkpt lat="48.39446" lon="7.06704">
        <ele>595.6</ele>
        <time>2023-08-19T09:43:48Z</time>
      </trkpt>
      <trkpt lat="48.39461" lon="7.06713">
        <ele>596</ele>
        <time>2023-08-19T09:43:50Z</time>
      </trkpt>
      <trkpt lat="48.39513" lon="7.06756">
        <ele>596.9</ele>
        <time>2023-08-19T09:43:58Z</time>
      </trkpt>
      <trkpt lat="48.39565" lon="7.06779">
        <ele>596.1</ele>
        <time>2023-08-19T09:44:05Z</time>
      </trkpt>
      <trkpt lat="48.39626" lon="7.06801">
        <ele>592.1</ele>
        <time>2023-08-19T09:44:12Z</time>
      </trkpt>
      <trkpt lat="48.39654" lon="7.06817">
        <ele>590.2</ele>
        <time>2023-08-19T09:44:15Z</time>
      </trkpt>
      <trkpt lat="48.39702" lon="7.06876">
        <ele>587.6</ele>
        <time>2023-08-19T09:44:20Z</time>
      </trkpt>
      <trkpt lat="48.39715" lon="7.06902">
        <ele>586.6</ele>
        <time>2023-08-19T09:44:22Z</time>
      </trkpt>
      <trkpt lat="48.39723" lon="7.06931">
        <ele>585.8</ele>
        <time>2023-08-19T09:44:24Z</time>
      </trkpt>
      <trkpt lat="48.39725" lon="7.06961">
        <ele>584.8</ele>
        <time>2023-08-19T09:44:26Z</time>
      </trkpt>
      <trkpt lat="48.39739" lon="7.0701">
        <ele>583.1</ele>
        <time>2023-08-19T09:44:30Z</time>
      </trkpt>
      <trkpt lat="48.39749" lon="7.07025">
        <ele>582.9</ele>
        <time>2023-08-19T09:44:32Z</time>
      </trkpt>
      <trkpt lat="48.39761" lon="7.07037">
        <ele>583</ele>
        <time>2023-08-19T09:44:34Z</time>
      </trkpt>
      <trkpt lat="48.39788" lon="7.07054">
        <ele>583.7</ele>
        <time>2023-08-19T09:44:38Z</time>
      </trkpt>
      <trkpt lat="48.39832" lon="7.07069">
        <ele>586.3</ele>
        <time>2023-08-19T09:44:43Z</time>
      </trkpt>
      <trkpt lat="48.3985" lon="7.07082">
        <ele>588.1</ele>
        <time>2023-08-19T09:44:46Z</time>
      </trkpt>
      <trkpt lat="48.3987" lon="7.07112">
        <ele>590.6</ele>
        <time>2023-08-19T09:44:51Z</time>
      </trkpt>
      <trkpt lat="48.39882" lon="7.07137">
        <ele>592.2</ele>
        <time>2023-08-19T09:44:55Z</time>
      </trkpt>
      <trkpt lat="48.39895" lon="7.07157">
        <ele>593.7</ele>
        <time>2023-08-19T09:44:59Z</time>
      </trkpt>
      <trkpt lat="48.39939" lon="7.07206">
        <ele>597</ele>
        <time>2023-08-19T09:45:11Z</time>
      </trkpt>
      <trkpt lat="48.39954" lon="7.07221">
        <ele>598.2</ele>
        <time>2023-08-19T09:45:15Z</time>
      </trkpt>
      <trkpt lat="48.39968" lon="7.07238">
        <ele>599.3</ele>
        <time>2023-08-19T09:45:19Z</time>
      </trkpt>
      <trkpt lat="48.40009" lon="7.07291">
        <ele>602.2</ele>
        <time>2023-08-19T09:45:32Z</time>
      </trkpt>
      <trkpt lat="48.40055" lon="7.07342">
        <ele>600.3</ele>
        <time>2023-08-19T09:45:42Z</time>
      </trkpt>
      <trkpt lat="48.4008" lon="7.07371">
        <ele>599.4</ele>
        <time>2023-08-19T09:45:47Z</time>
      </trkpt>
      <trkpt lat="48.40094" lon="7.07374">
        <ele>598.7</ele>
        <time>2023-08-19T09:45:49Z</time>
      </trkpt>
      <trkpt lat="48.40108" lon="7.07367">
        <ele>597.9</ele>
        <time>2023-08-19T09:45:51Z</time>
      </trkpt>
      <trkpt lat="48.40139" lon="7.07352">
        <ele>597</ele>
        <time>2023-08-19T09:45:55Z</time>
      </trkpt>
      <trkpt lat="48.40153" lon="7.07355">
        <ele>596.9</ele>
        <time>2023-08-19T09:45:57Z</time>
      </trkpt>
      <trkpt lat="48.40188" lon="7.07378">
        <ele>597.7</ele>
        <time>2023-08-19T09:46:03Z</time>
      </trkpt>
      <trkpt lat="48.40196" lon="7.07391">
        <ele>598.2</ele>
        <time>2023-08-19T09:46:05Z</time>
      </trkpt>
      <trkpt lat="48.40212" lon="7.0743">
        <ele>599.9</ele>
        <time>2023-08-19T09:46:11Z</time>
      </trkpt>
      <trkpt lat="48.40218" lon="7.07454">
        <ele>600.9</ele>
        <time>2023-08-19T09:46:15Z</time>
      </trkpt>
      <trkpt lat="48.40234" lon="7.07532">
        <ele>605.6</ele>
        <time>2023-08-19T09:46:29Z</time>
      </trkpt>
      <trkpt lat="48.40247" lon="7.07616">
        <ele>610.2</ele>
        <time>2023-08-19T09:46:46Z</time>
      </trkpt>
      <trkpt lat="48.40261" lon="7.07697">
        <ele>611.9</ele>
        <time>2023-08-19T09:47:00Z</time>
      </trkpt>
      <trkpt lat="48.40256" lon="7.07778">
        <ele>613.4</ele>
        <time>2023-08-19T09:47:13Z</time>
      </trkpt>
      <trkpt lat="48.40264" lon="7.07866">
        <ele>613.3</ele>
        <time>2023-08-19T09:47:24Z</time>
      </trkpt>
      <trkpt lat="48.40268" lon="7.0795">
        <ele>613.8</ele>
        <time>2023-08-19T09:47:34Z</time>
      </trkpt>
      <trkpt lat="48.40273" lon="7.08033">
        <ele>613</ele>
        <time>2023-08-19T09:47:43Z</time>
      </trkpt>
      <trkpt lat="48.40273" lon="7.08043">
        <ele>613</ele>
        <time>2023-08-19T09:47:44Z</time>
      </trkpt>
      <trkpt lat="48.40278" lon="7.08125">
        <ele>612.8</ele>
        <time>2023-08-19T09:47:53Z</time>
      </trkpt>
      <trkpt lat="48.40286" lon="7.08214">
        <ele>612.3</ele>
        <time>2023-08-19T09:48:02Z</time>
      </trkpt>
      <trkpt lat="48.40291" lon="7.08296">
        <ele>613.8</ele>
        <time>2023-08-19T09:48:11Z</time>
      </trkpt>
      <trkpt lat="48.4029" lon="7.08302">
        <ele>614</ele>
        <time>2023-08-19T09:48:12Z</time>
      </trkpt>
      <trkpt lat="48.4029" lon="7.08337">
        <ele>615.3</ele>
        <time>2023-08-19T09:48:17Z</time>
      </trkpt>
      <trkpt lat="48.40294" lon="7.0842">
        <ele>618</ele>
        <time>2023-08-19T09:48:27Z</time>
      </trkpt>
      <trkpt lat="48.403" lon="7.08502">
        <ele>619.4</ele>
        <time>2023-08-19T09:48:36Z</time>
      </trkpt>
      <trkpt lat="48.40308" lon="7.08587">
        <ele>621.2</ele>
        <time>2023-08-19T09:48:47Z</time>
      </trkpt>
      <trkpt lat="48.40326" lon="7.08663">
        <ele>624.3</ele>
        <time>2023-08-19T09:48:59Z</time>
      </trkpt>
      <trkpt lat="48.40328" lon="7.08688">
        <ele>625.5</ele>
        <time>2023-08-19T09:49:03Z</time>
      </trkpt>
      <trkpt lat="48.40303" lon="7.08765">
        <ele>630.2</ele>
        <time>2023-08-19T09:49:17Z</time>
      </trkpt>
      <trkpt lat="48.40284" lon="7.08841">
        <ele>634.9</ele>
        <time>2023-08-19T09:49:34Z</time>
      </trkpt>
      <trkpt lat="48.40267" lon="7.08924">
        <ele>638.3</ele>
        <time>2023-08-19T09:49:50Z</time>
      </trkpt>
      <trkpt lat="48.40234" lon="7.08982">
        <ele>639.5</ele>
        <time>2023-08-19T09:50:05Z</time>
      </trkpt>
      <trkpt lat="48.4018" lon="7.08959">
        <ele>641.3</ele>
        <time>2023-08-19T09:50:20Z</time>
      </trkpt>
      <trkpt lat="48.40166" lon="7.08959">
        <ele>641.6</ele>
        <time>2023-08-19T09:50:23Z</time>
      </trkpt>
      <trkpt lat="48.40134" lon="7.08987">
        <ele>641.2</ele>
        <time>2023-08-19T09:50:34Z</time>
      </trkpt>
      <trkpt lat="48.40124" lon="7.09018">
        <ele>640.3</ele>
        <time>2023-08-19T09:50:38Z</time>
      </trkpt>
      <trkpt lat="48.40103" lon="7.09093">
        <ele>637.6</ele>
        <time>2023-08-19T09:50:47Z</time>
      </trkpt>
      <trkpt lat="48.40072" lon="7.0917">
        <ele>636.5</ele>
        <time>2023-08-19T09:50:56Z</time>
      </trkpt>
      <trkpt lat="48.40039" lon="7.09236">
        <ele>637.3</ele>
        <time>2023-08-19T09:51:05Z</time>
      </trkpt>
      <trkpt lat="48.40012" lon="7.09277">
        <ele>638.3</ele>
        <time>2023-08-19T09:51:11Z</time>
      </trkpt>
      <trkpt lat="48.39959" lon="7.09316">
        <ele>638.8</ele>
        <time>2023-08-19T09:51:22Z</time>
      </trkpt>
      <trkpt lat="48.39947" lon="7.09339">
        <ele>638.7</ele>
        <time>2023-08-19T09:51:24Z</time>
      </trkpt>
      <trkpt lat="48.39911" lon="7.09406">
        <ele>640.2</ele>
        <time>2023-08-19T09:51:31Z</time>
      </trkpt>
      <trkpt lat="48.39883" lon="7.09478">
        <ele>642.8</ele>
        <time>2023-08-19T09:51:41Z</time>
      </trkpt>
      <trkpt lat="48.39854" lon="7.0954">
        <ele>646.2</ele>
        <time>2023-08-19T09:51:51Z</time>
      </trkpt>
      <trkpt lat="48.39828" lon="7.09616">
        <ele>651</ele>
        <time>2023-08-19T09:52:11Z</time>
      </trkpt>
      <trkpt lat="48.39818" lon="7.09687">
        <ele>654.5</ele>
        <time>2023-08-19T09:52:20Z</time>
      </trkpt>
      <trkpt lat="48.3981" lon="7.09703">
        <ele>655.5</ele>
        <time>2023-08-19T09:52:23Z</time>
      </trkpt>
      <trkpt lat="48.39803" lon="7.09709">
        <ele>656.1</ele>
        <time>2023-08-19T09:52:25Z</time>
      </trkpt>
      <trkpt lat="48.39794" lon="7.09709">
        <ele>656.6</ele>
        <time>2023-08-19T09:52:27Z</time>
      </trkpt>
      <trkpt lat="48.39787" lon="7.09704">
        <ele>657.1</ele>
        <time>2023-08-19T09:52:29Z</time>
      </trkpt>
      <trkpt lat="48.39789" lon="7.09625">
        <ele>659.8</ele>
        <time>2023-08-19T09:52:44Z</time>
      </trkpt>
      <trkpt lat="48.39756" lon="7.09557">
        <ele>664.2</ele>
        <time>2023-08-19T09:53:00Z</time>
      </trkpt>
      <trkpt lat="48.39714" lon="7.09506">
        <ele>668.7</ele>
        <time>2023-08-19T09:53:15Z</time>
      </trkpt>
      <trkpt lat="48.39665" lon="7.09467">
        <ele>673.6</ele>
        <time>2023-08-19T09:53:31Z</time>
      </trkpt>
      <trkpt lat="48.39611" lon="7.0944">
        <ele>680.4</ele>
        <time>2023-08-19T09:53:49Z</time>
      </trkpt>
      <trkpt lat="48.39559" lon="7.09415">
        <ele>686.7</ele>
        <time>2023-08-19T09:54:07Z</time>
      </trkpt>
      <trkpt lat="48.39507" lon="7.09387">
        <ele>692.6</ele>
        <time>2023-08-19T09:54:23Z</time>
      </trkpt>
      <trkpt lat="48.39454" lon="7.09357">
        <ele>696.8</ele>
        <time>2023-08-19T09:54:37Z</time>
      </trkpt>
      <trkpt lat="48.39417" lon="7.09317">
        <ele>698</ele>
        <time>2023-08-19T09:54:47Z</time>
      </trkpt>
      <trkpt lat="48.39385" lon="7.0925">
        <ele>701</ele>
        <time>2023-08-19T09:55:00Z</time>
      </trkpt>
      <trkpt lat="48.39353" lon="7.09183">
        <ele>703.6</ele>
        <time>2023-08-19T09:55:13Z</time>
      </trkpt>
      <trkpt lat="48.39316" lon="7.09115">
        <ele>705.4</ele>
        <time>2023-08-19T09:55:26Z</time>
      </trkpt>
      <trkpt lat="48.39283" lon="7.09071">
        <ele>706.4</ele>
        <time>2023-08-19T09:55:36Z</time>
      </trkpt>
      <trkpt lat="48.39233" lon="7.09037">
        <ele>707.6</ele>
        <time>2023-08-19T09:55:48Z</time>
      </trkpt>
      <trkpt lat="48.39223" lon="7.09034">
        <ele>707.8</ele>
        <time>2023-08-19T09:55:50Z</time>
      </trkpt>
      <trkpt lat="48.39204" lon="7.09032">
        <ele>708.2</ele>
        <time>2023-08-19T09:55:54Z</time>
      </trkpt>
      <trkpt lat="48.39162" lon="7.09049">
        <ele>708.6</ele>
        <time>2023-08-19T09:56:05Z</time>
      </trkpt>
      <trkpt lat="48.39109" lon="7.09089">
        <ele>707.2</ele>
        <time>2023-08-19T09:56:16Z</time>
      </trkpt>
      <trkpt lat="48.39056" lon="7.09131">
        <ele>706.1</ele>
        <time>2023-08-19T09:56:24Z</time>
      </trkpt>
      <trkpt lat="48.39006" lon="7.0917">
        <ele>705.4</ele>
        <time>2023-08-19T09:56:30Z</time>
      </trkpt>
      <trkpt lat="48.38956" lon="7.0922">
        <ele>705.3</ele>
        <time>2023-08-19T09:56:37Z</time>
      </trkpt>
      <trkpt lat="48.38945" lon="7.09235">
        <ele>705.5</ele>
        <time>2023-08-19T09:56:39Z</time>
      </trkpt>
      <trkpt lat="48.38915" lon="7.09305">
        <ele>706.6</ele>
        <time>2023-08-19T09:56:47Z</time>
      </trkpt>
      <trkpt lat="48.38892" lon="7.09381">
        <ele>708.6</ele>
        <time>2023-08-19T09:56:56Z</time>
      </trkpt>
      <trkpt lat="48.38869" lon="7.09458">
        <ele>711.2</ele>
        <time>2023-08-19T09:57:06Z</time>
      </trkpt>
      <trkpt lat="48.38863" lon="7.09494">
        <ele>713</ele>
        <time>2023-08-19T09:57:11Z</time>
      </trkpt>
      <trkpt lat="48.38846" lon="7.09573">
        <ele>717.5</ele>
        <time>2023-08-19T09:57:24Z</time>
      </trkpt>
      <trkpt lat="48.38805" lon="7.09629">
        <ele>724.3</ele>
        <time>2023-08-19T09:57:41Z</time>
      </trkpt>
      <trkpt lat="48.38751" lon="7.09607">
        <ele>730.5</ele>
        <time>2023-08-19T09:57:58Z</time>
      </trkpt>
      <trkpt lat="48.38704" lon="7.09563">
        <ele>735.8</ele>
        <time>2023-08-19T09:58:17Z</time>
      </trkpt>
      <trkpt lat="48.3866" lon="7.09513">
        <ele>740.8</ele>
        <time>2023-08-19T09:58:35Z</time>
      </trkpt>
      <trkpt lat="48.3861" lon="7.09474">
        <ele>745.5</ele>
        <time>2023-08-19T09:58:53Z</time>
      </trkpt>
      <trkpt lat="48.38554" lon="7.09477">
        <ele>750</ele>
        <time>2023-08-19T09:59:10Z</time>
      </trkpt>
      <trkpt lat="48.385" lon="7.09499">
        <ele>754</ele>
        <time>2023-08-19T09:59:29Z</time>
      </trkpt>
      <trkpt lat="48.38447" lon="7.09532">
        <ele>758.4</ele>
        <time>2023-08-19T09:59:47Z</time>
      </trkpt>
      <trkpt lat="48.38395" lon="7.0957">
        <ele>763.1</ele>
        <time>2023-08-19T10:00:01Z</time>
      </trkpt>
      <trkpt lat="48.38349" lon="7.09614">
        <ele>766.8</ele>
        <time>2023-08-19T10:00:11Z</time>
      </trkpt>
      <trkpt lat="48.38303" lon="7.0966">
        <ele>768.5</ele>
        <time>2023-08-19T10:00:21Z</time>
      </trkpt>
      <trkpt lat="48.38251" lon="7.097">
        <ele>769.2</ele>
        <time>2023-08-19T10:00:31Z</time>
      </trkpt>
      <trkpt lat="48.38245" lon="7.09704">
        <ele>769.2</ele>
        <time>2023-08-19T10:00:32Z</time>
      </trkpt>
      <trkpt lat="48.38194" lon="7.09742">
        <ele>768.1</ele>
        <time>2023-08-19T10:00:40Z</time>
      </trkpt>
      <trkpt lat="48.3814" lon="7.09779">
        <ele>767.5</ele>
        <time>2023-08-19T10:00:48Z</time>
      </trkpt>
      <trkpt lat="48.3811" lon="7.09785">
        <ele>767.3</ele>
        <time>2023-08-19T10:00:52Z</time>
      </trkpt>
      <trkpt lat="48.38097" lon="7.09783">
        <ele>767.3</ele>
        <time>2023-08-19T10:00:54Z</time>
      </trkpt>
      <trkpt lat="48.38045" lon="7.09749">
        <ele>767.5</ele>
        <time>2023-08-19T10:01:02Z</time>
      </trkpt>
      <trkpt lat="48.37997" lon="7.09703">
        <ele>768.2</ele>
        <time>2023-08-19T10:01:11Z</time>
      </trkpt>
      <trkpt lat="48.37945" lon="7.0967">
        <ele>769.8</ele>
        <time>2023-08-19T10:01:20Z</time>
      </trkpt>
      <trkpt lat="48.37914" lon="7.09656">
        <ele>771</ele>
        <time>2023-08-19T10:01:25Z</time>
      </trkpt>
      <trkpt lat="48.37861" lon="7.09631">
        <ele>772.7</ele>
        <time>2023-08-19T10:01:34Z</time>
      </trkpt>
      <trkpt lat="48.37809" lon="7.09608">
        <ele>774.7</ele>
        <time>2023-08-19T10:01:43Z</time>
      </trkpt>
      <trkpt lat="48.37754" lon="7.09593">
        <ele>776.3</ele>
        <time>2023-08-19T10:01:52Z</time>
      </trkpt>
      <trkpt lat="48.37701" lon="7.09576">
        <ele>777.2</ele>
        <time>2023-08-19T10:02:01Z</time>
      </trkpt>
      <trkpt lat="48.37647" lon="7.09562">
        <ele>778.7</ele>
        <time>2023-08-19T10:02:10Z</time>
      </trkpt>
      <trkpt lat="48.37591" lon="7.09545">
        <ele>780.4</ele>
        <time>2023-08-19T10:02:20Z</time>
      </trkpt>
      <trkpt lat="48.37534" lon="7.09528">
        <ele>780.7</ele>
        <time>2023-08-19T10:02:30Z</time>
      </trkpt>
      <trkpt lat="48.37494" lon="7.09526">
        <ele>779.8</ele>
        <time>2023-08-19T10:02:36Z</time>
      </trkpt>
      <trkpt lat="48.37454" lon="7.0954">
        <ele>779</ele>
        <time>2023-08-19T10:02:42Z</time>
      </trkpt>
      <trkpt lat="48.3744" lon="7.09557">
        <ele>778.4</ele>
        <time>2023-08-19T10:02:44Z</time>
      </trkpt>
      <trkpt lat="48.37429" lon="7.09579">
        <ele>777.8</ele>
        <time>2023-08-19T10:02:46Z</time>
      </trkpt>
      <trkpt lat="48.3742" lon="7.09603">
        <ele>777.2</ele>
        <time>2023-08-19T10:02:48Z</time>
      </trkpt>
      <trkpt lat="48.37403" lon="7.09683">
        <ele>775.4</ele>
        <time>2023-08-19T10:02:54Z</time>
      </trkpt>
      <trkpt lat="48.37388" lon="7.09766">
        <ele>773.4</ele>
        <time>2023-08-19T10:03:00Z</time>
      </trkpt>
      <trkpt lat="48.37361" lon="7.09843">
        <ele>772.1</ele>
        <time>2023-08-19T10:03:06Z</time>
      </trkpt>
      <trkpt lat="48.3732" lon="7.09911">
        <ele>772.2</ele>
        <time>2023-08-19T10:03:13Z</time>
      </trkpt>
      <trkpt lat="48.3728" lon="7.09979">
        <ele>772.4</ele>
        <time>2023-08-19T10:03:21Z</time>
      </trkpt>
      <trkpt lat="48.37241" lon="7.10039">
        <ele>771.9</ele>
        <time>2023-08-19T10:03:28Z</time>
      </trkpt>
      <trkpt lat="48.37221" lon="7.10118">
        <ele>770.6</ele>
        <time>2023-08-19T10:03:35Z</time>
      </trkpt>
      <trkpt lat="48.37199" lon="7.10201">
        <ele>768.7</ele>
        <time>2023-08-19T10:03:42Z</time>
      </trkpt>
      <trkpt lat="48.37187" lon="7.10223">
        <ele>767.9</ele>
        <time>2023-08-19T10:03:44Z</time>
      </trkpt>
      <trkpt lat="48.37171" lon="7.10239">
        <ele>766.8</ele>
        <time>2023-08-19T10:03:46Z</time>
      </trkpt>
      <trkpt lat="48.37151" lon="7.10251">
        <ele>765.3</ele>
        <time>2023-08-19T10:03:48Z</time>
      </trkpt>
      <trkpt lat="48.37098" lon="7.10286">
        <ele>760.4</ele>
        <time>2023-08-19T10:03:54Z</time>
      </trkpt>
      <trkpt lat="48.37089" lon="7.10299">
        <ele>759.5</ele>
        <time>2023-08-19T10:03:55Z</time>
      </trkpt>
      <trkpt lat="48.37074" lon="7.10324">
        <ele>757.8</ele>
        <time>2023-08-19T10:03:57Z</time>
      </trkpt>
      <trkpt lat="48.37043" lon="7.10394">
        <ele>752.7</ele>
        <time>2023-08-19T10:04:02Z</time>
      </trkpt>
      <trkpt lat="48.37003" lon="7.10467">
        <ele>746.5</ele>
        <time>2023-08-19T10:04:07Z</time>
      </trkpt>
      <trkpt lat="48.36956" lon="7.10538">
        <ele>740.9</ele>
        <time>2023-08-19T10:04:12Z</time>
      </trkpt>
      <trkpt lat="48.36942" lon="7.10549">
        <ele>739.7</ele>
        <time>2023-08-19T10:04:13Z</time>
      </trkpt>
      <trkpt lat="48.36905" lon="7.10564">
        <ele>737.6</ele>
        <time>2023-08-19T10:04:15Z</time>
      </trkpt>
      <trkpt lat="48.3684" lon="7.10586">
        <ele>733.7</ele>
        <time>2023-08-19T10:04:19Z</time>
      </trkpt>
      <trkpt lat="48.36789" lon="7.10617">
        <ele>729.8</ele>
        <time>2023-08-19T10:04:23Z</time>
      </trkpt>
      <trkpt lat="48.36741" lon="7.10653">
        <ele>725.7</ele>
        <time>2023-08-19T10:04:27Z</time>
      </trkpt>
      <trkpt lat="48.36687" lon="7.10689">
        <ele>720.9</ele>
        <time>2023-08-19T10:04:31Z</time>
      </trkpt>
      <trkpt lat="48.36634" lon="7.10727">
        <ele>716.2</ele>
        <time>2023-08-19T10:04:35Z</time>
      </trkpt>
      <trkpt lat="48.36624" lon="7.10739">
        <ele>715.1</ele>
        <time>2023-08-19T10:04:36Z</time>
      </trkpt>
      <trkpt lat="48.36582" lon="7.108">
        <ele>710.4</ele>
        <time>2023-08-19T10:04:40Z</time>
      </trkpt>
      <trkpt lat="48.36538" lon="7.1086">
        <ele>705.2</ele>
        <time>2023-08-19T10:04:44Z</time>
      </trkpt>
      <trkpt lat="48.36496" lon="7.10925">
        <ele>700.2</ele>
        <time>2023-08-19T10:04:48Z</time>
      </trkpt>
      <trkpt lat="48.36464" lon="7.11003">
        <ele>695.2</ele>
        <time>2023-08-19T10:04:52Z</time>
      </trkpt>
      <trkpt lat="48.36444" lon="7.11095">
        <ele>689.8</ele>
        <time>2023-08-19T10:04:56Z</time>
      </trkpt>
      <trkpt lat="48.36443" lon="7.112">
        <ele>684.4</ele>
        <time>2023-08-19T10:05:00Z</time>
      </trkpt>
      <trkpt lat="48.36445" lon="7.11291">
        <ele>680</ele>
        <time>2023-08-19T10:05:04Z</time>
      </trkpt>
      <trkpt lat="48.36429" lon="7.1133">
        <ele>677.8</ele>
        <time>2023-08-19T10:05:08Z</time>
      </trkpt>
      <trkpt lat="48.36411" lon="7.11314">
        <ele>676.1</ele>
        <time>2023-08-19T10:05:10Z</time>
      </trkpt>
      <trkpt lat="48.36401" lon="7.11287">
        <ele>674.5</ele>
        <time>2023-08-19T10:05:12Z</time>
      </trkpt>
      <trkpt lat="48.36408" lon="7.11186">
        <ele>669.1</ele>
        <time>2023-08-19T10:05:15Z</time>
      </trkpt>
      <trkpt lat="48.36408" lon="7.11091">
        <ele>664.4</ele>
        <time>2023-08-19T10:05:20Z</time>
      </trkpt>
      <trkpt lat="48.36411" lon="7.10991">
        <ele>660.4</ele>
        <time>2023-08-19T10:05:25Z</time>
      </trkpt>
      <trkpt lat="48.3641" lon="7.10895">
        <ele>657.3</ele>
        <time>2023-08-19T10:05:30Z</time>
      </trkpt>
      <trkpt lat="48.36414" lon="7.10802">
        <ele>652.7</ele>
        <time>2023-08-19T10:05:35Z</time>
      </trkpt>
      <trkpt lat="48.36434" lon="7.10704">
        <ele>648.4</ele>
        <time>2023-08-19T10:05:40Z</time>
      </trkpt>
      <trkpt lat="48.36445" lon="7.10685">
        <ele>648.1</ele>
        <time>2023-08-19T10:05:41Z</time>
      </trkpt>
      <trkpt lat="48.36491" lon="7.10619">
        <ele>647.9</ele>
        <time>2023-08-19T10:05:45Z</time>
      </trkpt>
      <trkpt lat="48.36532" lon="7.10542">
        <ele>648.3</ele>
        <time>2023-08-19T10:05:50Z</time>
      </trkpt>
      <trkpt lat="48.36536" lon="7.10506">
        <ele>648.4</ele>
        <time>2023-08-19T10:05:53Z</time>
      </trkpt>
      <trkpt lat="48.36516" lon="7.10495">
        <ele>648.3</ele>
        <time>2023-08-19T10:05:55Z</time>
      </trkpt>
      <trkpt lat="48.36459" lon="7.10496">
        <ele>648.2</ele>
        <time>2023-08-19T10:06:02Z</time>
      </trkpt>
      <trkpt lat="48.36398" lon="7.10475">
        <ele>648.1</ele>
        <time>2023-08-19T10:06:09Z</time>
      </trkpt>
      <trkpt lat="48.36343" lon="7.10449">
        <ele>648</ele>
        <time>2023-08-19T10:06:16Z</time>
      </trkpt>
      <trkpt lat="48.36288" lon="7.10437">
        <ele>645.1</ele>
        <time>2023-08-19T10:06:22Z</time>
      </trkpt>
      <trkpt lat="48.36268" lon="7.10446">
        <ele>643.5</ele>
        <time>2023-08-19T10:06:24Z</time>
      </trkpt>
      <trkpt lat="48.36251" lon="7.10466">
        <ele>642.7</ele>
        <time>2023-08-19T10:06:26Z</time>
      </trkpt>
      <trkpt lat="48.36211" lon="7.10527">
        <ele>639</ele>
        <time>2023-08-19T10:06:32Z</time>
      </trkpt>
      <trkpt lat="48.36187" lon="7.10556">
        <ele>636.6</ele>
        <time>2023-08-19T10:06:35Z</time>
      </trkpt>
      <trkpt lat="48.36141" lon="7.10576">
        <ele>632.5</ele>
        <time>2023-08-19T10:06:39Z</time>
      </trkpt>
      <trkpt lat="48.36117" lon="7.10572">
        <ele>630.6</ele>
        <time>2023-08-19T10:06:41Z</time>
      </trkpt>
      <trkpt lat="48.36094" lon="7.10556">
        <ele>628.4</ele>
        <time>2023-08-19T10:06:43Z</time>
      </trkpt>
      <trkpt lat="48.36044" lon="7.105">
        <ele>623.2</ele>
        <time>2023-08-19T10:06:48Z</time>
      </trkpt>
      <trkpt lat="48.36021" lon="7.10452">
        <ele>620.7</ele>
        <time>2023-08-19T10:06:51Z</time>
      </trkpt>
      <trkpt lat="48.36012" lon="7.10413">
        <ele>619.5</ele>
        <time>2023-08-19T10:06:53Z</time>
      </trkpt>
      <trkpt lat="48.36011" lon="7.10376">
        <ele>618.5</ele>
        <time>2023-08-19T10:06:55Z</time>
      </trkpt>
      <trkpt lat="48.3601" lon="7.10342">
        <ele>617.5</ele>
        <time>2023-08-19T10:06:57Z</time>
      </trkpt>
      <trkpt lat="48.36002" lon="7.10312">
        <ele>616.4</ele>
        <time>2023-08-19T10:06:59Z</time>
      </trkpt>
      <trkpt lat="48.35988" lon="7.10286">
        <ele>615</ele>
        <time>2023-08-19T10:07:01Z</time>
      </trkpt>
      <trkpt lat="48.35969" lon="7.10268">
        <ele>613.6</ele>
        <time>2023-08-19T10:07:03Z</time>
      </trkpt>
      <trkpt lat="48.35912" lon="7.10231">
        <ele>609.5</ele>
        <time>2023-08-19T10:07:08Z</time>
      </trkpt>
      <trkpt lat="48.35861" lon="7.10202">
        <ele>605.3</ele>
        <time>2023-08-19T10:07:12Z</time>
      </trkpt>
      <trkpt lat="48.35809" lon="7.10175">
        <ele>600.7</ele>
        <time>2023-08-19T10:07:16Z</time>
      </trkpt>
      <trkpt lat="48.35784" lon="7.10167">
        <ele>599.3</ele>
        <time>2023-08-19T10:07:18Z</time>
      </trkpt>
      <trkpt lat="48.35762" lon="7.10174">
        <ele>598.4</ele>
        <time>2023-08-19T10:07:20Z</time>
      </trkpt>
      <trkpt lat="48.35738" lon="7.10236">
        <ele>597.5</ele>
        <time>2023-08-19T10:07:22Z</time>
      </trkpt>
      <trkpt lat="48.35726" lon="7.10279">
        <ele>597.3</ele>
        <time>2023-08-19T10:07:24Z</time>
      </trkpt>
      <trkpt lat="48.35691" lon="7.10361">
        <ele>595.7</ele>
        <time>2023-08-19T10:07:29Z</time>
      </trkpt>
      <trkpt lat="48.35684" lon="7.10394">
        <ele>594.5</ele>
        <time>2023-08-19T10:07:31Z</time>
      </trkpt>
      <trkpt lat="48.35663" lon="7.10477">
        <ele>590.1</ele>
        <time>2023-08-19T10:07:36Z</time>
      </trkpt>
      <trkpt lat="48.35648" lon="7.10505">
        <ele>588.2</ele>
        <time>2023-08-19T10:07:38Z</time>
      </trkpt>
      <trkpt lat="48.35598" lon="7.10557">
        <ele>583.5</ele>
        <time>2023-08-19T10:07:43Z</time>
      </trkpt>
      <trkpt lat="48.35574" lon="7.10571">
        <ele>581.3</ele>
        <time>2023-08-19T10:07:45Z</time>
      </trkpt>
      <trkpt lat="48.35517" lon="7.10586">
        <ele>576.8</ele>
        <time>2023-08-19T10:07:49Z</time>
      </trkpt>
      <trkpt lat="48.35461" lon="7.10597">
        <ele>573.1</ele>
        <time>2023-08-19T10:07:53Z</time>
      </trkpt>
      <trkpt lat="48.35407" lon="7.10588">
        <ele>570.4</ele>
        <time>2023-08-19T10:07:57Z</time>
      </trkpt>
      <trkpt lat="48.35384" lon="7.10587">
        <ele>569.4</ele>
        <time>2023-08-19T10:07:59Z</time>
      </trkpt>
      <trkpt lat="48.35364" lon="7.106">
        <ele>568.8</ele>
        <time>2023-08-19T10:08:01Z</time>
      </trkpt>
      <trkpt lat="48.35345" lon="7.10608">
        <ele>568.4</ele>
        <time>2023-08-19T10:08:03Z</time>
      </trkpt>
      <trkpt lat="48.35325" lon="7.10605">
        <ele>568.1</ele>
        <time>2023-08-19T10:08:05Z</time>
      </trkpt>
      <trkpt lat="48.35268" lon="7.10578">
        <ele>567.3</ele>
        <time>2023-08-19T10:08:11Z</time>
      </trkpt>
      <trkpt lat="48.35216" lon="7.10574">
        <ele>567</ele>
        <time>2023-08-19T10:08:17Z</time>
      </trkpt>
      <trkpt lat="48.3516" lon="7.10601">
        <ele>565.2</ele>
        <time>2023-08-19T10:08:24Z</time>
      </trkpt>
      <trkpt lat="48.35113" lon="7.10642">
        <ele>562.4</ele>
        <time>2023-08-19T10:08:30Z</time>
      </trkpt>
      <trkpt lat="48.35106" lon="7.10647">
        <ele>561.8</ele>
        <time>2023-08-19T10:08:31Z</time>
      </trkpt>
      <trkpt lat="48.35081" lon="7.10652">
        <ele>560.1</ele>
        <time>2023-08-19T10:08:34Z</time>
      </trkpt>
      <trkpt lat="48.35064" lon="7.10643">
        <ele>559.2</ele>
        <time>2023-08-19T10:08:36Z</time>
      </trkpt>
      <trkpt lat="48.3504" lon="7.10621">
        <ele>558.3</ele>
        <time>2023-08-19T10:08:40Z</time>
      </trkpt>
      <trkpt lat="48.35028" lon="7.10621">
        <ele>558</ele>
        <time>2023-08-19T10:08:42Z</time>
      </trkpt>
      <trkpt lat="48.34999" lon="7.10629">
        <ele>557.4</ele>
        <time>2023-08-19T10:08:47Z</time>
      </trkpt>
      <trkpt lat="48.34987" lon="7.10638">
        <ele>557.3</ele>
        <time>2023-08-19T10:08:49Z</time>
      </trkpt>
      <trkpt lat="48.34972" lon="7.10653">
        <ele>557.2</ele>
        <time>2023-08-19T10:08:52Z</time>
      </trkpt>
      <trkpt lat="48.3496" lon="7.10656">
        <ele>557.3</ele>
        <time>2023-08-19T10:08:54Z</time>
      </trkpt>
      <trkpt lat="48.34949" lon="7.10649">
        <ele>557.4</ele>
        <time>2023-08-19T10:08:56Z</time>
      </trkpt>
      <trkpt lat="48.34895" lon="7.10617">
        <ele>557.8</ele>
        <time>2023-08-19T10:09:08Z</time>
      </trkpt>
      <trkpt lat="48.34843" lon="7.10593">
        <ele>558.6</ele>
        <time>2023-08-19T10:09:23Z</time>
      </trkpt>
      <trkpt lat="48.34821" lon="7.10583">
        <ele>558.5</ele>
        <time>2023-08-19T10:09:28Z</time>
      </trkpt>
      <trkpt lat="48.34815" lon="7.10575">
        <ele>558.6</ele>
        <time>2023-08-19T10:09:30Z</time>
      </trkpt>
      <trkpt lat="48.34813" lon="7.10562">
        <ele>558.8</ele>
        <time>2023-08-19T10:09:32Z</time>
      </trkpt>
      <trkpt lat="48.34812" lon="7.10548">
        <ele>559</ele>
        <time>2023-08-19T10:09:34Z</time>
      </trkpt>
      <trkpt lat="48.34804" lon="7.10469">
        <ele>560.1</ele>
        <time>2023-08-19T10:09:49Z</time>
      </trkpt>
      <trkpt lat="48.34789" lon="7.10389">
        <ele>562.8</ele>
        <time>2023-08-19T10:10:07Z</time>
      </trkpt>
      <trkpt lat="48.34772" lon="7.10309">
        <ele>566.3</ele>
        <time>2023-08-19T10:10:25Z</time>
      </trkpt>
      <trkpt lat="48.34761" lon="7.10227">
        <ele>569.7</ele>
        <time>2023-08-19T10:10:43Z</time>
      </trkpt>
      <trkpt lat="48.34751" lon="7.10147">
        <ele>573</ele>
        <time>2023-08-19T10:11:00Z</time>
      </trkpt>
      <trkpt lat="48.34739" lon="7.10064">
        <ele>576.5</ele>
        <time>2023-08-19T10:11:17Z</time>
      </trkpt>
      <trkpt lat="48.34739" lon="7.09982">
        <ele>579.7</ele>
        <time>2023-08-19T10:11:34Z</time>
      </trkpt>
      <trkpt lat="48.34731" lon="7.09899">
        <ele>582.7</ele>
        <time>2023-08-19T10:11:51Z</time>
      </trkpt>
      <trkpt lat="48.34719" lon="7.09814">
        <ele>584.7</ele>
        <time>2023-08-19T10:12:07Z</time>
      </trkpt>
      <trkpt lat="48.34703" lon="7.09735">
        <ele>586.2</ele>
        <time>2023-08-19T10:12:21Z</time>
      </trkpt>
      <trkpt lat="48.34685" lon="7.09657">
        <ele>587.8</ele>
        <time>2023-08-19T10:12:35Z</time>
      </trkpt>
      <trkpt lat="48.34654" lon="7.09584">
        <ele>589.4</ele>
        <time>2023-08-19T10:12:49Z</time>
      </trkpt>
      <trkpt lat="48.34623" lon="7.09516">
        <ele>590.8</ele>
        <time>2023-08-19T10:13:02Z</time>
      </trkpt>
      <trkpt lat="48.3461" lon="7.09489">
        <ele>591.5</ele>
        <time>2023-08-19T10:13:07Z</time>
      </trkpt>
      <trkpt lat="48.34598" lon="7.0946">
        <ele>592</ele>
        <time>2023-08-19T10:13:12Z</time>
      </trkpt>
      <trkpt lat="48.34559" lon="7.094">
        <ele>593.3</ele>
        <time>2023-08-19T10:13:24Z</time>
      </trkpt>
      <trkpt lat="48.34516" lon="7.09347">
        <ele>594.8</ele>
        <time>2023-08-19T10:13:34Z</time>
      </trkpt>
      <trkpt lat="48.3447" lon="7.09294">
        <ele>596.1</ele>
        <time>2023-08-19T10:13:45Z</time>
      </trkpt>
      <trkpt lat="48.34441" lon="7.09262">
        <ele>596.9</ele>
        <time>2023-08-19T10:13:52Z</time>
      </trkpt>
      <trkpt lat="48.34409" lon="7.09196">
        <ele>598.4</ele>
        <time>2023-08-19T10:14:03Z</time>
      </trkpt>
      <trkpt lat="48.34391" lon="7.09141">
        <ele>599.5</ele>
        <time>2023-08-19T10:14:12Z</time>
      </trkpt>
      <trkpt lat="48.34383" lon="7.09057">
        <ele>600.7</ele>
        <time>2023-08-19T10:14:24Z</time>
      </trkpt>
      <trkpt lat="48.34359" lon="7.0898">
        <ele>601.8</ele>
        <time>2023-08-19T10:14:36Z</time>
      </trkpt>
      <trkpt lat="48.3433" lon="7.08909">
        <ele>603.1</ele>
        <time>2023-08-19T10:14:48Z</time>
      </trkpt>
      <trkpt lat="48.34304" lon="7.08838">
        <ele>604.5</ele>
        <time>2023-08-19T10:15:01Z</time>
      </trkpt>
      <trkpt lat="48.3427" lon="7.08771">
        <ele>606.1</ele>
        <time>2023-08-19T10:15:14Z</time>
      </trkpt>
      <trkpt lat="48.34264" lon="7.08761">
        <ele>606.3</ele>
        <time>2023-08-19T10:15:16Z</time>
      </trkpt>
      <trkpt lat="48.34239" lon="7.08712">
        <ele>607.2</ele>
        <time>2023-08-19T10:15:25Z</time>
      </trkpt>
      <trkpt lat="48.34206" lon="7.08643">
        <ele>608.6</ele>
        <time>2023-08-19T10:15:37Z</time>
      </trkpt>
      <trkpt lat="48.34187" lon="7.08561">
        <ele>610.1</ele>
        <time>2023-08-19T10:15:50Z</time>
      </trkpt>
      <trkpt lat="48.3418" lon="7.0848">
        <ele>611.3</ele>
        <time>2023-08-19T10:16:00Z</time>
      </trkpt>
      <trkpt lat="48.34178" lon="7.08446">
        <ele>612</ele>
        <time>2023-08-19T10:16:03Z</time>
      </trkpt>
      <trkpt lat="48.3418" lon="7.08423">
        <ele>612.4</ele>
        <time>2023-08-19T10:16:05Z</time>
      </trkpt>
      <trkpt lat="48.34184" lon="7.08403">
        <ele>612.8</ele>
        <time>2023-08-19T10:16:07Z</time>
      </trkpt>
      <trkpt lat="48.34222" lon="7.08332">
        <ele>614.4</ele>
        <time>2023-08-19T10:16:15Z</time>
      </trkpt>
      <trkpt lat="48.34262" lon="7.0827">
        <ele>615.8</ele>
        <time>2023-08-19T10:16:22Z</time>
      </trkpt>
      <trkpt lat="48.34301" lon="7.08202">
        <ele>617.5</ele>
        <time>2023-08-19T10:16:30Z</time>
      </trkpt>
      <trkpt lat="48.34339" lon="7.08133">
        <ele>619.1</ele>
        <time>2023-08-19T10:16:38Z</time>
      </trkpt>
      <trkpt lat="48.34368" lon="7.08058">
        <ele>620.5</ele>
        <time>2023-08-19T10:16:46Z</time>
      </trkpt>
      <trkpt lat="48.34395" lon="7.08014">
        <ele>621.5</ele>
        <time>2023-08-19T10:16:52Z</time>
      </trkpt>
      <trkpt lat="48.344" lon="7.07996">
        <ele>622</ele>
        <time>2023-08-19T10:16:54Z</time>
      </trkpt>
      <trkpt lat="48.34397" lon="7.07976">
        <ele>622.5</ele>
        <time>2023-08-19T10:16:56Z</time>
      </trkpt>
      <trkpt lat="48.3439" lon="7.07958">
        <ele>623</ele>
        <time>2023-08-19T10:16:58Z</time>
      </trkpt>
      <trkpt lat="48.34378" lon="7.07942">
        <ele>623.6</ele>
        <time>2023-08-19T10:17:00Z</time>
      </trkpt>
      <trkpt lat="48.34358" lon="7.07931">
        <ele>624.1</ele>
        <time>2023-08-19T10:17:03Z</time>
      </trkpt>
      <trkpt lat="48.34305" lon="7.07909">
        <ele>625.1</ele>
        <time>2023-08-19T10:17:11Z</time>
      </trkpt>
      <trkpt lat="48.34255" lon="7.07861">
        <ele>626.5</ele>
        <time>2023-08-19T10:17:20Z</time>
      </trkpt>
      <trkpt lat="48.34223" lon="7.07822">
        <ele>627</ele>
        <time>2023-08-19T10:17:26Z</time>
      </trkpt>
      <trkpt lat="48.34212" lon="7.07797">
        <ele>626.9</ele>
        <time>2023-08-19T10:17:29Z</time>
      </trkpt>
      <trkpt lat="48.34199" lon="7.07716">
        <ele>624.6</ele>
        <time>2023-08-19T10:17:36Z</time>
      </trkpt>
      <trkpt lat="48.34188" lon="7.07624">
        <ele>620.9</ele>
        <time>2023-08-19T10:17:43Z</time>
      </trkpt>
      <trkpt lat="48.34195" lon="7.07538">
        <ele>617.6</ele>
        <time>2023-08-19T10:17:49Z</time>
      </trkpt>
      <trkpt lat="48.34203" lon="7.07452">
        <ele>615.1</ele>
        <time>2023-08-19T10:17:55Z</time>
      </trkpt>
      <trkpt lat="48.34208" lon="7.07381">
        <ele>613</ele>
        <time>2023-08-19T10:18:00Z</time>
      </trkpt>
      <trkpt lat="48.34224" lon="7.07294">
        <ele>610.2</ele>
        <time>2023-08-19T10:18:06Z</time>
      </trkpt>
      <trkpt lat="48.34231" lon="7.07248">
        <ele>609.4</ele>
        <time>2023-08-19T10:18:09Z</time>
      </trkpt>
      <trkpt lat="48.34228" lon="7.07216">
        <ele>608.5</ele>
        <time>2023-08-19T10:18:11Z</time>
      </trkpt>
      <trkpt lat="48.3421" lon="7.07193">
        <ele>607.8</ele>
        <time>2023-08-19T10:18:13Z</time>
      </trkpt>
      <trkpt lat="48.3415" lon="7.07162">
        <ele>607.1</ele>
        <time>2023-08-19T10:18:19Z</time>
      </trkpt>
      <trkpt lat="48.34093" lon="7.07136">
        <ele>608.9</ele>
        <time>2023-08-19T10:18:26Z</time>
      </trkpt>
      <trkpt lat="48.34039" lon="7.07118">
        <ele>611.6</ele>
        <time>2023-08-19T10:18:34Z</time>
      </trkpt>
      <trkpt lat="48.33984" lon="7.07088">
        <ele>614.1</ele>
        <time>2023-08-19T10:18:43Z</time>
      </trkpt>
      <trkpt lat="48.33968" lon="7.07075">
        <ele>614.9</ele>
        <time>2023-08-19T10:18:46Z</time>
      </trkpt>
      <trkpt lat="48.33932" lon="7.07008">
        <ele>616.9</ele>
        <time>2023-08-19T10:18:56Z</time>
      </trkpt>
      <trkpt lat="48.33917" lon="7.06973">
        <ele>617.5</ele>
        <time>2023-08-19T10:19:01Z</time>
      </trkpt>
      <trkpt lat="48.33901" lon="7.06891">
        <ele>617.2</ele>
        <time>2023-08-19T10:19:11Z</time>
      </trkpt>
      <trkpt lat="48.339" lon="7.06881">
        <ele>617.3</ele>
        <time>2023-08-19T10:19:12Z</time>
      </trkpt>
      <trkpt lat="48.33899" lon="7.06862">
        <ele>617.4</ele>
        <time>2023-08-19T10:19:14Z</time>
      </trkpt>
      <trkpt lat="48.33904" lon="7.06837">
        <ele>617.6</ele>
        <time>2023-08-19T10:19:17Z</time>
      </trkpt>
      <trkpt lat="48.33912" lon="7.06824">
        <ele>617.6</ele>
        <time>2023-08-19T10:19:19Z</time>
      </trkpt>
      <trkpt lat="48.33921" lon="7.06816">
        <ele>617.7</ele>
        <time>2023-08-19T10:19:21Z</time>
      </trkpt>
      <trkpt lat="48.33969" lon="7.0677">
        <ele>619.6</ele>
        <time>2023-08-19T10:19:35Z</time>
      </trkpt>
      <trkpt lat="48.34015" lon="7.06721">
        <ele>623</ele>
        <time>2023-08-19T10:19:50Z</time>
      </trkpt>
      <trkpt lat="48.34063" lon="7.06673">
        <ele>626.5</ele>
        <time>2023-08-19T10:20:05Z</time>
      </trkpt>
      <trkpt lat="48.3411" lon="7.06622">
        <ele>630.4</ele>
        <time>2023-08-19T10:20:19Z</time>
      </trkpt>
      <trkpt lat="48.34124" lon="7.06607">
        <ele>631.6</ele>
        <time>2023-08-19T10:20:23Z</time>
      </trkpt>
      <trkpt lat="48.34129" lon="7.06597">
        <ele>632.1</ele>
        <time>2023-08-19T10:20:25Z</time>
      </trkpt>
      <trkpt lat="48.34131" lon="7.06584">
        <ele>632.6</ele>
        <time>2023-08-19T10:20:27Z</time>
      </trkpt>
      <trkpt lat="48.34129" lon="7.06568">
        <ele>633.1</ele>
        <time>2023-08-19T10:20:29Z</time>
      </trkpt>
      <trkpt lat="48.34107" lon="7.06511">
        <ele>635.4</ele>
        <time>2023-08-19T10:20:39Z</time>
      </trkpt>
      <trkpt lat="48.34099" lon="7.06496">
        <ele>636.2</ele>
        <time>2023-08-19T10:20:42Z</time>
      </trkpt>
      <trkpt lat="48.34066" lon="7.06427">
        <ele>639.7</ele>
        <time>2023-08-19T10:20:54Z</time>
      </trkpt>
      <trkpt lat="48.34055" lon="7.06344">
        <ele>643.6</ele>
        <time>2023-08-19T10:21:08Z</time>
      </trkpt>
      <trkpt lat="48.34035" lon="7.06271">
        <ele>646.9</ele>
        <time>2023-08-19T10:21:21Z</time>
      </trkpt>
      <trkpt lat="48.3398" lon="7.06285">
        <ele>649.3</ele>
        <time>2023-08-19T10:21:35Z</time>
      </trkpt>
      <trkpt lat="48.33971" lon="7.06282">
        <ele>649.7</ele>
        <time>2023-08-19T10:21:37Z</time>
      </trkpt>
      <trkpt lat="48.33962" lon="7.06277">
        <ele>650</ele>
        <time>2023-08-19T10:21:39Z</time>
      </trkpt>
      <trkpt lat="48.33934" lon="7.06212">
        <ele>652.6</ele>
        <time>2023-08-19T10:21:53Z</time>
      </trkpt>
      <trkpt lat="48.33934" lon="7.06194">
        <ele>653.2</ele>
        <time>2023-08-19T10:21:56Z</time>
      </trkpt>
      <trkpt lat="48.3395" lon="7.06115">
        <ele>656.2</ele>
        <time>2023-08-19T10:22:09Z</time>
      </trkpt>
      <trkpt lat="48.33963" lon="7.06033">
        <ele>659.9</ele>
        <time>2023-08-19T10:22:23Z</time>
      </trkpt>
      <trkpt lat="48.33968" lon="7.05971">
        <ele>662.3</ele>
        <time>2023-08-19T10:22:33Z</time>
      </trkpt>
      <trkpt lat="48.33982" lon="7.05888">
        <ele>665.5</ele>
        <time>2023-08-19T10:22:46Z</time>
      </trkpt>
      <trkpt lat="48.33993" lon="7.05806">
        <ele>668.8</ele>
        <time>2023-08-19T10:22:58Z</time>
      </trkpt>
      <trkpt lat="48.33996" lon="7.058">
        <ele>669.1</ele>
        <time>2023-08-19T10:22:59Z</time>
      </trkpt>
      <trkpt lat="48.34029" lon="7.05736">
        <ele>672.3</ele>
        <time>2023-08-19T10:23:11Z</time>
      </trkpt>
      <trkpt lat="48.34046" lon="7.05697">
        <ele>674.4</ele>
        <time>2023-08-19T10:23:18Z</time>
      </trkpt>
      <trkpt lat="48.34048" lon="7.05684">
        <ele>674.9</ele>
        <time>2023-08-19T10:23:20Z</time>
      </trkpt>
      <trkpt lat="48.34048" lon="7.05673">
        <ele>675.3</ele>
        <time>2023-08-19T10:23:22Z</time>
      </trkpt>
      <trkpt lat="48.34037" lon="7.05661">
        <ele>676</ele>
        <time>2023-08-19T10:23:25Z</time>
      </trkpt>
      <trkpt lat="48.34028" lon="7.0566">
        <ele>676.3</ele>
        <time>2023-08-19T10:23:27Z</time>
      </trkpt>
      <trkpt lat="48.3399" lon="7.05658">
        <ele>678</ele>
        <time>2023-08-19T10:23:35Z</time>
      </trkpt>
      <trkpt lat="48.33971" lon="7.05657">
        <ele>678.9</ele>
        <time>2023-08-19T10:23:39Z</time>
      </trkpt>
      <trkpt lat="48.33927" lon="7.05634">
        <ele>681.4</ele>
        <time>2023-08-19T10:23:49Z</time>
      </trkpt>
      <trkpt lat="48.33913" lon="7.05611">
        <ele>682.5</ele>
        <time>2023-08-19T10:23:54Z</time>
      </trkpt>
      <trkpt lat="48.33887" lon="7.05535">
        <ele>685.7</ele>
        <time>2023-08-19T10:24:07Z</time>
      </trkpt>
      <trkpt lat="48.33882" lon="7.05524">
        <ele>686.2</ele>
        <time>2023-08-19T10:24:09Z</time>
      </trkpt>
      <trkpt lat="48.33872" lon="7.05511">
        <ele>686.9</ele>
        <time>2023-08-19T10:24:12Z</time>
      </trkpt>
      <trkpt lat="48.33864" lon="7.05506">
        <ele>687.4</ele>
        <time>2023-08-19T10:24:14Z</time>
      </trkpt>
      <trkpt lat="48.33819" lon="7.05494">
        <ele>690</ele>
        <time>2023-08-19T10:24:24Z</time>
      </trkpt>
      <trkpt lat="48.33808" lon="7.05486">
        <ele>690.7</ele>
        <time>2023-08-19T10:24:27Z</time>
      </trkpt>
      <trkpt lat="48.33791" lon="7.0548">
        <ele>691.1</ele>
        <time>2023-08-19T10:24:31Z</time>
      </trkpt>
      <trkpt lat="48.33742" lon="7.05438">
        <ele>690.9</ele>
        <time>2023-08-19T10:24:42Z</time>
      </trkpt>
      <trkpt lat="48.33736" lon="7.05437">
        <ele>690.7</ele>
        <time>2023-08-19T10:24:43Z</time>
      </trkpt>
      <trkpt lat="48.33724" lon="7.05438">
        <ele>690.4</ele>
        <time>2023-08-19T10:24:45Z</time>
      </trkpt>
      <trkpt lat="48.33667" lon="7.05456">
        <ele>689.1</ele>
        <time>2023-08-19T10:24:55Z</time>
      </trkpt>
      <trkpt lat="48.3365" lon="7.05475">
        <ele>688.4</ele>
        <time>2023-08-19T10:24:59Z</time>
      </trkpt>
      <trkpt lat="48.33643" lon="7.05504">
        <ele>687.4</ele>
        <time>2023-08-19T10:25:01Z</time>
      </trkpt>
      <trkpt lat="48.33642" lon="7.05529">
        <ele>686.6</ele>
        <time>2023-08-19T10:25:03Z</time>
      </trkpt>
      <trkpt lat="48.33638" lon="7.05612">
        <ele>684.8</ele>
        <time>2023-08-19T10:25:10Z</time>
      </trkpt>
      <trkpt lat="48.33622" lon="7.05697">
        <ele>683.3</ele>
        <time>2023-08-19T10:25:18Z</time>
      </trkpt>
      <trkpt lat="48.33599" lon="7.05779">
        <ele>679.8</ele>
        <time>2023-08-19T10:25:26Z</time>
      </trkpt>
      <trkpt lat="48.33571" lon="7.05854">
        <ele>675.9</ele>
        <time>2023-08-19T10:25:32Z</time>
      </trkpt>
      <trkpt lat="48.33548" lon="7.05931">
        <ele>673.4</ele>
        <time>2023-08-19T10:25:38Z</time>
      </trkpt>
      <trkpt lat="48.33529" lon="7.05981">
        <ele>671.7</ele>
        <time>2023-08-19T10:25:42Z</time>
      </trkpt>
      <trkpt lat="48.33493" lon="7.06044">
        <ele>669.7</ele>
        <time>2023-08-19T10:25:48Z</time>
      </trkpt>
      <trkpt lat="48.33476" lon="7.06059">
        <ele>668.6</ele>
        <time>2023-08-19T10:25:50Z</time>
      </trkpt>
      <trkpt lat="48.33424" lon="7.06104">
        <ele>664.1</ele>
        <time>2023-08-19T10:25:56Z</time>
      </trkpt>
      <trkpt lat="48.33396" lon="7.06126">
        <ele>661.8</ele>
        <time>2023-08-19T10:25:59Z</time>
      </trkpt>
      <trkpt lat="48.33335" lon="7.06157">
        <ele>661.5</ele>
        <time>2023-08-19T10:26:05Z</time>
      </trkpt>
      <trkpt lat="48.33275" lon="7.06181">
        <ele>661</ele>
        <time>2023-08-19T10:26:11Z</time>
      </trkpt>
      <trkpt lat="48.33214" lon="7.06205">
        <ele>659.6</ele>
        <time>2023-08-19T10:26:18Z</time>
      </trkpt>
      <trkpt lat="48.3318" lon="7.06221">
        <ele>657.9</ele>
        <time>2023-08-19T10:26:22Z</time>
      </trkpt>
      <trkpt lat="48.33163" lon="7.06225">
        <ele>657</ele>
        <time>2023-08-19T10:26:24Z</time>
      </trkpt>
      <trkpt lat="48.33123" lon="7.06205">
        <ele>654.4</ele>
        <time>2023-08-19T10:26:29Z</time>
      </trkpt>
      <trkpt lat="48.3307" lon="7.06171">
        <ele>648.3</ele>
        <time>2023-08-19T10:26:34Z</time>
      </trkpt>
      <trkpt lat="48.33022" lon="7.06134">
        <ele>642.1</ele>
        <time>2023-08-19T10:26:38Z</time>
      </trkpt>
      <trkpt lat="48.32965" lon="7.0609">
        <ele>635.1</ele>
        <time>2023-08-19T10:26:42Z</time>
      </trkpt>
      <trkpt lat="48.32914" lon="7.06054">
        <ele>629.4</ele>
        <time>2023-08-19T10:26:45Z</time>
      </trkpt>
      <trkpt lat="48.32866" lon="7.06028">
        <ele>625.2</ele>
        <time>2023-08-19T10:26:48Z</time>
      </trkpt>
      <trkpt lat="48.32808" lon="7.06003">
        <ele>621.6</ele>
        <time>2023-08-19T10:26:51Z</time>
      </trkpt>
      <trkpt lat="48.3274" lon="7.05973">
        <ele>616.2</ele>
        <time>2023-08-19T10:26:55Z</time>
      </trkpt>
      <trkpt lat="48.32683" lon="7.05956">
        <ele>612.2</ele>
        <time>2023-08-19T10:26:59Z</time>
      </trkpt>
      <trkpt lat="48.32672" lon="7.05956">
        <ele>611.3</ele>
        <time>2023-08-19T10:27:00Z</time>
      </trkpt>
      <trkpt lat="48.32667" lon="7.05975">
        <ele>610.2</ele>
        <time>2023-08-19T10:27:03Z</time>
      </trkpt>
      <trkpt lat="48.32697" lon="7.06032">
        <ele>604.7</ele>
        <time>2023-08-19T10:27:07Z</time>
      </trkpt>
      <trkpt lat="48.32739" lon="7.06098">
        <ele>597.6</ele>
        <time>2023-08-19T10:27:13Z</time>
      </trkpt>
      <trkpt lat="48.32751" lon="7.06127">
        <ele>594.9</ele>
        <time>2023-08-19T10:27:16Z</time>
      </trkpt>
      <trkpt lat="48.32737" lon="7.06137">
        <ele>592.8</ele>
        <time>2023-08-19T10:27:18Z</time>
      </trkpt>
      <trkpt lat="48.32728" lon="7.06141">
        <ele>591.3</ele>
        <time>2023-08-19T10:27:20Z</time>
      </trkpt>
      <trkpt lat="48.32713" lon="7.06139">
        <ele>590.2</ele>
        <time>2023-08-19T10:27:22Z</time>
      </trkpt>
      <trkpt lat="48.32653" lon="7.06123">
        <ele>581.5</ele>
        <time>2023-08-19T10:27:26Z</time>
      </trkpt>
      <trkpt lat="48.32593" lon="7.06086">
        <ele>572.9</ele>
        <time>2023-08-19T10:27:31Z</time>
      </trkpt>
      <trkpt lat="48.3258" lon="7.06081">
        <ele>570.9</ele>
        <time>2023-08-19T10:27:32Z</time>
      </trkpt>
      <trkpt lat="48.32513" lon="7.06079">
        <ele>561.1</ele>
        <time>2023-08-19T10:27:37Z</time>
      </trkpt>
      <trkpt lat="48.32454" lon="7.0609">
        <ele>553.7</ele>
        <time>2023-08-19T10:27:41Z</time>
      </trkpt>
      <trkpt lat="48.32438" lon="7.06084">
        <ele>551.6</ele>
        <time>2023-08-19T10:27:42Z</time>
      </trkpt>
      <trkpt lat="48.32394" lon="7.06064">
        <ele>546.4</ele>
        <time>2023-08-19T10:27:45Z</time>
      </trkpt>
      <trkpt lat="48.3237" lon="7.06042">
        <ele>544.1</ele>
        <time>2023-08-19T10:27:47Z</time>
      </trkpt>
      <trkpt lat="48.32346" lon="7.06037">
        <ele>542.4</ele>
        <time>2023-08-19T10:27:49Z</time>
      </trkpt>
      <trkpt lat="48.32322" lon="7.06001">
        <ele>539.7</ele>
        <time>2023-08-19T10:27:52Z</time>
      </trkpt>
      <trkpt lat="48.32289" lon="7.05913">
        <ele>532.2</ele>
        <time>2023-08-19T10:27:57Z</time>
      </trkpt>
      <trkpt lat="48.32285" lon="7.05893">
        <ele>530.6</ele>
        <time>2023-08-19T10:27:58Z</time>
      </trkpt>
      <trkpt lat="48.32281" lon="7.05849">
        <ele>527.2</ele>
        <time>2023-08-19T10:28:00Z</time>
      </trkpt>
      <trkpt lat="48.32281" lon="7.05762">
        <ele>521.3</ele>
        <time>2023-08-19T10:28:04Z</time>
      </trkpt>
      <trkpt lat="48.32276" lon="7.05702">
        <ele>517.7</ele>
        <time>2023-08-19T10:28:07Z</time>
      </trkpt>
      <trkpt lat="48.32263" lon="7.05651">
        <ele>513.7</ele>
        <time>2023-08-19T10:28:10Z</time>
      </trkpt>
      <trkpt lat="48.3225" lon="7.05628">
        <ele>511.4</ele>
        <time>2023-08-19T10:28:12Z</time>
      </trkpt>
      <trkpt lat="48.32229" lon="7.05605">
        <ele>508.1</ele>
        <time>2023-08-19T10:28:15Z</time>
      </trkpt>
      <trkpt lat="48.32216" lon="7.05596">
        <ele>505.9</ele>
        <time>2023-08-19T10:28:17Z</time>
      </trkpt>
      <trkpt lat="48.32196" lon="7.05584">
        <ele>502.2</ele>
        <time>2023-08-19T10:28:20Z</time>
      </trkpt>
      <trkpt lat="48.32183" lon="7.05574">
        <ele>499.5</ele>
        <time>2023-08-19T10:28:23Z</time>
      </trkpt>
      <trkpt lat="48.32175" lon="7.05573">
        <ele>498</ele>
        <time>2023-08-19T10:28:25Z</time>
      </trkpt>
      <trkpt lat="48.32166" lon="7.05572">
        <ele>496.8</ele>
        <time>2023-08-19T10:28:27Z</time>
      </trkpt>
      <trkpt lat="48.32161" lon="7.05565">
        <ele>495.8</ele>
        <time>2023-08-19T10:28:29Z</time>
      </trkpt>
      <trkpt lat="48.32153" lon="7.0554">
        <ele>494.4</ele>
        <time>2023-08-19T10:28:33Z</time>
      </trkpt>
      <trkpt lat="48.32152" lon="7.05523">
        <ele>493.7</ele>
        <time>2023-08-19T10:28:35Z</time>
      </trkpt>
      <trkpt lat="48.32159" lon="7.05435">
        <ele>490.3</ele>
        <time>2023-08-19T10:28:44Z</time>
      </trkpt>
      <trkpt lat="48.32155" lon="7.05401">
        <ele>489.2</ele>
        <time>2023-08-19T10:28:47Z</time>
      </trkpt>
      <trkpt lat="48.32146" lon="7.05356">
        <ele>487.7</ele>
        <time>2023-08-19T10:28:51Z</time>
      </trkpt>
      <trkpt lat="48.32139" lon="7.05334">
        <ele>487.1</ele>
        <time>2023-08-19T10:28:53Z</time>
      </trkpt>
      <trkpt lat="48.32129" lon="7.05315">
        <ele>486.6</ele>
        <time>2023-08-19T10:28:55Z</time>
      </trkpt>
      <trkpt lat="48.32116" lon="7.05299">
        <ele>486.1</ele>
        <time>2023-08-19T10:28:57Z</time>
      </trkpt>
      <trkpt lat="48.32101" lon="7.05293">
        <ele>485.6</ele>
        <time>2023-08-19T10:28:59Z</time>
      </trkpt>
      <trkpt lat="48.32084" lon="7.05305">
        <ele>484.5</ele>
        <time>2023-08-19T10:29:01Z</time>
      </trkpt>
      <trkpt lat="48.32071" lon="7.05336">
        <ele>483.1</ele>
        <time>2023-08-19T10:29:04Z</time>
      </trkpt>
      <trkpt lat="48.3207" lon="7.05365">
        <ele>482</ele>
        <time>2023-08-19T10:29:06Z</time>
      </trkpt>
      <trkpt lat="48.32063" lon="7.05456">
        <ele>479.1</ele>
        <time>2023-08-19T10:29:12Z</time>
      </trkpt>
      <trkpt lat="48.32068" lon="7.05547">
        <ele>477.4</ele>
        <time>2023-08-19T10:29:18Z</time>
      </trkpt>
      <trkpt lat="48.32078" lon="7.0563">
        <ele>476.3</ele>
        <time>2023-08-19T10:29:24Z</time>
      </trkpt>
      <trkpt lat="48.32081" lon="7.05657">
        <ele>475.9</ele>
        <time>2023-08-19T10:29:26Z</time>
      </trkpt>
      <trkpt lat="48.32079" lon="7.05684">
        <ele>475.8</ele>
        <time>2023-08-19T10:29:28Z</time>
      </trkpt>
      <trkpt lat="48.32067" lon="7.05742">
        <ele>476.2</ele>
        <time>2023-08-19T10:29:33Z</time>
      </trkpt>
      <trkpt lat="48.32069" lon="7.0576">
        <ele>476.6</ele>
        <time>2023-08-19T10:29:35Z</time>
      </trkpt>
      <trkpt lat="48.32071" lon="7.05787">
        <ele>476.8</ele>
        <time>2023-08-19T10:29:40Z</time>
      </trkpt>
      <trkpt lat="48.32076" lon="7.05776">
        <ele>476.6</ele>
        <time>2023-08-19T10:31:43Z</time>
      </trkpt>
      <trkpt lat="48.32077" lon="7.05741">
        <ele>476.2</ele>
        <time>2023-08-19T10:31:49Z</time>
      </trkpt>
      <trkpt lat="48.32082" lon="7.05726">
        <ele>476</ele>
        <time>2023-08-19T10:31:51Z</time>
      </trkpt>
      <trkpt lat="48.32088" lon="7.05646">
        <ele>476</ele>
        <time>2023-08-19T10:32:02Z</time>
      </trkpt>
      <trkpt lat="48.32074" lon="7.05566">
        <ele>477.1</ele>
        <time>2023-08-19T10:32:14Z</time>
      </trkpt>
      <trkpt lat="48.32063" lon="7.05481">
        <ele>478.5</ele>
        <time>2023-08-19T10:32:26Z</time>
      </trkpt>
      <trkpt lat="48.32065" lon="7.05434">
        <ele>479.7</ele>
        <time>2023-08-19T10:32:33Z</time>
      </trkpt>
      <trkpt lat="48.32072" lon="7.0535">
        <ele>482.6</ele>
        <time>2023-08-19T10:32:47Z</time>
      </trkpt>
      <trkpt lat="48.32075" lon="7.05307">
        <ele>484.1</ele>
        <time>2023-08-19T10:32:54Z</time>
      </trkpt>
      <trkpt lat="48.32083" lon="7.05293">
        <ele>484.7</ele>
        <time>2023-08-19T10:32:57Z</time>
      </trkpt>
      <trkpt lat="48.32107" lon="7.05301">
        <ele>485.9</ele>
        <time>2023-08-19T10:33:03Z</time>
      </trkpt>
      <trkpt lat="48.3213" lon="7.05338">
        <ele>487</ele>
        <time>2023-08-19T10:33:11Z</time>
      </trkpt>
      <trkpt lat="48.32139" lon="7.05342">
        <ele>487.3</ele>
        <time>2023-08-19T10:33:13Z</time>
      </trkpt>
      <trkpt lat="48.32195" lon="7.05354">
        <ele>491.3</ele>
        <time>2023-08-19T10:33:28Z</time>
      </trkpt>
      <trkpt lat="48.32236" lon="7.05314">
        <ele>500.5</ele>
        <time>2023-08-19T10:33:53Z</time>
      </trkpt>
      <trkpt lat="48.3224" lon="7.05295">
        <ele>503.3</ele>
        <time>2023-08-19T10:34:03Z</time>
      </trkpt>
      <trkpt lat="48.32264" lon="7.05211">
        <ele>515.1</ele>
        <time>2023-08-19T10:35:41Z</time>
      </trkpt>
      <trkpt lat="48.32262" lon="7.05211">
        <ele>515.2</ele>
        <time>2023-08-19T10:35:42Z</time>
      </trkpt>
      <trkpt lat="48.32227" lon="7.05267">
        <ele>518.5</ele>
        <time>2023-08-19T10:36:05Z</time>
      </trkpt>
      <trkpt lat="48.32194" lon="7.0524">
        <ele>520.6</ele>
        <time>2023-08-19T10:36:25Z</time>
      </trkpt>
      <trkpt lat="48.322" lon="7.05156">
        <ele>523</ele>
        <time>2023-08-19T10:36:43Z</time>
      </trkpt>
      <trkpt lat="48.32199" lon="7.05141">
        <ele>523.4</ele>
        <time>2023-08-19T10:36:47Z</time>
      </trkpt>
      <trkpt lat="48.32197" lon="7.05137">
        <ele>523.5</ele>
        <time>2023-08-19T10:36:49Z</time>
      </trkpt>
      <trkpt lat="48.32207" lon="7.05056">
        <ele>526.2</ele>
        <time>2023-08-19T10:37:13Z</time>
      </trkpt>
      <trkpt lat="48.32218" lon="7.04973">
        <ele>528.9</ele>
        <time>2023-08-19T10:37:28Z</time>
      </trkpt>
      <trkpt lat="48.32217" lon="7.04889">
        <ele>532.1</ele>
        <time>2023-08-19T10:37:44Z</time>
      </trkpt>
      <trkpt lat="48.32223" lon="7.04807">
        <ele>535</ele>
        <time>2023-08-19T10:37:59Z</time>
      </trkpt>
      <trkpt lat="48.32242" lon="7.04728">
        <ele>538</ele>
        <time>2023-08-19T10:38:14Z</time>
      </trkpt>
      <trkpt lat="48.32253" lon="7.04645">
        <ele>541.3</ele>
        <time>2023-08-19T10:38:28Z</time>
      </trkpt>
      <trkpt lat="48.32254" lon="7.04559">
        <ele>544.9</ele>
        <time>2023-08-19T10:38:42Z</time>
      </trkpt>
      <trkpt lat="48.32262" lon="7.04475">
        <ele>548</ele>
        <time>2023-08-19T10:38:55Z</time>
      </trkpt>
      <trkpt lat="48.32264" lon="7.04393">
        <ele>551.3</ele>
        <time>2023-08-19T10:39:08Z</time>
      </trkpt>
      <trkpt lat="48.3227" lon="7.04308">
        <ele>554.6</ele>
        <time>2023-08-19T10:39:22Z</time>
      </trkpt>
      <trkpt lat="48.32271" lon="7.04288">
        <ele>555.3</ele>
        <time>2023-08-19T10:39:25Z</time>
      </trkpt>
      <trkpt lat="48.32281" lon="7.04205">
        <ele>558.4</ele>
        <time>2023-08-19T10:39:38Z</time>
      </trkpt>
      <trkpt lat="48.32328" lon="7.04167">
        <ele>561.7</ele>
        <time>2023-08-19T10:39:52Z</time>
      </trkpt>
      <trkpt lat="48.32373" lon="7.04119">
        <ele>564.7</ele>
        <time>2023-08-19T10:40:06Z</time>
      </trkpt>
      <trkpt lat="48.32375" lon="7.04058">
        <ele>567.4</ele>
        <time>2023-08-19T10:40:24Z</time>
      </trkpt>
      <trkpt lat="48.32319" lon="7.04063">
        <ele>570.9</ele>
        <time>2023-08-19T10:40:38Z</time>
      </trkpt>
      <trkpt lat="48.32266" lon="7.04049">
        <ele>574.3</ele>
        <time>2023-08-19T10:40:54Z</time>
      </trkpt>
      <trkpt lat="48.32217" lon="7.04086">
        <ele>577.5</ele>
        <time>2023-08-19T10:41:10Z</time>
      </trkpt>
      <trkpt lat="48.32163" lon="7.04074">
        <ele>580.9</ele>
        <time>2023-08-19T10:41:26Z</time>
      </trkpt>
      <trkpt lat="48.32108" lon="7.04072">
        <ele>584.1</ele>
        <time>2023-08-19T10:41:42Z</time>
      </trkpt>
      <trkpt lat="48.3206" lon="7.0411">
        <ele>587</ele>
        <time>2023-08-19T10:41:56Z</time>
      </trkpt>
      <trkpt lat="48.32021" lon="7.04173">
        <ele>590.4</ele>
        <time>2023-08-19T10:42:10Z</time>
      </trkpt>
      <trkpt lat="48.31976" lon="7.04144">
        <ele>593.5</ele>
        <time>2023-08-19T10:42:25Z</time>
      </trkpt>
      <trkpt lat="48.31963" lon="7.04078">
        <ele>596.4</ele>
        <time>2023-08-19T10:42:36Z</time>
      </trkpt>
      <trkpt lat="48.31971" lon="7.03993">
        <ele>599.9</ele>
        <time>2023-08-19T10:42:51Z</time>
      </trkpt>
      <trkpt lat="48.31981" lon="7.03911">
        <ele>603.1</ele>
        <time>2023-08-19T10:43:04Z</time>
      </trkpt>
      <trkpt lat="48.31989" lon="7.03828">
        <ele>606.4</ele>
        <time>2023-08-19T10:43:17Z</time>
      </trkpt>
      <trkpt lat="48.31988" lon="7.03788">
        <ele>607.9</ele>
        <time>2023-08-19T10:43:25Z</time>
      </trkpt>
      <trkpt lat="48.31934" lon="7.03792">
        <ele>608.6</ele>
        <time>2023-08-19T10:43:41Z</time>
      </trkpt>
      <trkpt lat="48.31889" lon="7.03821">
        <ele>610.9</ele>
        <time>2023-08-19T10:43:53Z</time>
      </trkpt>
      <trkpt lat="48.31845" lon="7.03867">
        <ele>609.9</ele>
        <time>2023-08-19T10:44:04Z</time>
      </trkpt>
      <trkpt lat="48.31823" lon="7.0389">
        <ele>608.4</ele>
        <time>2023-08-19T10:44:08Z</time>
      </trkpt>
      <trkpt lat="48.31775" lon="7.03941">
        <ele>605.4</ele>
        <time>2023-08-19T10:44:17Z</time>
      </trkpt>
      <trkpt lat="48.31756" lon="7.03964">
        <ele>604.8</ele>
        <time>2023-08-19T10:44:21Z</time>
      </trkpt>
      <trkpt lat="48.317" lon="7.03998">
        <ele>603</ele>
        <time>2023-08-19T10:44:29Z</time>
      </trkpt>
      <trkpt lat="48.31662" lon="7.04015">
        <ele>595.8</ele>
        <time>2023-08-19T10:44:32Z</time>
      </trkpt>
      <trkpt lat="48.31653" lon="7.04043">
        <ele>595.1</ele>
        <time>2023-08-19T10:44:34Z</time>
      </trkpt>
      <trkpt lat="48.31647" lon="7.04077">
        <ele>593.7</ele>
        <time>2023-08-19T10:44:36Z</time>
      </trkpt>
      <trkpt lat="48.31645" lon="7.04124">
        <ele>591.9</ele>
        <time>2023-08-19T10:44:39Z</time>
      </trkpt>
      <trkpt lat="48.31648" lon="7.04209">
        <ele>589.3</ele>
        <time>2023-08-19T10:44:44Z</time>
      </trkpt>
      <trkpt lat="48.31636" lon="7.04291">
        <ele>586.8</ele>
        <time>2023-08-19T10:44:49Z</time>
      </trkpt>
      <trkpt lat="48.31619" lon="7.04331">
        <ele>585.4</ele>
        <time>2023-08-19T10:44:52Z</time>
      </trkpt>
      <trkpt lat="48.31583" lon="7.04329">
        <ele>583.8</ele>
        <time>2023-08-19T10:44:54Z</time>
      </trkpt>
      <trkpt lat="48.31564" lon="7.0433">
        <ele>583.3</ele>
        <time>2023-08-19T10:44:56Z</time>
      </trkpt>
      <trkpt lat="48.31502" lon="7.04323">
        <ele>583.2</ele>
        <time>2023-08-19T10:45:01Z</time>
      </trkpt>
      <trkpt lat="48.31464" lon="7.0432">
        <ele>584.7</ele>
        <time>2023-08-19T10:45:05Z</time>
      </trkpt>
      <trkpt lat="48.31449" lon="7.04311">
        <ele>585.5</ele>
        <time>2023-08-19T10:45:07Z</time>
      </trkpt>
      <trkpt lat="48.31437" lon="7.04296">
        <ele>586.1</ele>
        <time>2023-08-19T10:45:09Z</time>
      </trkpt>
      <trkpt lat="48.31428" lon="7.04275">
        <ele>586.7</ele>
        <time>2023-08-19T10:45:11Z</time>
      </trkpt>
      <trkpt lat="48.31416" lon="7.04249">
        <ele>587.5</ele>
        <time>2023-08-19T10:45:14Z</time>
      </trkpt>
      <trkpt lat="48.31407" lon="7.04236">
        <ele>587.9</ele>
        <time>2023-08-19T10:45:16Z</time>
      </trkpt>
      <trkpt lat="48.31395" lon="7.04228">
        <ele>588.4</ele>
        <time>2023-08-19T10:45:18Z</time>
      </trkpt>
      <trkpt lat="48.31377" lon="7.04224">
        <ele>589.2</ele>
        <time>2023-08-19T10:45:21Z</time>
      </trkpt>
      <trkpt lat="48.31367" lon="7.04227">
        <ele>589.3</ele>
        <time>2023-08-19T10:45:23Z</time>
      </trkpt>
      <trkpt lat="48.31334" lon="7.0425">
        <ele>588.5</ele>
        <time>2023-08-19T10:45:29Z</time>
      </trkpt>
      <trkpt lat="48.31314" lon="7.04275">
        <ele>587.4</ele>
        <time>2023-08-19T10:45:33Z</time>
      </trkpt>
      <trkpt lat="48.31308" lon="7.04296">
        <ele>587</ele>
        <time>2023-08-19T10:45:35Z</time>
      </trkpt>
      <trkpt lat="48.31297" lon="7.04354">
        <ele>586.8</ele>
        <time>2023-08-19T10:45:41Z</time>
      </trkpt>
      <trkpt lat="48.31289" lon="7.04443">
        <ele>586.3</ele>
        <time>2023-08-19T10:45:51Z</time>
      </trkpt>
      <trkpt lat="48.31286" lon="7.0446">
        <ele>586.1</ele>
        <time>2023-08-19T10:45:53Z</time>
      </trkpt>
      <trkpt lat="48.3128" lon="7.04474">
        <ele>586</ele>
        <time>2023-08-19T10:45:55Z</time>
      </trkpt>
      <trkpt lat="48.31266" lon="7.04477">
        <ele>585.7</ele>
        <time>2023-08-19T10:45:57Z</time>
      </trkpt>
      <trkpt lat="48.31253" lon="7.04471">
        <ele>585.4</ele>
        <time>2023-08-19T10:45:59Z</time>
      </trkpt>
      <trkpt lat="48.31241" lon="7.04459">
        <ele>585.3</ele>
        <time>2023-08-19T10:46:01Z</time>
      </trkpt>
      <trkpt lat="48.31192" lon="7.04406">
        <ele>584.3</ele>
        <time>2023-08-19T10:46:09Z</time>
      </trkpt>
      <trkpt lat="48.31184" lon="7.04401">
        <ele>584.2</ele>
        <time>2023-08-19T10:46:10Z</time>
      </trkpt>
      <trkpt lat="48.31171" lon="7.04395">
        <ele>584.3</ele>
        <time>2023-08-19T10:46:12Z</time>
      </trkpt>
      <trkpt lat="48.31159" lon="7.04394">
        <ele>584.7</ele>
        <time>2023-08-19T10:46:14Z</time>
      </trkpt>
      <trkpt lat="48.31136" lon="7.04396">
        <ele>585.5</ele>
        <time>2023-08-19T10:46:18Z</time>
      </trkpt>
      <trkpt lat="48.31083" lon="7.04366">
        <ele>585</ele>
        <time>2023-08-19T10:46:27Z</time>
      </trkpt>
      <trkpt lat="48.31034" lon="7.04327">
        <ele>585.8</ele>
        <time>2023-08-19T10:46:34Z</time>
      </trkpt>
      <trkpt lat="48.31019" lon="7.04314">
        <ele>586.6</ele>
        <time>2023-08-19T10:46:37Z</time>
      </trkpt>
      <trkpt lat="48.30976" lon="7.04259">
        <ele>589.7</ele>
        <time>2023-08-19T10:46:49Z</time>
      </trkpt>
      <trkpt lat="48.30963" lon="7.04259">
        <ele>591.2</ele>
        <time>2023-08-19T10:46:52Z</time>
      </trkpt>
      <trkpt lat="48.30953" lon="7.04265">
        <ele>586.2</ele>
        <time>2023-08-19T10:46:54Z</time>
      </trkpt>
      <trkpt lat="48.30918" lon="7.04331">
        <ele>580.5</ele>
        <time>2023-08-19T10:47:10Z</time>
      </trkpt>
      <trkpt lat="48.3089" lon="7.04402">
        <ele>585.6</ele>
        <time>2023-08-19T10:47:36Z</time>
      </trkpt>
      <trkpt lat="48.30877" lon="7.04428">
        <ele>588.7</ele>
        <time>2023-08-19T10:48:00Z</time>
      </trkpt>
      <trkpt lat="48.30884" lon="7.04421">
        <ele>587.7</ele>
        <time>2023-08-19T10:48:37Z</time>
      </trkpt>
      <trkpt lat="48.30912" lon="7.04339">
        <ele>581</ele>
        <time>2023-08-19T10:48:46Z</time>
      </trkpt>
      <trkpt lat="48.30926" lon="7.04282">
        <ele>581.3</ele>
        <time>2023-08-19T10:48:51Z</time>
      </trkpt>
      <trkpt lat="48.30957" lon="7.04232">
        <ele>591.2</ele>
        <time>2023-08-19T10:48:57Z</time>
      </trkpt>
      <trkpt lat="48.30969" lon="7.04238">
        <ele>590.7</ele>
        <time>2023-08-19T10:48:59Z</time>
      </trkpt>
      <trkpt lat="48.30981" lon="7.04252">
        <ele>589.7</ele>
        <time>2023-08-19T10:49:02Z</time>
      </trkpt>
      <trkpt lat="48.31009" lon="7.04292">
        <ele>587.4</ele>
        <time>2023-08-19T10:49:11Z</time>
      </trkpt>
      <trkpt lat="48.31056" lon="7.04343">
        <ele>584.9</ele>
        <time>2023-08-19T10:49:21Z</time>
      </trkpt>
      <trkpt lat="48.31106" lon="7.04385">
        <ele>585.9</ele>
        <time>2023-08-19T10:49:33Z</time>
      </trkpt>
      <trkpt lat="48.31163" lon="7.04386">
        <ele>584.5</ele>
        <time>2023-08-19T10:49:46Z</time>
      </trkpt>
      <trkpt lat="48.31168" lon="7.04387">
        <ele>584.4</ele>
        <time>2023-08-19T10:49:47Z</time>
      </trkpt>
      <trkpt lat="48.31185" lon="7.04399">
        <ele>584.2</ele>
        <time>2023-08-19T10:49:52Z</time>
      </trkpt>
      <trkpt lat="48.31226" lon="7.04456">
        <ele>585.1</ele>
        <time>2023-08-19T10:50:07Z</time>
      </trkpt>
      <trkpt lat="48.31266" lon="7.04421">
        <ele>586.6</ele>
        <time>2023-08-19T10:50:24Z</time>
      </trkpt>
      <trkpt lat="48.31273" lon="7.04337">
        <ele>586.8</ele>
        <time>2023-08-19T10:50:39Z</time>
      </trkpt>
      <trkpt lat="48.31293" lon="7.0426">
        <ele>587.2</ele>
        <time>2023-08-19T10:50:50Z</time>
      </trkpt>
      <trkpt lat="48.31327" lon="7.04197">
        <ele>590.9</ele>
        <time>2023-08-19T10:51:06Z</time>
      </trkpt>
      <trkpt lat="48.31325" lon="7.04195">
        <ele>591</ele>
        <time>2023-08-19T10:51:09Z</time>
      </trkpt>
      <trkpt lat="48.31274" lon="7.04225">
        <ele>594.9</ele>
        <time>2023-08-19T10:51:27Z</time>
      </trkpt>
      <trkpt lat="48.31232" lon="7.04279">
        <ele>599.7</ele>
        <time>2023-08-19T10:51:43Z</time>
      </trkpt>
      <trkpt lat="48.31194" lon="7.04314">
        <ele>603.9</ele>
        <time>2023-08-19T10:52:02Z</time>
      </trkpt>
      <trkpt lat="48.31141" lon="7.04286">
        <ele>610.2</ele>
        <time>2023-08-19T10:52:24Z</time>
      </trkpt>
      <trkpt lat="48.31095" lon="7.04238">
        <ele>615.6</ele>
        <time>2023-08-19T10:52:46Z</time>
      </trkpt>
      <trkpt lat="48.31077" lon="7.04162">
        <ele>621.2</ele>
        <time>2023-08-19T10:53:11Z</time>
      </trkpt>
      <trkpt lat="48.31078" lon="7.0408">
        <ele>625.8</ele>
        <time>2023-08-19T10:53:36Z</time>
      </trkpt>
      <trkpt lat="48.31069" lon="7.04001">
        <ele>630.9</ele>
        <time>2023-08-19T10:54:01Z</time>
      </trkpt>
      <trkpt lat="48.31038" lon="7.03932">
        <ele>636.7</ele>
        <time>2023-08-19T10:54:23Z</time>
      </trkpt>
      <trkpt lat="48.31002" lon="7.03868">
        <ele>642.5</ele>
        <time>2023-08-19T10:54:45Z</time>
      </trkpt>
      <trkpt lat="48.30972" lon="7.03798">
        <ele>648.4</ele>
        <time>2023-08-19T10:55:05Z</time>
      </trkpt>
      <trkpt lat="48.30944" lon="7.03728">
        <ele>654.3</ele>
        <time>2023-08-19T10:55:25Z</time>
      </trkpt>
      <trkpt lat="48.30915" lon="7.03659">
        <ele>660</ele>
        <time>2023-08-19T10:55:43Z</time>
      </trkpt>
      <trkpt lat="48.30912" lon="7.03579">
        <ele>665.5</ele>
        <time>2023-08-19T10:56:02Z</time>
      </trkpt>
      <trkpt lat="48.30916" lon="7.03496">
        <ele>671.1</ele>
        <time>2023-08-19T10:56:22Z</time>
      </trkpt>
      <trkpt lat="48.30902" lon="7.03417">
        <ele>677</ele>
        <time>2023-08-19T10:56:41Z</time>
      </trkpt>
      <trkpt lat="48.30881" lon="7.03341">
        <ele>682.6</ele>
        <time>2023-08-19T10:57:01Z</time>
      </trkpt>
      <trkpt lat="48.30854" lon="7.03268">
        <ele>688.4</ele>
        <time>2023-08-19T10:57:22Z</time>
      </trkpt>
      <trkpt lat="48.30815" lon="7.03211">
        <ele>694.1</ele>
        <time>2023-08-19T10:57:38Z</time>
      </trkpt>
      <trkpt lat="48.30761" lon="7.03195">
        <ele>699.7</ele>
        <time>2023-08-19T10:57:55Z</time>
      </trkpt>
      <trkpt lat="48.30708" lon="7.03166">
        <ele>705.8</ele>
        <time>2023-08-19T10:58:10Z</time>
      </trkpt>
      <trkpt lat="48.30675" lon="7.03144">
        <ele>709.3</ele>
        <time>2023-08-19T10:58:21Z</time>
      </trkpt>
      <trkpt lat="48.30659" lon="7.03135">
        <ele>708.1</ele>
        <time>2023-08-19T10:59:36Z</time>
      </trkpt>
      <trkpt lat="48.30643" lon="7.03117">
        <ele>705.7</ele>
        <time>2023-08-19T10:59:41Z</time>
      </trkpt>
      <trkpt lat="48.30596" lon="7.03069">
        <ele>698.6</ele>
        <time>2023-08-19T10:59:49Z</time>
      </trkpt>
      <trkpt lat="48.3056" lon="7.03027">
        <ele>693.2</ele>
        <time>2023-08-19T10:59:54Z</time>
      </trkpt>
      <trkpt lat="48.30533" lon="7.02998">
        <ele>689.2</ele>
        <time>2023-08-19T10:59:58Z</time>
      </trkpt>
      <trkpt lat="48.30485" lon="7.02939">
        <ele>682.2</ele>
        <time>2023-08-19T11:00:05Z</time>
      </trkpt>
      <trkpt lat="48.30478" lon="7.02927">
        <ele>680.9</ele>
        <time>2023-08-19T11:00:06Z</time>
      </trkpt>
      <trkpt lat="48.30439" lon="7.02861">
        <ele>674.8</ele>
        <time>2023-08-19T11:00:11Z</time>
      </trkpt>
      <trkpt lat="48.30401" lon="7.02794">
        <ele>668.7</ele>
        <time>2023-08-19T11:00:16Z</time>
      </trkpt>
      <trkpt lat="48.30371" lon="7.02717">
        <ele>663.6</ele>
        <time>2023-08-19T11:00:21Z</time>
      </trkpt>
      <trkpt lat="48.30349" lon="7.02634">
        <ele>659.5</ele>
        <time>2023-08-19T11:00:26Z</time>
      </trkpt>
      <trkpt lat="48.30334" lon="7.0255">
        <ele>654.8</ele>
        <time>2023-08-19T11:00:31Z</time>
      </trkpt>
      <trkpt lat="48.30324" lon="7.02456">
        <ele>649.3</ele>
        <time>2023-08-19T11:00:37Z</time>
      </trkpt>
      <trkpt lat="48.30313" lon="7.02416">
        <ele>647.1</ele>
        <time>2023-08-19T11:00:40Z</time>
      </trkpt>
      <trkpt lat="48.30301" lon="7.02391">
        <ele>645.6</ele>
        <time>2023-08-19T11:00:42Z</time>
      </trkpt>
      <trkpt lat="48.30259" lon="7.02328">
        <ele>639.8</ele>
        <time>2023-08-19T11:00:48Z</time>
      </trkpt>
      <trkpt lat="48.30217" lon="7.02269">
        <ele>632.5</ele>
        <time>2023-08-19T11:00:54Z</time>
      </trkpt>
      <trkpt lat="48.30216" lon="7.0226">
        <ele>631.7</ele>
        <time>2023-08-19T11:00:55Z</time>
      </trkpt>
      <trkpt lat="48.30217" lon="7.02241">
        <ele>630.2</ele>
        <time>2023-08-19T11:00:57Z</time>
      </trkpt>
      <trkpt lat="48.30227" lon="7.02227">
        <ele>628.3</ele>
        <time>2023-08-19T11:00:59Z</time>
      </trkpt>
      <trkpt lat="48.30243" lon="7.02218">
        <ele>625.9</ele>
        <time>2023-08-19T11:01:01Z</time>
      </trkpt>
      <trkpt lat="48.30298" lon="7.02201">
        <ele>617</ele>
        <time>2023-08-19T11:01:06Z</time>
      </trkpt>
      <trkpt lat="48.30319" lon="7.02189">
        <ele>613.8</ele>
        <time>2023-08-19T11:01:08Z</time>
      </trkpt>
      <trkpt lat="48.30333" lon="7.02159">
        <ele>609.6</ele>
        <time>2023-08-19T11:01:10Z</time>
      </trkpt>
      <trkpt lat="48.30364" lon="7.02082">
        <ele>600.4</ele>
        <time>2023-08-19T11:01:15Z</time>
      </trkpt>
      <trkpt lat="48.30382" lon="7.02003">
        <ele>593.1</ele>
        <time>2023-08-19T11:01:20Z</time>
      </trkpt>
      <trkpt lat="48.30391" lon="7.01979">
        <ele>590.5</ele>
        <time>2023-08-19T11:01:22Z</time>
      </trkpt>
      <trkpt lat="48.30405" lon="7.01959">
        <ele>587.5</ele>
        <time>2023-08-19T11:01:24Z</time>
      </trkpt>
      <trkpt lat="48.30424" lon="7.0195">
        <ele>584.2</ele>
        <time>2023-08-19T11:01:26Z</time>
      </trkpt>
      <trkpt lat="48.30466" lon="7.01935">
        <ele>577.8</ele>
        <time>2023-08-19T11:01:30Z</time>
      </trkpt>
      <trkpt lat="48.30481" lon="7.01911">
        <ele>574.6</ele>
        <time>2023-08-19T11:01:32Z</time>
      </trkpt>
      <trkpt lat="48.30519" lon="7.01847">
        <ele>567</ele>
        <time>2023-08-19T11:01:37Z</time>
      </trkpt>
      <trkpt lat="48.30564" lon="7.01791">
        <ele>559.5</ele>
        <time>2023-08-19T11:01:42Z</time>
      </trkpt>
      <trkpt lat="48.30606" lon="7.01763">
        <ele>553.9</ele>
        <time>2023-08-19T11:01:46Z</time>
      </trkpt>
      <trkpt lat="48.30657" lon="7.01754">
        <ele>547.2</ele>
        <time>2023-08-19T11:01:51Z</time>
      </trkpt>
      <trkpt lat="48.30684" lon="7.01761">
        <ele>543.4</ele>
        <time>2023-08-19T11:01:54Z</time>
      </trkpt>
      <trkpt lat="48.30709" lon="7.01775">
        <ele>535.9</ele>
        <time>2023-08-19T11:01:57Z</time>
      </trkpt>
      <trkpt lat="48.3073" lon="7.0178">
        <ele>528.1</ele>
        <time>2023-08-19T11:02:00Z</time>
      </trkpt>
      <trkpt lat="48.30744" lon="7.0178">
        <ele>526.1</ele>
        <time>2023-08-19T11:02:07Z</time>
      </trkpt>
      <trkpt lat="48.30743" lon="7.01776">
        <ele>525.7</ele>
        <time>2023-08-19T11:02:09Z</time>
      </trkpt>
      <trkpt lat="48.30731" lon="7.01754">
        <ele>523.1</ele>
        <time>2023-08-19T11:02:11Z</time>
      </trkpt>
      <trkpt lat="48.30712" lon="7.01726">
        <ele>520.4</ele>
        <time>2023-08-19T11:02:13Z</time>
      </trkpt>
      <trkpt lat="48.30668" lon="7.01677">
        <ele>516.5</ele>
        <time>2023-08-19T11:02:16Z</time>
      </trkpt>
      <trkpt lat="48.3062" lon="7.01636">
        <ele>511.4</ele>
        <time>2023-08-19T11:02:19Z</time>
      </trkpt>
      <trkpt lat="48.30562" lon="7.01612">
        <ele>508</ele>
        <time>2023-08-19T11:02:24Z</time>
      </trkpt>
      <trkpt lat="48.30543" lon="7.01616">
        <ele>507.5</ele>
        <time>2023-08-19T11:02:26Z</time>
      </trkpt>
      <trkpt lat="48.30495" lon="7.01564">
        <ele>507.5</ele>
        <time>2023-08-19T11:02:32Z</time>
      </trkpt>
      <trkpt lat="48.30448" lon="7.01535">
        <ele>505.4</ele>
        <time>2023-08-19T11:02:38Z</time>
      </trkpt>
      <trkpt lat="48.30387" lon="7.01536">
        <ele>501.9</ele>
        <time>2023-08-19T11:02:45Z</time>
      </trkpt>
      <trkpt lat="48.30329" lon="7.01508">
        <ele>499.8</ele>
        <time>2023-08-19T11:02:52Z</time>
      </trkpt>
      <trkpt lat="48.30276" lon="7.01466">
        <ele>492.9</ele>
        <time>2023-08-19T11:02:59Z</time>
      </trkpt>
      <trkpt lat="48.30253" lon="7.01458">
        <ele>489.2</ele>
        <time>2023-08-19T11:03:01Z</time>
      </trkpt>
      <trkpt lat="48.30215" lon="7.01453">
        <ele>484.9</ele>
        <time>2023-08-19T11:03:04Z</time>
      </trkpt>
      <trkpt lat="48.30193" lon="7.0144">
        <ele>483.3</ele>
        <time>2023-08-19T11:03:06Z</time>
      </trkpt>
      <trkpt lat="48.30177" lon="7.01416">
        <ele>482.6</ele>
        <time>2023-08-19T11:03:08Z</time>
      </trkpt>
      <trkpt lat="48.30143" lon="7.01372">
        <ele>482.4</ele>
        <time>2023-08-19T11:03:12Z</time>
      </trkpt>
      <trkpt lat="48.3009" lon="7.0133">
        <ele>481.4</ele>
        <time>2023-08-19T11:03:19Z</time>
      </trkpt>
      <trkpt lat="48.30077" lon="7.01316">
        <ele>480.4</ele>
        <time>2023-08-19T11:03:21Z</time>
      </trkpt>
      <trkpt lat="48.30033" lon="7.01267">
        <ele>475.9</ele>
        <time>2023-08-19T11:03:27Z</time>
      </trkpt>
      <trkpt lat="48.30025" lon="7.01258">
        <ele>475.4</ele>
        <time>2023-08-19T11:03:28Z</time>
      </trkpt>
      <trkpt lat="48.30002" lon="7.01221">
        <ele>473.7</ele>
        <time>2023-08-19T11:03:32Z</time>
      </trkpt>
      <trkpt lat="48.29994" lon="7.01198">
        <ele>473</ele>
        <time>2023-08-19T11:03:34Z</time>
      </trkpt>
      <trkpt lat="48.29983" lon="7.01152">
        <ele>471.7</ele>
        <time>2023-08-19T11:03:38Z</time>
      </trkpt>
      <trkpt lat="48.29974" lon="7.01133">
        <ele>471.4</ele>
        <time>2023-08-19T11:03:40Z</time>
      </trkpt>
      <trkpt lat="48.29956" lon="7.01111">
        <ele>471.3</ele>
        <time>2023-08-19T11:03:43Z</time>
      </trkpt>
      <trkpt lat="48.29943" lon="7.01098">
        <ele>471.4</ele>
        <time>2023-08-19T11:03:45Z</time>
      </trkpt>
      <trkpt lat="48.29903" lon="7.01032">
        <ele>472.4</ele>
        <time>2023-08-19T11:03:54Z</time>
      </trkpt>
      <trkpt lat="48.29874" lon="7.00961">
        <ele>473.8</ele>
        <time>2023-08-19T11:04:05Z</time>
      </trkpt>
      <trkpt lat="48.29865" lon="7.00929">
        <ele>474.2</ele>
        <time>2023-08-19T11:04:10Z</time>
      </trkpt>
      <trkpt lat="48.29862" lon="7.00918">
        <ele>474.2</ele>
        <time>2023-08-19T11:04:12Z</time>
      </trkpt>
      <trkpt lat="48.29852" lon="7.00874">
        <ele>472.9</ele>
        <time>2023-08-19T11:04:19Z</time>
      </trkpt>
      <trkpt lat="48.29846" lon="7.00861">
        <ele>471.7</ele>
        <time>2023-08-19T11:04:21Z</time>
      </trkpt>
      <trkpt lat="48.29823" lon="7.00819">
        <ele>467.6</ele>
        <time>2023-08-19T11:04:26Z</time>
      </trkpt>
      <trkpt lat="48.2981" lon="7.00768">
        <ele>465.8</ele>
        <time>2023-08-19T11:04:32Z</time>
      </trkpt>
      <trkpt lat="48.29804" lon="7.00756">
        <ele>466.4</ele>
        <time>2023-08-19T11:04:34Z</time>
      </trkpt>
      <trkpt lat="48.29791" lon="7.00739">
        <ele>467.3</ele>
        <time>2023-08-19T11:04:37Z</time>
      </trkpt>
      <trkpt lat="48.2974" lon="7.00695">
        <ele>467.2</ele>
        <time>2023-08-19T11:04:49Z</time>
      </trkpt>
      <trkpt lat="48.29692" lon="7.00657">
        <ele>463.7</ele>
        <time>2023-08-19T11:04:58Z</time>
      </trkpt>
      <trkpt lat="48.29646" lon="7.00615">
        <ele>462</ele>
        <time>2023-08-19T11:05:05Z</time>
      </trkpt>
      <trkpt lat="48.29608" lon="7.00555">
        <ele>463.4</ele>
        <time>2023-08-19T11:05:13Z</time>
      </trkpt>
      <trkpt lat="48.29557" lon="7.00513">
        <ele>466.7</ele>
        <time>2023-08-19T11:05:24Z</time>
      </trkpt>
      <trkpt lat="48.29509" lon="7.00487">
        <ele>470</ele>
        <time>2023-08-19T11:05:37Z</time>
      </trkpt>
      <trkpt lat="48.29471" lon="7.00455">
        <ele>472.4</ele>
        <time>2023-08-19T11:05:48Z</time>
      </trkpt>
      <trkpt lat="48.29467" lon="7.00445">
        <ele>472.7</ele>
        <time>2023-08-19T11:05:50Z</time>
      </trkpt>
      <trkpt lat="48.29464" lon="7.00421">
        <ele>473.3</ele>
        <time>2023-08-19T11:05:54Z</time>
      </trkpt>
      <trkpt lat="48.29472" lon="7.00364">
        <ele>474.1</ele>
        <time>2023-08-19T11:06:03Z</time>
      </trkpt>
      <trkpt lat="48.29502" lon="7.00294">
        <ele>474.2</ele>
        <time>2023-08-19T11:06:14Z</time>
      </trkpt>
      <trkpt lat="48.29509" lon="7.00281">
        <ele>474.2</ele>
        <time>2023-08-19T11:06:16Z</time>
      </trkpt>
      <trkpt lat="48.29518" lon="7.0027">
        <ele>474.1</ele>
        <time>2023-08-19T11:06:18Z</time>
      </trkpt>
      <trkpt lat="48.29528" lon="7.00264">
        <ele>474</ele>
        <time>2023-08-19T11:06:20Z</time>
      </trkpt>
      <trkpt lat="48.29539" lon="7.00262">
        <ele>474</ele>
        <time>2023-08-19T11:06:22Z</time>
      </trkpt>
      <trkpt lat="48.29593" lon="7.00269">
        <ele>473.7</ele>
        <time>2023-08-19T11:06:32Z</time>
      </trkpt>
      <trkpt lat="48.29599" lon="7.00266">
        <ele>473.6</ele>
        <time>2023-08-19T11:06:33Z</time>
      </trkpt>
      <trkpt lat="48.2961" lon="7.00257">
        <ele>473.5</ele>
        <time>2023-08-19T11:06:35Z</time>
      </trkpt>
      <trkpt lat="48.29618" lon="7.00244">
        <ele>473.4</ele>
        <time>2023-08-19T11:06:37Z</time>
      </trkpt>
      <trkpt lat="48.29626" lon="7.00223">
        <ele>473.3</ele>
        <time>2023-08-19T11:06:40Z</time>
      </trkpt>
      <trkpt lat="48.29622" lon="7.00205">
        <ele>473.1</ele>
        <time>2023-08-19T11:06:42Z</time>
      </trkpt>
      <trkpt lat="48.29613" lon="7.00189">
        <ele>472.9</ele>
        <time>2023-08-19T11:06:44Z</time>
      </trkpt>
      <trkpt lat="48.29572" lon="7.00134">
        <ele>472.6</ele>
        <time>2023-08-19T11:06:53Z</time>
      </trkpt>
      <trkpt lat="48.29561" lon="7.00117">
        <ele>472.5</ele>
        <time>2023-08-19T11:06:56Z</time>
      </trkpt>
      <trkpt lat="48.29556" lon="7.00104">
        <ele>472.4</ele>
        <time>2023-08-19T11:06:58Z</time>
      </trkpt>
      <trkpt lat="48.29553" lon="7.00086">
        <ele>472.2</ele>
        <time>2023-08-19T11:07:00Z</time>
      </trkpt>
      <trkpt lat="48.29552" lon="7.00064">
        <ele>472.1</ele>
        <time>2023-08-19T11:07:02Z</time>
      </trkpt>
      <trkpt lat="48.29566" lon="7.00029">
        <ele>471.7</ele>
        <time>2023-08-19T11:07:06Z</time>
      </trkpt>
      <trkpt lat="48.29576" lon="7.00015">
        <ele>471.5</ele>
        <time>2023-08-19T11:07:08Z</time>
      </trkpt>
      <trkpt lat="48.29625" lon="6.99978">
        <ele>470.8</ele>
        <time>2023-08-19T11:07:16Z</time>
      </trkpt>
      <trkpt lat="48.29636" lon="6.99968">
        <ele>470.7</ele>
        <time>2023-08-19T11:07:18Z</time>
      </trkpt>
      <trkpt lat="48.29647" lon="6.99954">
        <ele>470.4</ele>
        <time>2023-08-19T11:07:20Z</time>
      </trkpt>
      <trkpt lat="48.29657" lon="6.99928">
        <ele>470.1</ele>
        <time>2023-08-19T11:07:23Z</time>
      </trkpt>
      <trkpt lat="48.29658" lon="6.99911">
        <ele>469.9</ele>
        <time>2023-08-19T11:07:25Z</time>
      </trkpt>
      <trkpt lat="48.29654" lon="6.99892">
        <ele>469.8</ele>
        <time>2023-08-19T11:07:27Z</time>
      </trkpt>
      <trkpt lat="48.29645" lon="6.9987">
        <ele>469.7</ele>
        <time>2023-08-19T11:07:30Z</time>
      </trkpt>
      <trkpt lat="48.29634" lon="6.9986">
        <ele>469.5</ele>
        <time>2023-08-19T11:07:32Z</time>
      </trkpt>
      <trkpt lat="48.29589" lon="6.99827">
        <ele>468.9</ele>
        <time>2023-08-19T11:07:39Z</time>
      </trkpt>
      <trkpt lat="48.29572" lon="6.99807">
        <ele>468.4</ele>
        <time>2023-08-19T11:07:42Z</time>
      </trkpt>
      <trkpt lat="48.29566" lon="6.9979">
        <ele>468.1</ele>
        <time>2023-08-19T11:07:44Z</time>
      </trkpt>
      <trkpt lat="48.2956" lon="6.99751">
        <ele>467.8</ele>
        <time>2023-08-19T11:07:48Z</time>
      </trkpt>
      <trkpt lat="48.29559" lon="6.99718">
        <ele>467.6</ele>
        <time>2023-08-19T11:07:51Z</time>
      </trkpt>
      <trkpt lat="48.29551" lon="6.99632">
        <ele>467.1</ele>
        <time>2023-08-19T11:07:59Z</time>
      </trkpt>
      <trkpt lat="48.2955" lon="6.99542">
        <ele>466</ele>
        <time>2023-08-19T11:08:08Z</time>
      </trkpt>
      <trkpt lat="48.29546" lon="6.99454">
        <ele>465</ele>
        <time>2023-08-19T11:08:16Z</time>
      </trkpt>
      <trkpt lat="48.29542" lon="6.99382">
        <ele>464.4</ele>
        <time>2023-08-19T11:08:23Z</time>
      </trkpt>
      <trkpt lat="48.29536" lon="6.99362">
        <ele>464.1</ele>
        <time>2023-08-19T11:08:25Z</time>
      </trkpt>
      <trkpt lat="48.29526" lon="6.99346">
        <ele>463.7</ele>
        <time>2023-08-19T11:08:27Z</time>
      </trkpt>
      <trkpt lat="48.29482" lon="6.99295">
        <ele>463</ele>
        <time>2023-08-19T11:08:35Z</time>
      </trkpt>
      <trkpt lat="48.29469" lon="6.99274">
        <ele>462.5</ele>
        <time>2023-08-19T11:08:38Z</time>
      </trkpt>
      <trkpt lat="48.29464" lon="6.99256">
        <ele>462.2</ele>
        <time>2023-08-19T11:08:40Z</time>
      </trkpt>
      <trkpt lat="48.29462" lon="6.99235">
        <ele>461.8</ele>
        <time>2023-08-19T11:08:42Z</time>
      </trkpt>
      <trkpt lat="48.29464" lon="6.99212">
        <ele>461.5</ele>
        <time>2023-08-19T11:08:44Z</time>
      </trkpt>
      <trkpt lat="48.29471" lon="6.99191">
        <ele>461</ele>
        <time>2023-08-19T11:08:46Z</time>
      </trkpt>
      <trkpt lat="48.29481" lon="6.99174">
        <ele>460.7</ele>
        <time>2023-08-19T11:08:48Z</time>
      </trkpt>
      <trkpt lat="48.295" lon="6.99156">
        <ele>460.2</ele>
        <time>2023-08-19T11:08:51Z</time>
      </trkpt>
      <trkpt lat="48.29513" lon="6.9915">
        <ele>459.8</ele>
        <time>2023-08-19T11:08:53Z</time>
      </trkpt>
      <trkpt lat="48.29528" lon="6.9915">
        <ele>459.3</ele>
        <time>2023-08-19T11:08:55Z</time>
      </trkpt>
      <trkpt lat="48.29543" lon="6.99153">
        <ele>458.8</ele>
        <time>2023-08-19T11:08:57Z</time>
      </trkpt>
      <trkpt lat="48.29575" lon="6.99164">
        <ele>457.8</ele>
        <time>2023-08-19T11:09:01Z</time>
      </trkpt>
      <trkpt lat="48.29589" lon="6.99156">
        <ele>457.4</ele>
        <time>2023-08-19T11:09:03Z</time>
      </trkpt>
      <trkpt lat="48.29605" lon="6.99135">
        <ele>456.9</ele>
        <time>2023-08-19T11:09:06Z</time>
      </trkpt>
      <trkpt lat="48.29608" lon="6.99115">
        <ele>456.8</ele>
        <time>2023-08-19T11:09:08Z</time>
      </trkpt>
      <trkpt lat="48.29606" lon="6.99082">
        <ele>456.5</ele>
        <time>2023-08-19T11:09:11Z</time>
      </trkpt>
      <trkpt lat="48.29597" lon="6.98993">
        <ele>455.5</ele>
        <time>2023-08-19T11:09:19Z</time>
      </trkpt>
      <trkpt lat="48.29594" lon="6.98906">
        <ele>454.8</ele>
        <time>2023-08-19T11:09:28Z</time>
      </trkpt>
      <trkpt lat="48.29594" lon="6.9882">
        <ele>454.4</ele>
        <time>2023-08-19T11:09:36Z</time>
      </trkpt>
      <trkpt lat="48.29585" lon="6.98742">
        <ele>452.7</ele>
        <time>2023-08-19T11:09:43Z</time>
      </trkpt>
      <trkpt lat="48.29573" lon="6.98712">
        <ele>451.5</ele>
        <time>2023-08-19T11:09:46Z</time>
      </trkpt>
      <trkpt lat="48.29533" lon="6.98646">
        <ele>448.4</ele>
        <time>2023-08-19T11:09:53Z</time>
      </trkpt>
      <trkpt lat="48.29491" lon="6.98599">
        <ele>446.7</ele>
        <time>2023-08-19T11:10:00Z</time>
      </trkpt>
      <trkpt lat="48.29492" lon="6.98592">
        <ele>446.7</ele>
        <time>2023-08-19T11:10:02Z</time>
      </trkpt>
      <trkpt lat="48.29521" lon="6.98604">
        <ele>446.7</ele>
        <time>2023-08-19T11:10:11Z</time>
      </trkpt>
    </trkseg>
  </trk>
</gpx>